SondeTracker

Meteorological Radiosondes Database

Operations

Sounding was ended - last measurement: 2022-12-06 01:26:01z

MAP
About Radiosonde

Number: U0230102

Launch Site: Madrid (ES)

Type: RS41

AUX: NO

Frequency: 403.000 MHz

Max Speed: 93 km/h at 29049 m

Average Speed: 32.98 km/h

Max Altitude: 29335 m

Average Ascent Speed: 4.09 m/s

Average Descent Speed: 33.40 m/s

Status: FOUND

Status Changes
Launch Site Type AUX Frequency Status Finder Landing Point Description Changes made by
MHz FOUND EA4EKH 0, 0 [via SondeHub] [BOT]AUTO-STATUS - 2022-12-06 10:45:29z
APRS Statistics

Received Frames: 1206

First Frame [UTC]: 2022-12-05 23:16:18z

Last Frame [UTC]: 2022-12-06 01:26:01z

Receivers: EA1JAY-16, EA4CP-14, EA4EKH-11, EA4EKH-12, EA4GBR-10, EA4GSU-11, LETO2-14

Flight Time: 02:09:43 h

Distance From First Measurement: 43.63 km

Nearest City: Guadalajara (ES) [13.28 km]

Nearest Hunter: LETO [16.65 km]

Ground Altitude: 903 m

Distance from QTH: 0.00 km

APRS Data
Receiver Number Date/Time [UTC] φ λ Course [°] Speed [km/h] Altitude [m] Description
EA4EKH-11U02301022022-12-06 01:26:0140.5372-3.0746929191009Clb=-16.9m/s t=8.0C h=91.3% p=905.0hPa 403.000 MHz Type=RS41-SGP ser=U0230102 Radiosonde
EA4EKH-11U02301022022-12-06 01:25:2940.5372-3.07466299111025Clb=-16.7m/s t=8.0C h=91.0% p=903.2hPa 403.000 MHz Type=RS41-SGP ser=U0230102 Radiosonde
LETO2-14U02301022022-12-06 01:25:0540.5357-3.073991351424Clb=-16.7m/s p=860.5hPa t=6.9C h=86.6% 403.00MHz Type=RS41-SGP batt=2.5V Radiosonde Tracker +Info: 403MHz@gmail.com
LETO2-14U02301022022-12-06 01:25:0140.5354-3.0742311492Clb=-17.1m/s p=853.2hPa t=6.6C h=87.4% 403.00MHz Type=RS41-SGP Radiosonde Tracker +Info: 403MHz@gmail.com
EA4CP-14U02301022022-12-06 01:24:5940.5352-3.074017241526Clb=-17.1m/s p=849.8hPa t=6.6C h=87.1% 403.00MHz Type=RS41-SGP batt=2.5V Details on http://radiosondy.info
EA4EKH-11U02301022022-12-06 01:24:5840.5351-3.074035261543Clb=-16.7m/s t=6.5C h=84.9% p=848.2hPa 403.000 MHz Type=RS41-SGP ser=U0230102 Radiosonde
LETO2-14U02301022022-12-06 01:24:5740.5351-3.074034221559Clb=-17.3m/s p=845.9hPa t=6.4C h=87.3% 403.00MHz Type=RS41-SGP Radiosonde Tracker +Info: 403MHz@gmail.com
LETO2-14U02301022022-12-06 01:24:5340.5349-3.074053191627Clb=-17.5m/s p=839.4hPa t=6.3C h=86.2% 403.00MHz Type=RS41-SGP batt=2.5V Radiosonde Tracker +Info: 403MHz@gmail.com
LETO2-14U02301022022-12-06 01:24:4940.5347-3.0741226171697Clb=-17.4m/s p=831.9hPa t=6.2C h=81.9% 403.00MHz Type=RS41-SGP Radiosonde Tracker +Info: 403MHz@gmail.com
EA4CP-14U02301022022-12-06 01:24:4740.5346-3.0741633171731Clb=-17.9m/s p=829.0hPa t=5.9C h=82.3% 403.00MHz Type=RS41-SGP Details on http://radiosondy.info
LETO2-14U02301022022-12-06 01:24:4540.5346-3.0742352151767Clb=-18.1m/s p=825.6hPa t=5.6C h=83.7% 403.00MHz Type=RS41-SGP Radiosonde Tracker +Info: 403MHz@gmail.com
EA4CP-14U02301022022-12-06 01:24:4240.5345-3.0743543191821Clb=-18.1m/s p=819.9hPa t=5.1C h=86.0% 403.00MHz Type=RS41-SGP batt=2.5V Details on http://radiosondy.info
LETO2-14U02301022022-12-06 01:24:4140.5345-3.0743933191838Clb=-17.1m/s p=818.3hPa t=5.0C h=86.8% 403.00MHz Type=RS41-SGP TxOff=8h17m batt=2.6V Radiosonde Tracker +Info: 403MHz@gmail.com
LETO2-14U02301022022-12-06 01:24:3740.5343-3.074526191908Clb=-17.5m/s p=811.4hPa t=4.4C h=89.7% 403.00MHz Type=RS41-SGP Radiosonde Tracker +Info: 403MHz@gmail.com
EA4CP-14U02301022022-12-06 01:24:3640.5343-3.0745323191926Clb=-17.6m/s p=809.9hPa t=4.3C h=89.9% 403.00MHz Type=RS41-SGP Details on http://radiosondy.info
LETO2-14U02301022022-12-06 01:24:3340.5341-3.0746129201979Clb=-18.0m/s p=804.3hPa t=3.9C h=90.4% 403.00MHz Type=RS41-SGP Radiosonde Tracker +Info: 403MHz@gmail.com
EA4CP-14U02301022022-12-06 01:24:3140.534-3.0747238242032Clb=-18.0m/s p=799.2hPa t=3.5C h=91.6% 403.00MHz Type=RS41-SGP Details on http://radiosondy.info
LETO2-14U02301022022-12-06 01:24:2940.534-3.0747742242050Clb=-16.9m/s p=797.5hPa t=3.5C h=90.0% 403.00MHz Type=RS41-SGP batt=2.6V Radiosonde Tracker +Info: 403MHz@gmail.com
EA4EKH-11U02301022022-12-06 01:24:2740.5339-3.0748532242083Clb=-17.0m/s t=3.4C h=87.6% p=793.9hPa 403.000 MHz Type=RS41-SGP ser=U0230102 Radiosonde
EA4CP-14U02301022022-12-06 01:24:2440.5337-3.0749633282133Clb=-18.8m/s p=789.4hPa t=2.9C h=91.0% 403.00MHz Type=RS41-SGP TxOff=8h17m batt=2.5V Details on http://radiosondy.info
LETO2-14U02301022022-12-06 01:24:2340.5337-3.0750136262152Clb=-19.1m/s p=787.1hPa t=2.8C h=91.9% 403.00MHz Type=RS41-SGP Radiosonde Tracker +Info: 403MHz@gmail.com
LETO2-14U02301022022-12-06 01:24:1940.5334-3.0751924312222Clb=-18.1m/s p=780.6hPa t=2.2C h=92.2% 403.00MHz Type=RS41-SGP Radiosonde Tracker +Info: 403MHz@gmail.com
EA4CP-14U02301022022-12-06 01:24:1840.5334-3.0752325332240Clb=-17.7m/s p=778.8hPa t=2.1C h=92.6% 403.00MHz Type=RS41-SGP Details on http://radiosondy.info
LETO2-14U02301022022-12-06 01:24:1540.5331-3.0753420302293Clb=-18.5m/s p=773.5hPa t=1.8C h=93.3% 403.00MHz Type=RS41-SGP batt=2.4V Radiosonde Tracker +Info: 403MHz@gmail.com
EA4CP-14U02301022022-12-06 01:24:1340.533-3.075399302327Clb=-17.3m/s p=770.5hPa t=1.6C h=94.6% 403.00MHz Type=RS41-SGP Details on http://radiosondy.info
LETO2-14U02301022022-12-06 01:24:1140.5329-3.0754213312363Clb=-19.1m/s p=767.3hPa t=1.3C h=94.9% 403.00MHz Type=RS41-SGP Radiosonde Tracker +Info: 403MHz@gmail.com
LETO2-14U02301022022-12-06 01:24:0740.5326-3.0755112312435Clb=-18.3m/s p=760.3hPa t=0.8C h=94.6% 403.00MHz Type=RS41-SGP Radiosonde Tracker +Info: 403MHz@gmail.com
LETO2-14U02301022022-12-06 01:24:0340.5323-3.0755811352507Clb=-18.8m/s p=753.0hPa t=0.3C h=95.0% 403.00MHz Type=RS41-SGP TxOff=8h18m batt=2.6V Radiosonde Tracker +Info: 403MHz@gmail.com
EA4CP-14U02301022022-12-06 01:24:0140.5321-3.0756211352544Clb=-17.4m/s p=750.3hPa t=0.0C 403.00MHz Type=RS41-SGP Details on http://radiosondy.info
LETO2-14U02301022022-12-06 01:23:5940.5319-3.075665372579Clb=-17.9m/s p=747.0hPa t=-0.2C 403.00MHz Type=RS41-SGP Radiosonde Tracker +Info: 403MHz@gmail.com
EA4EKH-11U02301022022-12-06 01:23:5640.5316-3.075717352634Clb=-18.4m/s t=-0.8C h=96.3% p=741.8hPa 403.000 MHz Type=RS41-SGP ser=U0230102 Radiosonde
LETO2-14U02301022022-12-06 01:23:5540.5315-3.075728372652Clb=-17.3m/s p=740.1hPa t=-0.9C 403.00MHz Type=RS41-SGP Radiosonde Tracker +Info: 403MHz@gmail.com
LETO2-14U02301022022-12-06 01:23:5140.5312-3.075773392725Clb=-18.3m/s p=733.5hPa t=-1.3C 403.00MHz Type=RS41-SGP batt=2.5V Radiosonde Tracker +Info: 403MHz@gmail.com
EA4CP-14U02301022022-12-06 01:23:4940.531-3.07586442761Clb=-17.5m/s p=729.7hPa t=-1.5C h=98.8% 403.00MHz Type=RS41-SGP batt=2.4V Details on http://radiosondy.info
EA4CP-14U02301022022-12-06 01:23:4340.5303-3.075883442869Clb=-20.4m/s p=720.2hPa t=-2.2C 403.00MHz Type=RS41-SGP Details on http://radiosondy.info
EA4CP-14U02301022022-12-06 01:23:3840.5298-3.0759519352963Clb=-17.8m/s p=711.6hPa t=-2.8C 403.00MHz Type=RS41-SGP Details on http://radiosondy.info
LETO2-14U02301022022-12-06 01:23:3340.5293-3.076037333056Clb=-18.4m/s p=703.7hPa t=-3.3C 403.00MHz Type=RS41-SGP Radiosonde Tracker +Info: 403MHz@gmail.com
EA4EKH-11U02301022022-12-06 01:23:2540.5286-3.0761816393205Clb=-19.1m/s t=-4.3C h=100.0% p=690.5hPa 403.000 MHz Type=RS41-SGP ser=U0230102 Radiosonde
LETO2-14U02301022022-12-06 01:23:2040.5282-3.0763120313300Clb=-19.3m/s p=682.5hPa t=-4.9C 403.00MHz Type=RS41-SGP Radiosonde Tracker +Info: 403MHz@gmail.com
LETO2-14U02301022022-12-06 01:23:1640.5279-3.0764421313377Clb=-18.7m/s p=675.8hPa t=-5.5C 403.00MHz Type=RS41-SGP batt=2.4V Radiosonde Tracker +Info: 403MHz@gmail.com
LETO2-14U02301022022-12-06 01:23:1240.5276-3.0765524313452Clb=-17.7m/s p=669.0hPa t=-5.9C 403.00MHz Type=RS41-SGP Radiosonde Tracker +Info: 403MHz@gmail.com
EA4CP-14U02301022022-12-06 01:23:0940.5274-3.0766429283507Clb=-18.3m/s p=664.4hPa t=-6.3C 403.00MHz Type=RS41-SGP Details on http://radiosondy.info
LETO2-14U02301022022-12-06 01:23:0640.5271-3.0767523303562Clb=-17.7m/s p=659.6hPa t=-6.6C 403.00MHz Type=RS41-SGP Radiosonde Tracker +Info: 403MHz@gmail.com
LETO2-14U02301022022-12-06 01:23:0040.5267-3.076913303670Clb=-18.3m/s p=650.9hPa t=-7.3C 403.00MHz Type=RS41-SGP TxOff=8h19m batt=2.4V Radiosonde Tracker +Info: 403MHz@gmail.com
LETO2-14U02301022022-12-06 01:22:5640.5264-3.0770125203743Clb=-17.1m/s p=644.1hPa t=-8.0C 403.00MHz Type=RS41-SGP Radiosonde Tracker +Info: 403MHz@gmail.com
EA4EKH-11U02301022022-12-06 01:22:5440.5264-3.0770631173781Clb=-19.7m/s t=-7.2C h=88.9% p=641.4hPa 403.000 MHz Type=RS41-SGP ser=U0230102 Radiosonde
LETO2-14U02301022022-12-06 01:22:5040.5262-3.0771317203859Clb=-20.8m/s p=635.3hPa t=-7.0C h=84.6% 403.00MHz Type=RS41-SGP Radiosonde Tracker +Info: 403MHz@gmail.com
LETO2-14U02301022022-12-06 01:22:4640.526-3.07723283937Clb=-19.7m/s p=628.8hPa t=-7.1C h=79.0% 403.00MHz Type=RS41-SGP batt=2.4V Radiosonde Tracker +Info: 403MHz@gmail.com
LETO2-14U02301022022-12-06 01:22:4240.5257-3.07723354304012Clb=-20.1m/s p=622.2hPa t=-7.5C h=82.4% 403.00MHz Type=RS41-SGP Radiosonde Tracker +Info: 403MHz@gmail.com
LETO2-14U02301022022-12-06 01:22:3840.5254-3.07716354284092Clb=-20.5m/s p=615.9hPa t=-8.0C h=81.5% 403.00MHz Type=RS41-SGP Radiosonde Tracker +Info: 403MHz@gmail.com
LETO2-14U02301022022-12-06 01:22:3440.5252-3.07711352334170Clb=-20.2m/s p=610.2hPa t=-8.3C h=81.5% 403.00MHz Type=RS41-SGP batt=2.5V Radiosonde Tracker +Info: 403MHz@gmail.com
LETO2-14U02301022022-12-06 01:22:3040.5248-3.07707359284248Clb=-20.4m/s p=604.0hPa t=-8.9C h=80.5% 403.00MHz Type=RS41-SGP Radiosonde Tracker +Info: 403MHz@gmail.com
LETO2-14U02301022022-12-06 01:22:2640.5245-3.07703351314326Clb=-20.0m/s p=598.2hPa t=-9.5C h=84.0% 403.00MHz Type=RS41-SGP Radiosonde Tracker +Info: 403MHz@gmail.com
EA4EKH-11U02301022022-12-06 01:22:2340.5243-3.07699339304383Clb=-19.3m/s t=-9.9C h=79.5% p=593.8hPa 403.000 MHz Type=RS41-SGP ser=U0230102 Radiosonde
LETO2-14U02301022022-12-06 01:22:2240.5242-3.07695339304403Clb=-20.0m/s p=592.2hPa t=-10.0C h=83.3% 403.00MHz Type=RS41-SGP TxOff=8h20m batt=2.4V Radiosonde Tracker +Info: 403MHz@gmail.com
LETO2-14U02301022022-12-06 01:22:1840.524-3.07682343244481Clb=-19.7m/s p=586.5hPa t=-10.5C h=82.0% 403.00MHz Type=RS41-SGP Radiosonde Tracker +Info: 403MHz@gmail.com
LETO2-14U02301022022-12-06 01:22:1240.5236-3.07669336224599Clb=-19.8m/s p=576.9hPa t=-11.4C h=84.3% 403.00MHz Type=RS41-SGP Radiosonde Tracker +Info: 403MHz@gmail.com
LETO2-14U02301022022-12-06 01:22:0840.5234-3.0766338244677Clb=-19.4m/s p=571.6hPa t=-12.2C h=89.0% 403.00MHz Type=RS41-SGP batt=2.5V Radiosonde Tracker +Info: 403MHz@gmail.com
EA4CP-14U02301022022-12-06 01:22:0740.5234-3.07657341194696Clb=-20.2m/s p=570.1hPa t=-12.4C h=90.3% 403.00MHz Type=RS41-SGP Details on http://radiosondy.info
LETO2-14U02301022022-12-06 01:22:0440.5232-3.07649330194758Clb=-20.8m/s p=565.3hPa t=-12.9C h=94.3% 403.00MHz Type=RS41-SGP Radiosonde Tracker +Info: 403MHz@gmail.com
LETO2-14U02301022022-12-06 01:22:0040.5231-3.07635315174838Clb=-20.3m/s p=559.5hPa t=-13.4C h=94.6% 403.00MHz Type=RS41-SGP Radiosonde Tracker +Info: 403MHz@gmail.com
LETO2-14U02301022022-12-06 01:21:5640.5229-3.07621325194919Clb=-21.6m/s p=553.7hPa t=-13.8C h=89.7% 403.00MHz Type=RS41-SGP batt=2.5V Radiosonde Tracker +Info: 403MHz@gmail.com
EA4GBR-10U02301022022-12-06 01:21:5240.5228-3.07609324224981Clb=-20.8m/s p=549.4hPa t=-14.2C h=83.7% 403.000MHz Type=RS41-SGP rdzTTGOsonde
LETO2-14U02301022022-12-06 01:21:4640.5225-3.07578334225122Clb=-21.2m/s p=538.9hPa t=-15.2C h=90.2% 403.00MHz Type=RS41-SGP Radiosonde Tracker +Info: 403MHz@gmail.com
LETO2-14U02301022022-12-06 01:21:4040.5222-3.07558343245246Clb=-21.3m/s p=530.3hPa t=-15.8C h=88.4% 403.00MHz Type=RS41-SGP TxOff=8h20m batt=2.4V Radiosonde Tracker +Info: 403MHz@gmail.com
EA4CP-14U02301022022-12-06 01:21:3740.522-3.0755340245307Clb=-20.4m/s p=526.1hPa t=-16.2C h=88.1% 403.00MHz Type=RS41-SGP Details on http://radiosondy.info
LETO2-14U02301022022-12-06 01:21:3240.5217-3.07538343265410Clb=-21.5m/s p=518.9hPa t=-16.7C h=84.3% 403.00MHz Type=RS41-SGP Radiosonde Tracker +Info: 403MHz@gmail.com
LETO2-14U02301022022-12-06 01:21:2640.5214-3.07529353245536Clb=-21.3m/s p=510.5hPa t=-17.7C h=86.1% 403.00MHz Type=RS41-SGP Radiosonde Tracker +Info: 403MHz@gmail.com
EA4GBR-10U02301022022-12-06 01:21:2440.5213-3.07528343265556Clb=-21.1m/s p=508.7hPa t=-17.9C h=81.7% 403.000MHz Type=RS41-SGP rdzTTGOsonde
EA4CP-14U02301022022-12-06 01:21:2140.5211-3.07523359245639Clb=-22.0m/s p=503.3hPa t=-18.5C h=88.3% 403.00MHz Type=RS41-SGP Details on http://radiosondy.info
LETO2-14U02301022022-12-06 01:21:2040.521-3.07523356245661Clb=-21.2m/s p=501.9hPa t=-18.7C h=88.7% 403.00MHz Type=RS41-SGP batt=2.4V Radiosonde Tracker +Info: 403MHz@gmail.com
LETO2-14U02301022022-12-06 01:21:1340.5205-3.07515348265828Clb=-21.6m/s p=490.6hPa t=-20.1C h=91.8% 403.00MHz Type=RS41-SGP Radiosonde Tracker +Info: 403MHz@gmail.com
LETO2-14U02301022022-12-06 01:21:0640.5202-3.07507353305956Clb=-21.3m/s p=482.4hPa t=-21.1C h=98.0% 403.00MHz Type=RS41-SGP Radiosonde Tracker +Info: 403MHz@gmail.com
EA4CP-14U02301022022-12-06 01:21:0540.5201-3.07505346285976Clb=-21.9m/s p=481.0hPa t=-21.2C h=96.1% 403.00MHz Type=RS41-SGP TxOff=8h21m batt=2.5V Details on http://radiosondy.info
LETO2-14U02301022022-12-06 01:21:0140.5198-3.07495344316083Clb=-22.0m/s p=474.2hPa t=-21.7C h=85.6% 403.00MHz Type=RS41-SGP batt=2.5V Radiosonde Tracker +Info: 403MHz@gmail.com
EA4GBR-10U02301022022-12-06 01:20:5640.5196-3.07489346306147Clb=-22.3m/s p=470.2hPa t=-22.2C h=80.6% 403.000MHz Type=RS41-SGP TxOff=8h22m rdzTTGOsonde
EA4EKH-11U02301022022-12-06 01:20:5040.5191-3.07479350246299Clb=-23.0m/s t=-23.5C h=82.3% p=460.4hPa 403.000 MHz Type=RS41-SGP ser=U0230102 Radiosonde
EA4CP-14U02301022022-12-06 01:20:4940.519-3.07477349246322Clb=-22.3m/s p=459.1hPa t=-23.6C h=87.8% 403.00MHz Type=RS41-SGP Details on http://radiosondy.info
EA4GBR-10U02301022022-12-06 01:20:3540.5183-3.07471354266607Clb=-22.8m/s p=441.8hPa t=-26.1C h=79.0% 403.000MHz Type=RS41-SGP TxOff=8h22m rdzTTGOsonde
EA4CP-14U02301022022-12-06 01:20:3340.5181-3.07466348306674Clb=-22.8m/s p=437.6hPa t=-26.6C h=85.4% 403.00MHz Type=RS41-SGP Details on http://radiosondy.info
EA4EKH-11U02301022022-12-06 01:20:1940.517-3.0750628377011Clb=-23.6m/s t=-28.7C h=56.0% p=417.6hPa 403.000 MHz Type=RS41-SGP ser=U0230102 Radiosonde
EA4CP-14U02301022022-12-06 01:20:1740.5169-3.0751225417034Clb=-23.1m/s p=416.1hPa t=-28.8C h=59.0% 403.00MHz Type=RS41-SGP batt=2.4V Details on http://radiosondy.info
EA4GBR-10U02301022022-12-06 01:20:1440.5167-3.0753131417103Clb=-23.9m/s p=412.0hPa t=-29.0C h=45.6% 403.000MHz Type=RS41-SGP TxOff=8h22m rdzTTGOsonde
EA4CP-14U02301022022-12-06 01:20:0140.5156-3.0762535417406Clb=-24.5m/s p=395.1hPa t=-31.3C h=43.3% 403.00MHz Type=RS41-SGP Details on http://radiosondy.info
EA4GBR-10U02301022022-12-06 01:19:5240.5148-3.0768830397618Clb=-24.4m/s p=383.4hPa t=-33.2C h=39.3% 403.000MHz Type=RS41-SGP TxOff=8h22m rdzTTGOsonde
LETO2-14U02301022022-12-06 01:19:4940.5145-3.0770831417689Clb=-24.6m/s p=379.6hPa t=-33.8C h=40.4% 403.00MHz Type=RS41-SGP Radiosonde Tracker +Info: 403MHz@gmail.com
EA4EKH-11U02301022022-12-06 01:19:4840.5144-3.0772232397737Clb=-25.2m/s t=-34.3C h=36.1% p=376.8hPa 403.000 MHz Type=RS41-SGP ser=U0230102 Radiosonde
EA4CP-14U02301022022-12-06 01:19:4640.5143-3.0772931337761Clb=-24.9m/s p=375.7hPa t=-34.5C h=40.3% 403.00MHz Type=RS41-SGP Details on http://radiosondy.info
LETO2-14U02301022022-12-06 01:19:4340.514-3.0774626317834Clb=-24.3m/s p=371.8hPa t=-35.1C h=36.8% 403.00MHz Type=RS41-SGP Radiosonde Tracker +Info: 403MHz@gmail.com
EA4CP-14U02301022022-12-06 01:19:3040.5131-3.0780929308148Clb=-25.6m/s p=355.5hPa t=-37.7C h=34.5% 403.00MHz Type=RS41-SGP batt=2.4V Details on http://radiosondy.info
LETO2-14U02301022022-12-06 01:19:2940.5131-3.0781429308173Clb=-25.4m/s p=354.0hPa t=-38.0C h=34.9% 403.00MHz Type=RS41-SGP TxOff=8h22m batt=2.4V Radiosonde Tracker +Info: 403MHz@gmail.com
LETO2-14U02301022022-12-06 01:19:2440.5127-3.0783427308297Clb=-25.1m/s p=347.8hPa t=-39.1C h=35.2% 403.00MHz Type=RS41-SGP Radiosonde Tracker +Info: 403MHz@gmail.com
LETO2-14U02301022022-12-06 01:19:1840.5123-3.0785522248445Clb=-24.9m/s p=340.2hPa t=-40.4C h=40.9% 403.00MHz Type=RS41-SGP Radiosonde Tracker +Info: 403MHz@gmail.com
EA4EKH-11U02301022022-12-06 01:19:1740.5122-3.0786322288494Clb=-25.7m/s t=-41.0C h=37.6% p=338.0hPa 403.000 MHz Type=RS41-SGP ser=U0230102 Radiosonde
EA4CP-14U02301022022-12-06 01:19:1640.5121-3.0786625248520Clb=-25.7m/s p=336.9hPa t=-41.1C h=44.1% 403.00MHz Type=RS41-SGP Details on http://radiosondy.info
EA4GBR-10U02301022022-12-06 01:19:0940.5117-3.0789226268695Clb=-25.0m/s p=328.5hPa t=-42.8C h=45.9% 403.000MHz Type=RS41-SGP TxOff=8h23m rdzTTGOsonde
EA4CP-14U02301022022-12-06 01:18:5940.5112-3.0791935178924Clb=-26.4m/s p=317.1hPa t=-44.8C h=45.1% 403.00MHz Type=RS41-SGP Details on http://radiosondy.info
EA4EKH-11U02301022022-12-06 01:18:4640.5107-3.0794821159286Clb=-27.5m/s t=-48.0C h=39.1% p=300.4hPa 403.000 MHz Type=RS41-SGP ser=U0230102 Radiosonde
EA4CP-14U02301022022-12-06 01:18:4440.5107-3.0795127199313Clb=-26.6m/s p=299.2hPa t=-48.2C h=45.5% 403.00MHz Type=RS41-SGP TxOff=8h23m batt=2.5V Details on http://radiosondy.info
EA4GBR-10U02301022022-12-06 01:18:3940.5105-3.0796319209445Clb=-27.5m/s p=293.2hPa t=-49.4C h=36.8% 403.000MHz Type=RS41-SGP TxOff=8h24m rdzTTGOsonde
EA4CP-14U02301022022-12-06 01:18:2840.51-3.0799434209738Clb=-26.8m/s p=280.5hPa t=-52.0C h=39.1% 403.00MHz Type=RS41-SGP Details on http://radiosondy.info
EA4EKH-11U02301022022-12-06 01:18:1540.5093-3.08023132610119Clb=-29.3m/s t=-55.0C h=27.2% p=264.5hPa 403.000 MHz Type=RS41-SGP ser=U0230102 Radiosonde
EA4CP-14U02301022022-12-06 01:18:1440.5093-3.0802591910146Clb=-29.3m/s p=263.5hPa t=-55.2C h=33.9% 403.00MHz Type=RS41-SGP Details on http://radiosondy.info
EA4GBR-10U02301022022-12-06 01:18:1140.5091-3.0803242610233Clb=-30.6m/s p=260.0hPa t=-56.1C h=25.8% 403.000MHz Type=RS41-SGP TxOff=8h24m rdzTTGOsonde
EA4CP-14U02301022022-12-06 01:17:5940.5087-3.080641141910612Clb=-31.1m/s p=244.7hPa t=-57.6C h=20.7% 403.00MHz Type=RS41-SGP batt=2.5V Details on http://radiosondy.info
LETO2-14U02301022022-12-06 01:17:5340.509-3.080941461710820Clb=-32.0m/s p=236.8hPa t=-58.6C h=13.2% 403.00MHz Type=RS41-SGP batt=2.4V Radiosonde Tracker +Info: 403MHz@gmail.com
EA4GBR-10U02301022022-12-06 01:17:5040.509-3.080991482010881Clb=-31.3m/s p=234.5hPa t=-59.1C h=7.6% 403.000MHz Type=RS41-SGP rdzTTGOsonde
EA4EKH-11U02301022022-12-06 01:17:4640.5093-3.08121252411031Clb=-32.2m/s t=-54.8C h=4.5% p=229.2hPa 403.000 MHz Type=RS41-SGP ser=U0230102 Radiosonde
EA4CP-14U02301022022-12-06 01:17:4440.5093-3.081271283311061Clb=-32.6m/s p=227.9hPa t=-54.2C h=7.4% 403.00MHz Type=RS41-SGP Details on http://radiosondy.info
LETO2-14U02301022022-12-06 01:17:4340.5093-3.081341343111092Clb=-32.9m/s p=227.0hPa t=-54.3C h=7.6% 403.00MHz Type=RS41-SGP Radiosonde Tracker +Info: 403MHz@gmail.com
LETO2-14U02301022022-12-06 01:17:3840.5097-3.081821273511284Clb=-33.3m/s p=220.3hPa t=-54.2C h=7.6% 403.00MHz Type=RS41-SGP Radiosonde Tracker +Info: 403MHz@gmail.com
LETO2-14U02301022022-12-06 01:17:3040.51-3.082351263311476Clb=-33.3m/s p=213.7hPa t=-54.8C h=6.9% 403.00MHz Type=RS41-SGP batt=2.4V Radiosonde Tracker +Info: 403MHz@gmail.com
EA4CP-14U02301022022-12-06 01:17:2740.5101-3.082611153711568Clb=-32.2m/s p=210.5hPa t=-54.4C h=6.6% 403.00MHz Type=RS41-SGP Details on http://radiosondy.info
LETO2-14U02301022022-12-06 01:17:2440.5102-3.082951063911665Clb=-34.4m/s p=207.6hPa t=-52.9C h=5.6% 403.00MHz Type=RS41-SGP Radiosonde Tracker +Info: 403MHz@gmail.com
EA4GBR-10U02301022022-12-06 01:17:2140.5103-3.083321174311764Clb=-34.0m/s p=204.7hPa t=-53.2C h=2.7% 403.000MHz Type=RS41-SGP rdzTTGOsonde
LETO2-14U02301022022-12-06 01:17:1640.5106-3.083851233511930Clb=-35.2m/s p=199.5hPa t=-52.1C h=4.9% 403.00MHz Type=RS41-SGP Radiosonde Tracker +Info: 403MHz@gmail.com
EA4EKH-11U02301022022-12-06 01:17:1340.5108-3.084181194612036Clb=-36.4m/s t=-52.0C h=2.2% p=196.2hPa 403.000 MHz Type=RS41-SGP ser=U0230102 Radiosonde
EA4CP-14U02301022022-12-06 01:17:1140.5108-3.084321145212071Clb=-36.5m/s p=195.2hPa t=-51.9C h=4.6% 403.00MHz Type=RS41-SGP batt=2.5V Details on http://radiosondy.info
LETO2-14U02301022022-12-06 01:17:1040.5109-3.084611175612143Clb=-35.5m/s p=193.3hPa t=-52.2C h=4.6% 403.00MHz Type=RS41-SGP TxOff=8h25m batt=2.4V Radiosonde Tracker +Info: 403MHz@gmail.com
LETO2-14U02301022022-12-06 01:17:0440.5112-3.085631085412337Clb=-32.1m/s p=187.3hPa t=-53.0C h=4.8% 403.00MHz Type=RS41-SGP Radiosonde Tracker +Info: 403MHz@gmail.com
EA4GBR-10U02301022022-12-06 01:16:5840.5114-3.086211134812468Clb=-34.8m/s p=183.4hPa t=-52.8C h=2.2% 403.000MHz Type=RS41-SGP rdzTTGOsonde
LETO2-14U02301022022-12-06 01:16:5640.5116-3.086681094612569Clb=-33.8m/s p=180.5hPa t=-53.1C h=4.6% 403.00MHz Type=RS41-SGP Radiosonde Tracker +Info: 403MHz@gmail.com
EA1JAY-16U02301022022-12-06 01:16:4640.5119-3.087881164312873Clb=-34.8m/s p=172.6hPa t=-54.5C h=2.2% 403.000MHz Type=RS41-SGP TxOff=8h26m rdzTTGOsonde
EA4EKH-11U02301022022-12-06 01:16:4240.5122-3.088771055213078Clb=-34.8m/s t=-55.1C h=2.1% p=167.1hPa 403.000 MHz Type=RS41-SGP ser=U0230102 Radiosonde
EA4CP-14U02301022022-12-06 01:16:4040.5122-3.088931065213112Clb=-35.0m/s p=166.1hPa t=-55.3C h=4.9% 403.00MHz Type=RS41-SGP Details on http://radiosondy.info
EA4GBR-10U02301022022-12-06 01:16:3640.5124-3.089581205713251Clb=-34.9m/s p=162.7hPa t=-56.0C h=2.3% 403.000MHz Type=RS41-SGP rdzTTGOsonde
EA1JAY-16U02301022022-12-06 01:16:2440.5132-3.091111244613639Clb=-36.0m/s p=153.2hPa t=-57.8C h=2.5% 403.000MHz Type=RS41-SGP TxOff=8h26m rdzTTGOsonde
LETO2-14U02301022022-12-06 01:16:2240.5134-3.091491223313746Clb=-36.3m/s p=150.6hPa t=-58.1C h=5.9% 403.00MHz Type=RS41-SGP batt=2.4V Radiosonde Tracker +Info: 403MHz@gmail.com
EA4EKH-11U02301022022-12-06 01:16:1040.5139-3.092471132614185Clb=-37.3m/s t=-59.4C h=2.7% p=140.3hPa 403.000 MHz Type=RS41-SGP ser=U0230102 Radiosonde
EA4CP-14U02301022022-12-06 01:16:0840.514-3.092661113014260Clb=-37.5m/s p=138.7hPa t=-59.6C h=6.4% 403.00MHz Type=RS41-SGP Details on http://radiosondy.info
EA1JAY-16U02301022022-12-06 01:16:0540.5141-3.092931243014372Clb=-38.1m/s p=136.4hPa t=-59.7C h=2.8% 403.000MHz Type=RS41-SGP TxOff=8h27m rdzTTGOsonde
EA4CP-14U02301022022-12-06 01:15:5440.5145-3.093921183714836Clb=-39.7m/s p=126.7hPa t=-60.1C h=6.3% 403.00MHz Type=RS41-SGP Details on http://radiosondy.info
EA1JAY-16U02301022022-12-06 01:15:4540.5148-3.094661133115194Clb=-40.7m/s p=119.9hPa t=-61.3C h=2.7% 403.000MHz Type=RS41-SGP TxOff=8h27m rdzTTGOsonde
EA4EKH-11U02301022022-12-06 01:15:4140.5149-3.095151053515396Clb=-41.2m/s t=-62.2C h=2.8% p=116.0hPa 403.000 MHz Type=RS41-SGP ser=U0230102 Radiosonde
EA4GBR-10U02301022022-12-06 01:15:4040.5149-3.095151063715396Clb=-41.2m/s p=116.0hPa t=-62.2C h=2.9% 403.000MHz Type=RS41-SGP rdzTTGOsonde
LETO2-14U02301022022-12-06 01:15:3540.5151-3.096051124415684Clb=-41.7m/s p=110.5hPa t=-62.8C h=7.5% 403.00MHz Type=RS41-SGP Radiosonde Tracker +Info: 403MHz@gmail.com
EA4CP-14U02301022022-12-06 01:15:3340.5152-3.096311163715767Clb=-42.3m/s p=108.8hPa t=-62.8C h=7.4% 403.00MHz Type=RS41-SGP batt=2.4V Details on http://radiosondy.info
LETO2-14U02301022022-12-06 01:15:2740.5155-3.096981113116018Clb=-43.0m/s p=104.9hPa t=-62.3C h=7.1% 403.00MHz Type=RS41-SGP batt=2.4V Radiosonde Tracker +Info: 403MHz@gmail.com
EA1JAY-16U02301022022-12-06 01:15:2540.5155-3.097071113016061Clb=-43.3m/s p=104.1hPa t=-61.9C h=2.6% 403.000MHz Type=RS41-SGP TxOff=8h27m rdzTTGOsonde
LETO2-14U02301022022-12-06 01:15:2140.5156-3.097611024116274Clb=-43.7m/s p=100.8hPa t=-62.2C h=6.9% 403.00MHz Type=RS41-SGP Radiosonde Tracker +Info: 403MHz@gmail.com
EA4GBR-10U02301022022-12-06 01:15:2040.5156-3.097731054316318Clb=-44.4m/s p=99.8hPa t=-62.5C h=2.6% 403.000MHz Type=RS41-SGP rdzTTGOsonde
EA4CP-14U02301022022-12-06 01:15:1740.5157-3.098121073516450Clb=-44.0m/s p=97.9hPa t=-62.3C h=7.0% 403.00MHz Type=RS41-SGP Details on http://radiosondy.info
LETO2-14U02301022022-12-06 01:15:1540.5158-3.098371103716537Clb=-44.6m/s p=96.4hPa t=-62.2C h=6.9% 403.00MHz Type=RS41-SGP Radiosonde Tracker +Info: 403MHz@gmail.com
EA4EKH-11U02301022022-12-06 01:15:1240.5159-3.098861073516714Clb=-44.2m/s t=-62.5C h=2.4% p=93.8hPa 403.000 MHz Type=RS41-SGP ser=U0230102 Radiosonde
EA1JAY-16U02301022022-12-06 01:15:0740.516-3.09939993116936Clb=-45.3m/s p=90.4hPa t=-62.9C h=2.5% 403.000MHz Type=RS41-SGP TxOff=8h27m rdzTTGOsonde
EA4CP-14U02301022022-12-06 01:15:0240.5161-3.099841032817165Clb=-46.7m/s p=87.2hPa t=-62.7C h=6.8% 403.00MHz Type=RS41-SGP Details on http://radiosondy.info
LETO2-14U02301022022-12-06 01:15:0040.5161-3.09994994417211Clb=-46.6m/s p=86.6hPa t=-62.9C h=6.9% 403.00MHz Type=RS41-SGP TxPastBurst=8h30m batt=2.5V Radiosonde Tracker +Info: 403MHz@gmail.com
EA4GBR-10U02301022022-12-06 01:14:5240.5162-3.100691002217631Clb=-47.8m/s p=81.0hPa t=-62.7C h=2.3% 403.000MHz Type=RS41-SGP rdzTTGOsonde
EA1JAY-16U02301022022-12-06 01:14:4740.5162-3.10105902417870Clb=-48.6m/s p=78.0hPa t=-62.6C h=2.3% 403.000MHz Type=RS41-SGP TxOff=8h27m rdzTTGOsonde
EA4EKH-11U02301022022-12-06 01:14:4240.5163-3.101531102418162Clb=-49.4m/s t=-62.9C h=2.2% p=74.5hPa 403.000 MHz Type=RS41-SGP ser=U0230102 Radiosonde
EA4CP-14U02301022022-12-06 01:14:3240.5163-3.1021642018664Clb=-52.2m/s p=68.5hPa t=-62.4C h=6.5% 403.00MHz Type=RS41-SGP Details on http://radiosondy.info
EA4GBR-10U02301022022-12-06 01:14:3140.5163-3.1021642418664Clb=-52.3m/s p=68.6hPa t=-62.5C h=2.1% 403.000MHz Type=RS41-SGP rdzTTGOsonde
EA1JAY-16U02301022022-12-06 01:14:2740.5162-3.102451031918924Clb=-53.5m/s p=65.8hPa t=-61.3C h=1.8% 403.000MHz Type=RS41-SGP TxOff=8h28m rdzTTGOsonde
EA4CP-14U02301022022-12-06 01:14:1740.5163-3.10311962219518Clb=-55.3m/s p=59.8hPa t=-63.2C h=7.2% 403.00MHz Type=RS41-SGP Details on http://radiosondy.info
EA4EKH-11U02301022022-12-06 01:14:1240.5163-3.1034781719797Clb=-57.8m/s t=-62.9C h=2.0% p=57.4hPa 403.000 MHz Type=RS41-SGP ser=U0230102 Radiosonde
EA1JAY-16U02301022022-12-06 01:14:0640.5162-3.10374802620087Clb=-58.9m/s p=54.7hPa t=-61.6C h=1.9% 403.000MHz Type=RS41-SGP TxOff=8h28m rdzTTGOsonde
EA4GBR-10U02301022022-12-06 01:14:0340.5162-3.104942820263Clb=-60.3m/s p=53.3hPa t=-61.7C h=1.8% 403.000MHz Type=RS41-SGP rdzTTGOsonde
EA4CP-14U02301022022-12-06 01:14:0040.5163-3.10428982420443Clb=-60.2m/s p=51.7hPa t=-61.6C h=6.4% 403.00MHz Type=RS41-SGP TxPastBurst=8h30m batt=2.5V Details on http://radiosondy.info
EA1JAY-16U02301022022-12-06 01:13:4640.5167-3.105281362021354Clb=-62.4m/s p=44.7hPa t=-61.0C h=1.7% 403.000MHz Type=RS41-SGP TxOff=8h28m rdzTTGOsonde
EA4CP-14U02301022022-12-06 01:13:4540.5167-3.105331301921416Clb=-62.6m/s p=44.2hPa t=-61.0C h=6.2% 403.00MHz Type=RS41-SGP Details on http://radiosondy.info
EA4GBR-10U02301022022-12-06 01:13:4240.5168-3.10541502221541Clb=-63.1m/s p=43.4hPa t=-60.8C h=1.8% 403.000MHz Type=RS41-SGP rdzTTGOsonde
EA4EKH-11U02301022022-12-06 01:13:4140.517-3.105491601921728Clb=-63.6m/s t=-59.9C h=1.6% p=42.2hPa 403.000 MHz Type=RS41-SGP ser=U0230102 Radiosonde
EA4CP-14U02301022022-12-06 01:13:2940.5173-3.105821341522457Clb=-69.4m/s p=37.5hPa t=-61.4C h=6.6% 403.00MHz Type=RS41-SGP Details on http://radiosondy.info
EA1JAY-16U02301022022-12-06 01:13:2440.5174-3.105951141322734Clb=-70.3m/s p=36.1hPa t=-60.9C h=1.9% 403.000MHz Type=RS41-SGP TxOff=8h29m rdzTTGOsonde
EA4GBR-10U02301022022-12-06 01:13:1440.5175-3.106421172223441Clb=-73.0m/s p=32.4hPa t=-58.3C h=1.4% 403.000MHz Type=RS41-SGP rdzTTGOsonde
EA4CP-14U02301022022-12-06 01:13:1340.5176-3.106551253023588Clb=-74.3m/s p=31.6hPa t=-57.7C h=5.0% 403.00MHz Type=RS41-SGP batt=2.5V Details on http://radiosondy.info
EA4EKH-11U02301022022-12-06 01:13:0940.5177-3.106821312823884Clb=-75.4m/s t=-58.2C h=1.4% p=30.1hPa 403.000 MHz Type=RS41-SGP ser=U0230102 Radiosonde
EA1JAY-16U02301022022-12-06 01:13:0340.5179-3.107121263324185Clb=-75.5m/s p=28.8hPa t=-58.4C h=1.6% 403.000MHz Type=RS41-SGP TxOff=8h29m rdzTTGOsonde
EA4CP-14U02301022022-12-06 01:12:5840.5183-3.107731193724715Clb=-78.2m/s p=26.4hPa t=-59.4C h=6.4% 403.00MHz Type=RS41-SGP Details on http://radiosondy.info
EA4GBR-10U02301022022-12-06 01:12:5440.5185-3.108091233125026Clb=-78.8m/s p=25.2hPa t=-58.0C h=1.5% 403.000MHz Type=RS41-SGP rdzTTGOsonde
EA1JAY-16U02301022022-12-06 01:12:4540.5188-3.109051184325737Clb=-82.3m/s p=22.7hPa t=-55.7C h=1.2% 403.000MHz Type=RS41-SGP rdzTTGOsonde
EA4CP-14U02301022022-12-06 01:12:4340.519-3.109411204625984Clb=-83.7m/s p=21.7hPa t=-54.5C h=4.2% 403.00MHz Type=RS41-SGP Details on http://radiosondy.info
EA4EKH-11U02301022022-12-06 01:12:3940.5192-3.109961094326318Clb=-86.1m/s t=-54.3C h=1.0% p=20.8hPa 403.000 MHz Type=RS41-SGP ser=U0230102 Radiosonde
EA4GBR-10U02301022022-12-06 01:12:3140.5193-3.110691005026751Clb=-89.6m/s p=19.3hPa t=-54.5C h=1.0% 403.000MHz Type=RS41-SGP rdzTTGOsonde
EA4CP-14U02301022022-12-06 01:12:2440.5194-3.11178956127395Clb=-94.2m/s p=17.4hPa t=-55.6C h=4.3% 403.00MHz Type=RS41-SGP batt=2.4V Details on http://radiosondy.info
EA1JAY-16U02301022022-12-06 01:12:2240.5194-3.11212955627582Clb=-94.2m/s p=17.2hPa t=-56.1C h=1.1% 403.000MHz Type=RS41-SGP rdzTTGOsonde
EA4CP-14U02301022022-12-06 01:12:1040.5195-3.11486908328736Clb=-77.0m/s p=13.9hPa t=-54.5C h=3.5% 403.00MHz Type=RS41-SGP Details on http://radiosondy.info
EA4EKH-11U02301022022-12-06 01:12:0740.5195-3.11589908029011Clb=-61.4m/s t=-56.6C h=1.0% p=13.2hPa 403.000 MHz Type=RS41-SGP ser=U0230102 Radiosonde
EA4GBR-10U02301022022-12-06 01:12:0240.5195-3.11642948329124Clb=-52.2m/s p=12.9hPa t=-57.8C h=1.1% 403.000MHz Type=RS41-SGP rdzTTGOsonde
EA1JAY-16U02301022022-12-06 01:12:0140.5196-3.1167968729174Clb=-48.6m/s p=12.8hPa t=-58.3C h=1.1% 403.000MHz Type=RS41-SGP rdzTTGOsonde
EA4CP-14U02301022022-12-06 01:11:5340.5199-3.11924998129335Clb=4.2m/s p=12.3hPa t=-59.8C h=5.8% 403.00MHz Type=RS41-SGP Details on http://radiosondy.info
EA1JAY-16U02301022022-12-06 01:11:4140.5201-3.12218957829292Clb=4.5m/s p=12.4hPa t=-59.5C h=1.5% 403.000MHz Type=RS41-SGP rdzTTGOsonde
EA4CP-14U02301022022-12-06 01:11:3840.5201-3.12346938129273Clb=4.1m/s p=12.4hPa t=-59.4C h=5.6% 403.00MHz Type=RS41-SGP TxPastBurst=8h30m batt=2.4V Details on http://radiosondy.info
EA4GBR-10U02301022022-12-06 01:11:3540.5202-3.12403999129265Clb=3.8m/s p=12.4hPa t=-59.4C h=1.4% 403.000MHz Type=RS41-SGP rdzTTGOsonde
EA1JAY-16U02301022022-12-06 01:11:2140.5203-3.12767998729212Clb=4.1m/s p=12.5hPa t=-58.9C h=1.4% 403.000MHz Type=RS41-SGP rdzTTGOsonde
EA4CP-14U02301022022-12-06 01:11:1940.5203-3.12842948029200Clb=4.1m/s p=12.5hPa t=-58.8C h=5.5% 403.00MHz Type=RS41-SGP Details on http://radiosondy.info
EA4GBR-10U02301022022-12-06 01:11:1440.5203-3.12933867829183Clb=4.1m/s p=12.6hPa t=-58.7C h=1.4% 403.000MHz Type=RS41-SGP rdzTTGOsonde
EA4CP-14U02301022022-12-06 01:11:0340.5203-3.13221937629139Clb=3.4m/s p=12.6hPa t=-58.3C h=5.4% 403.00MHz Type=RS41-SGP Details on http://radiosondy.info
EA1JAY-16U02301022022-12-06 01:11:0040.5203-3.13268897029131Clb=4.4m/s p=12.7hPa t=-58.3C h=1.4% 403.000MHz Type=RS41-SGP rdzTTGOsonde
EA4CP-14U02301022022-12-06 01:10:4840.5203-3.13608857029075Clb=3.0m/s p=12.7hPa t=-57.9C h=5.2% 403.00MHz Type=RS41-SGP batt=2.5V Details on http://radiosondy.info
EA4GBR-10U02301022022-12-06 01:10:4640.5203-3.13629846729071Clb=3.8m/s p=12.8hPa t=-57.9C h=1.3% 403.000MHz Type=RS41-SGP rdzTTGOsonde
EA1JAY-16U02301022022-12-06 01:10:4140.5202-3.13765889329049Clb=3.4m/s p=12.9hPa t=-57.8C h=1.4% 403.000MHz Type=RS41-SGP rdzTTGOsonde
EA4CP-14U02301022022-12-06 01:10:3240.5201-3.13963857229011Clb=4.4m/s p=12.8hPa t=-57.4C h=5.1% 403.00MHz Type=RS41-SGP Details on http://radiosondy.info
EA4GBR-10U02301022022-12-06 01:10:2340.52-3.14164906328977Clb=3.8m/s p=13.0hPa t=-57.2C h=1.3% 403.000MHz Type=RS41-SGP rdzTTGOsonde
EA1JAY-16U02301022022-12-06 01:10:2040.52-3.14224906328963Clb=4.6m/s p=13.0hPa t=-57.1C h=1.3% 403.000MHz Type=RS41-SGP rdzTTGOsonde
EA4CP-14U02301022022-12-06 01:10:1740.52-3.14308846128946Clb=4.9m/s p=13.0hPa t=-57.0C h=4.9% 403.00MHz Type=RS41-SGP Details on http://radiosondy.info
EA4EKH-11U02301022022-12-06 01:10:0140.5198-3.14618774328877Clb=4.8m/s t=-56.7C h=1.2% p=13.2hPa 403.000 MHz Type=RS41-SGP ser=U0230102 Radiosonde
EA4CP-14U02301022022-12-06 01:10:0040.5198-3.14618785628877Clb=4.7m/s p=13.2hPa t=-56.6C h=4.7% 403.00MHz Type=RS41-SGP batt=2.6V Details on http://radiosondy.info
EA1JAY-16U02301022022-12-06 01:09:5940.5198-3.14633775228872Clb=5.3m/s p=13.2hPa t=-56.7C h=1.2% 403.000MHz Type=RS41-SGP rdzTTGOsonde
EA4GBR-10U02301022022-12-06 01:09:5540.5196-3.14718837228853Clb=4.4m/s p=13.2hPa t=-56.7C h=1.1% 403.000MHz Type=RS41-SGP rdzTTGOsonde
EA4CP-14U02301022022-12-06 01:09:4740.5196-3.1489834828809Clb=4.1m/s p=13.3hPa t=-57.2C h=4.9% 403.00MHz Type=RS41-SGP Details on http://radiosondy.info
EA1JAY-16U02301022022-12-06 01:09:4140.5194-3.1498893128784Clb=4.5m/s p=13.4hPa t=-57.5C h=1.3% 403.000MHz Type=RS41-SGP rdzTTGOsonde
EA4EKH-11U02301022022-12-06 01:09:3140.5195-3.15109753328742Clb=4.1m/s t=-57.4C h=1.2% p=13.5hPa 403.000 MHz Type=RS41-SGP ser=U0230102 Radiosonde
EA4GBR-10U02301022022-12-06 01:09:2940.5195-3.15129952828734Clb=4.1m/s p=13.5hPa t=-57.4C h=1.2% 403.000MHz Type=RS41-SGP rdzTTGOsonde
EA1JAY-16U02301022022-12-06 01:09:2040.5198-3.152271033928698Clb=4.8m/s p=13.6hPa t=-57.3C h=1.2% 403.000MHz Type=RS41-SGP rdzTTGOsonde
EA4CP-14U02301022022-12-06 01:09:1440.5198-3.15322954628666Clb=4.2m/s p=13.6hPa t=-57.7C h=4.8% 403.00MHz Type=RS41-SGP TxPastBurst=8h30m batt=2.6V Details on http://radiosondy.info
EA4GBR-10U02301022022-12-06 01:09:0840.52-3.154011144328638Clb=4.8m/s p=13.7hPa t=-58.5C h=1.3% 403.000MHz Type=RS41-SGP rdzTTGOsonde
EA4EKH-11U02301022022-12-06 01:08:5940.5201-3.15521945028601Clb=4.2m/s t=-58.9C h=1.2% p=13.8hPa 403.000 MHz Type=RS41-SGP ser=U0230102 Radiosonde
EA1JAY-16U02301022022-12-06 01:08:5840.5201-3.15521955028601Clb=4.2m/s p=13.8hPa t=-58.9C h=1.3% 403.000MHz Type=RS41-SGP rdzTTGOsonde
EA4CP-14U02301022022-12-06 01:08:5740.5201-3.155561025028591Clb=5.7m/s p=13.7hPa t=-58.9C h=5.2% 403.00MHz Type=RS41-SGP Details on http://radiosondy.info
EA4GBR-10U02301022022-12-06 01:08:4540.5203-3.15716885228538Clb=4.2m/s p=13.9hPa t=-59.4C h=1.4% 403.000MHz Type=RS41-SGP rdzTTGOsonde
EA4CP-14U02301022022-12-06 01:08:4040.5203-3.15802904828514Clb=4.3m/s p=13.9hPa t=-59.3C h=5.3% 403.00MHz Type=RS41-SGP Details on http://radiosondy.info
EA1JAY-16U02301022022-12-06 01:08:3740.5203-3.15854935428500Clb=5.2m/s p=14.0hPa t=-59.5C h=1.3% 403.000MHz Type=RS41-SGP rdzTTGOsonde
EA4EKH-11U02301022022-12-06 01:08:2640.5203-3.15994925228452Clb=4.8m/s t=-59.7C h=1.4% p=14.1hPa 403.000 MHz Type=RS41-SGP ser=U0230102 Radiosonde
EA4CP-14U02301022022-12-06 01:08:2240.5203-3.160651005028433Clb=5.2m/s p=14.1hPa t=-59.5C h=5.4% 403.00MHz Type=RS41-SGP batt=2.4V Details on http://radiosondy.info
EA1JAY-16U02301022022-12-06 01:08:1540.5205-3.161511054828403Clb=4.7m/s p=14.2hPa t=-59.7C h=1.4% 403.000MHz Type=RS41-SGP rdzTTGOsonde
EA4CP-14U02301022022-12-06 01:08:0540.5207-3.16324955628353Clb=4.6m/s p=14.3hPa t=-60.1C h=5.7% 403.00MHz Type=RS41-SGP Details on http://radiosondy.info
EA1JAY-16U02301022022-12-06 01:07:5340.5209-3.16501956728304Clb=5.1m/s p=14.4hPa t=-60.0C h=1.4% 403.000MHz Type=RS41-SGP rdzTTGOsonde
EA4CP-14U02301022022-12-06 01:07:4840.5209-3.16614976328275Clb=5.3m/s p=14.5hPa t=-60.2C h=5.7% 403.00MHz Type=RS41-SGP Details on http://radiosondy.info
EA4GBR-10U02301022022-12-06 01:07:4440.521-3.16671946128260Clb=4.8m/s p=14.6hPa t=-60.3C h=1.5% 403.000MHz Type=RS41-SGP rdzTTGOsonde
EA1JAY-16U02301022022-12-06 01:07:3240.5212-3.169211016528199Clb=4.9m/s p=14.7hPa t=-60.1C h=1.5% 403.000MHz Type=RS41-SGP rdzTTGOsonde
EA4EKH-11U02301022022-12-06 01:07:2340.5211-3.17161965728147Clb=4.6m/s t=-59.7C h=1.4% p=14.8hPa 403.000 MHz Type=RS41-SGP ser=U0230102 Radiosonde
EA4CP-14U02301022022-12-06 01:07:1740.5212-3.17285846328118Clb=4.7m/s p=14.8hPa t=-59.4C h=5.4% 403.00MHz Type=RS41-SGP Details on http://radiosondy.info
EA4GBR-10U02301022022-12-06 01:07:1640.5212-3.17285856928118Clb=4.8m/s p=14.9hPa t=-59.5C h=1.4% 403.000MHz Type=RS41-SGP rdzTTGOsonde
EA1JAY-16U02301022022-12-06 01:07:1240.5211-3.17371876528099Clb=4.1m/s p=14.9hPa t=-59.4C h=1.3% 403.000MHz Type=RS41-SGP rdzTTGOsonde
EA4CP-14U02301022022-12-06 01:07:0040.5212-3.17616915928043Clb=4.2m/s p=15.0hPa t=-60.0C h=5.7% 403.00MHz Type=RS41-SGP Details on http://radiosondy.info
EA1JAY-16U02301022022-12-06 01:06:5040.5211-3.17804916128002Clb=4.0m/s p=15.2hPa t=-60.0C h=1.5% 403.000MHz Type=RS41-SGP rdzTTGOsonde
EA4GBR-10U02301022022-12-06 01:06:4740.5211-3.17858974827988Clb=5.0m/s p=15.2hPa t=-60.0C h=1.5% 403.000MHz Type=RS41-SGP rdzTTGOsonde
EA4CP-14U02301022022-12-06 01:06:4540.5211-3.17906975727975Clb=4.4m/s p=15.2hPa t=-59.9C h=5.7% 403.00MHz Type=RS41-SGP TxPastBurst=8h30m batt=2.6V Details on http://radiosondy.info
EA1JAY-16U02301022022-12-06 01:06:4340.5215-3.181551116327914Clb=3.6m/s p=15.4hPa t=-59.7C h=1.4% 403.000MHz Type=RS41-SGP rdzTTGOsonde
EA4EKH-11U02301022022-12-06 01:06:4240.5218-3.183641155027862Clb=4.7m/s t=-59.5C h=1.4% p=15.5hPa 403.000 MHz Type=RS41-SGP ser=U0230102 Radiosonde
EA4GBR-10U02301022022-12-06 01:06:4140.5228-3.186561154627772Clb=4.3m/s p=15.7hPa t=-59.8C h=1.5% 403.000MHz Type=RS41-SGP rdzTTGOsonde
EA4CP-14U02301022022-12-06 01:06:4040.5236-3.189071064627699Clb=4.2m/s p=15.9hPa t=-59.5C h=5.5% 403.00MHz Type=RS41-SGP Details on http://radiosondy.info
EA4GBR-10U02301022022-12-06 01:06:3840.524-3.190761035027647Clb=4.8m/s p=16.0hPa t=-59.4C h=1.4% 403.000MHz Type=RS41-SGP rdzTTGOsonde
EA4CP-14U02301022022-12-06 01:06:3740.5241-3.191421024127630Clb=5.0m/s p=16.0hPa t=-59.3C h=5.5% 403.00MHz Type=RS41-SGP Details on http://radiosondy.info
EA4EKH-11U02301022022-12-06 01:06:3340.5243-3.192521015027592Clb=4.0m/s t=-59.4C h=1.4% p=16.2hPa 403.000 MHz Type=RS41-SGP ser=U0230102 Radiosonde
EA4CP-14U02301022022-12-06 01:06:2740.5244-3.193391233127560Clb=4.5m/s p=16.2hPa t=-59.5C h=5.6% 403.00MHz Type=RS41-SGP batt=2.5V Details on http://radiosondy.info
EA1JAY-16U02301022022-12-06 01:06:2640.5244-3.193451332427555Clb=4.3m/s p=16.3hPa t=-59.6C h=1.4% 403.000MHz Type=RS41-SGP rdzTTGOsonde
EA4GBR-10U02301022022-12-06 01:06:2540.5245-3.193561332427546Clb=4.5m/s p=16.3hPa t=-59.6C h=1.5% 403.000MHz Type=RS41-SGP rdzTTGOsonde
EA4CP-14U02301022022-12-06 01:06:1640.5247-3.194941143127489Clb=4.8m/s p=16.4hPa t=-59.3C h=5.5% 403.00MHz Type=RS41-SGP Details on http://radiosondy.info
EA1JAY-16U02301022022-12-06 01:06:1240.5249-3.19554993027463Clb=4.2m/s p=16.5hPa t=-59.3C h=1.4% 403.000MHz Type=RS41-SGP rdzTTGOsonde
EA4EKH-11U02301022022-12-06 01:06:1140.525-3.19573932827454Clb=4.8m/s t=-59.3C h=1.4% p=16.5hPa 403.000 MHz Type=RS41-SGP ser=U0230102 Radiosonde
EA4CP-14U02301022022-12-06 01:06:0640.525-3.19641983327422Clb=3.7m/s p=16.6hPa t=-59.2C h=5.5% 403.00MHz Type=RS41-SGP Details on http://radiosondy.info
EA1JAY-16U02301022022-12-06 01:06:0040.5252-3.197591073127371Clb=4.1m/s p=16.8hPa t=-59.4C h=1.4% 403.000MHz Type=RS41-SGP rdzTTGOsonde
EA4EKH-11U02301022022-12-06 01:05:5940.5255-3.199031003127313Clb=4.0m/s t=-59.4C h=1.4% p=16.9hPa 403.000 MHz Type=RS41-SGP ser=U0230102 Radiosonde
EA4GBR-10U02301022022-12-06 01:05:5840.5255-3.199141033527309Clb=4.7m/s p=16.9hPa t=-59.4C h=1.4% 403.000MHz Type=RS41-SGP rdzTTGOsonde
EA4CP-14U02301022022-12-06 01:05:5740.5256-3.20003923727278Clb=4.1m/s p=16.9hPa t=-59.2C h=5.4% 403.00MHz Type=RS41-SGP Details on http://radiosondy.info
EA4CP-14U02301022022-12-06 01:05:5440.5259-3.201911003927205Clb=5.0m/s p=17.2hPa t=-59.2C h=5.4% 403.00MHz Type=RS41-SGP Details on http://radiosondy.info
EA1JAY-16U02301022022-12-06 01:05:5340.526-3.20251983327182Clb=5.1m/s p=17.3hPa t=-59.3C h=1.4% 403.000MHz Type=RS41-SGP rdzTTGOsonde
EA4CP-14U02301022022-12-06 01:05:5240.5263-3.203911064127134Clb=4.7m/s p=17.4hPa t=-59.6C h=5.6% 403.00MHz Type=RS41-SGP batt=2.5V Details on http://radiosondy.info
EA1JAY-16U02301022022-12-06 01:05:5040.5266-3.20491174627094Clb=4.6m/s p=17.5hPa t=-59.7C h=1.4% 403.000MHz Type=RS41-SGP rdzTTGOsonde
EA4CP-14U02301022022-12-06 01:05:4940.5268-3.20581134627068Clb=4.3m/s p=17.5hPa t=-59.5C h=5.5% 403.00MHz Type=RS41-SGP Details on http://radiosondy.info
EA4EKH-11U02301022022-12-06 01:05:4840.5271-3.206641083727037Clb=3.6m/s t=-59.3C h=1.4% p=17.7hPa 403.000 MHz Type=RS41-SGP ser=U0230102 Radiosonde
EA4GBR-10U02301022022-12-06 01:05:4540.5272-3.20691104827029Clb=4.8m/s p=17.7hPa t=-59.3C h=1.4% 403.000MHz Type=RS41-SGP rdzTTGOsonde
EA4CP-14U02301022022-12-06 01:05:4140.5281-3.210521005026930Clb=4.1m/s p=17.9hPa t=-58.7C h=5.4% 403.00MHz Type=RS41-SGP batt=2.5V Details on http://radiosondy.info
EA1JAY-16U02301022022-12-06 01:05:3840.5281-3.21111065226913Clb=3.9m/s p=18.0hPa t=-58.6C h=1.4% 403.000MHz Type=RS41-SGP rdzTTGOsonde
EA4EKH-11U02301022022-12-06 01:05:3740.5282-3.211431075226905Clb=4.7m/s t=-58.5C h=1.3% p=18.1hPa 403.000 MHz Type=RS41-SGP ser=U0230102 Radiosonde
EA4CP-14U02301022022-12-06 01:05:2540.5285-3.212931004826866Clb=4.6m/s p=18.1hPa t=-58.2C h=5.1% 403.00MHz Type=RS41-SGP Details on http://radiosondy.info
EA1JAY-16U02301022022-12-06 01:05:1740.5288-3.214331044826822Clb=4.4m/s p=18.3hPa t=-58.5C h=1.3% 403.000MHz Type=RS41-SGP rdzTTGOsonde
EA4CP-14U02301022022-12-06 01:05:1240.5289-3.215331024426796Clb=4.2m/s p=18.3hPa t=-58.7C h=5.2% 403.00MHz Type=RS41-SGP Details on http://radiosondy.info
EA4EKH-11U02301022022-12-06 01:05:0740.5291-3.21612974626773Clb=4.3m/s t=-59.0C h=1.4% p=18.4hPa 403.000 MHz Type=RS41-SGP ser=U0230102 Radiosonde
EA1JAY-16U02301022022-12-06 01:05:0040.5293-3.217451174326735Clb=3.8m/s p=18.5hPa t=-58.8C h=1.4% 403.000MHz Type=RS41-SGP rdzTTGOsonde
EA4EKH-11U02301022022-12-06 01:04:5940.5303-3.219981204426642Clb=4.2m/s t=-58.9C h=1.4% p=18.8hPa 403.000 MHz Type=RS41-SGP ser=U0230102 Radiosonde
EA4CP-14U02301022022-12-06 01:04:5740.5321-3.223111424426525Clb=3.6m/s p=19.1hPa t=-58.9C h=5.4% 403.00MHz Type=RS41-SGP batt=2.5V Details on http://radiosondy.info
EA4EKH-11U02301022022-12-06 01:04:5640.5323-3.223421365226512Clb=3.6m/s t=-58.9C h=1.4% p=19.2hPa 403.000 MHz Type=RS41-SGP ser=U0230102 Radiosonde
EA1JAY-16U02301022022-12-06 01:04:5040.533-3.224281374326477Clb=4.2m/s p=19.3hPa t=-58.8C h=1.4% 403.000MHz Type=RS41-SGP rdzTTGOsonde
EA4GBR-10U02301022022-12-06 01:04:4940.5331-3.224471323926468Clb=4.1m/s p=19.3hPa t=-58.7C h=1.4% 403.000MHz Type=RS41-SGP rdzTTGOsonde
EA4CP-14U02301022022-12-06 01:04:4740.5333-3.224791314626455Clb=5.0m/s p=19.3hPa t=-58.6C h=5.4% 403.00MHz Type=RS41-SGP Details on http://radiosondy.info
EA1JAY-16U02301022022-12-06 01:04:2940.5346-3.226591265026386Clb=4.8m/s p=19.6hPa t=-58.6C h=1.4% 403.000MHz Type=RS41-SGP rdzTTGOsonde
EA4EKH-11U02301022022-12-06 01:04:2840.5347-3.226861345226376Clb=4.5m/s t=-58.6C h=1.4% p=19.6hPa 403.000 MHz Type=RS41-SGP ser=U0230102 Radiosonde
EA4CP-14U02301022022-12-06 01:04:1140.5357-3.228471215026317Clb=4.9m/s p=19.8hPa t=-58.5C h=5.3% 403.00MHz Type=RS41-SGP batt=2.5V Details on http://radiosondy.info
EA1JAY-16U02301022022-12-06 01:04:0440.5361-3.229131354626293Clb=5.3m/s p=19.9hPa t=-58.6C h=1.3% 403.000MHz Type=RS41-SGP rdzTTGOsonde
EA4CP-14U02301022022-12-06 01:03:5040.5369-3.230641315026241Clb=5.6m/s p=20.0hPa t=-58.5C h=5.1% 403.00MHz Type=RS41-SGP Details on http://radiosondy.info
EA4EKH-11U02301022022-12-06 01:03:4740.5371-3.230921355726230Clb=4.4m/s t=-58.5C h=1.3% p=20.1hPa 403.000 MHz Type=RS41-SGP ser=U0230102 Radiosonde
EA1JAY-16U02301022022-12-06 01:03:3640.5376-3.231781195026197Clb=4.7m/s p=20.2hPa t=-58.6C h=1.4% 403.000MHz Type=RS41-SGP rdzTTGOsonde
EA4CP-14U02301022022-12-06 01:03:2840.538-3.23261274826168Clb=5.3m/s p=20.2hPa t=-58.8C h=5.2% 403.00MHz Type=RS41-SGP Details on http://radiosondy.info
EA4GBR-10U02301022022-12-06 01:03:2640.538-3.232731315026163Clb=5.0m/s p=20.3hPa t=-58.9C h=1.4% 403.000MHz Type=RS41-SGP rdzTTGOsonde
EA1JAY-16U02301022022-12-06 01:03:0840.5391-3.234151254326100Clb=4.7m/s p=20.5hPa t=-59.3C h=1.4% 403.000MHz Type=RS41-SGP rdzTTGOsonde
EA4CP-14U02301022022-12-06 01:03:0640.5392-3.234381304326089Clb=5.6m/s p=20.5hPa t=-59.4C h=5.5% 403.00MHz Type=RS41-SGP TxPastBurst=8h30m batt=2.6V Details on http://radiosondy.info
EA4EKH-11U02301022022-12-06 01:03:0440.5395-3.234691414426073Clb=5.2m/s t=-59.6C h=1.4% p=20.6hPa 403.000 MHz Type=RS41-SGP ser=U0230102 Radiosonde
EA4CP-14U02301022022-12-06 01:02:4740.5405-3.235881343526006Clb=4.5m/s p=20.8hPa t=-59.4C h=5.6% 403.00MHz Type=RS41-SGP Details on http://radiosondy.info
EA1JAY-16U02301022022-12-06 01:02:4240.5407-3.236141443525991Clb=5.6m/s p=20.8hPa t=-59.4C h=1.5% 403.000MHz Type=RS41-SGP rdzTTGOsonde
EA4CP-14U02301022022-12-06 01:02:2640.5415-3.237061432625925Clb=4.5m/s p=21.0hPa t=-59.2C h=5.4% 403.00MHz Type=RS41-SGP Details on http://radiosondy.info
EA4EKH-11U02301022022-12-06 01:02:2440.5416-3.237171452425914Clb=5.0m/s t=-59.2C h=1.4% p=21.1hPa 403.000 MHz Type=RS41-SGP ser=U0230102 Radiosonde
EA4GBR-10U02301022022-12-06 01:02:1540.5419-3.237451342825890Clb=4.5m/s p=21.2hPa t=-59.5C h=1.5% 403.000MHz Type=RS41-SGP rdzTTGOsonde
EA4CP-14U02301022022-12-06 01:02:0540.5421-3.237971212225843Clb=5.1m/s p=21.3hPa t=-59.4C h=5.5% 403.00MHz Type=RS41-SGP batt=2.6V Details on http://radiosondy.info
EA4GBR-10U02301022022-12-06 01:01:4740.5426-3.238551283025784Clb=5.2m/s p=21.5hPa t=-59.3C h=1.4% 403.000MHz Type=RS41-SGP rdzTTGOsonde
EA4CP-14U02301022022-12-06 01:01:4340.5427-3.238881193025763Clb=4.9m/s p=21.6hPa t=-59.2C h=5.4% 403.00MHz Type=RS41-SGP Details on http://radiosondy.info
EA4EKH-11U02301022022-12-06 01:01:4240.5428-3.238951182225758Clb=4.2m/s t=-59.2C h=1.4% p=21.6hPa 403.000 MHz Type=RS41-SGP ser=U0230102 Radiosonde
EA4CP-14U02301022022-12-06 01:01:1940.5435-3.240061453925684Clb=4.9m/s p=21.8hPa t=-59.6C h=5.5% 403.00MHz Type=RS41-SGP Details on http://radiosondy.info
EA1JAY-16U02301022022-12-06 01:01:1440.5436-3.240121453325680Clb=4.8m/s p=21.9hPa t=-59.8C h=1.5% 403.000MHz Type=RS41-SGP rdzTTGOsonde
EA4EKH-11U02301022022-12-06 01:00:5540.5445-3.241571193025605Clb=4.5m/s t=-59.9C h=1.5% p=22.1hPa 403.000 MHz Type=RS41-SGP ser=U0230102 Radiosonde
EA4CP-14U02301022022-12-06 01:00:5440.5445-3.241571203125605Clb=4.5m/s p=22.1hPa t=-59.9C h=5.7% 403.00MHz Type=RS41-SGP batt=2.6V Details on http://radiosondy.info
EA1JAY-16U02301022022-12-06 01:00:4440.5447-3.242161273325575Clb=5.6m/s p=22.3hPa t=-60.0C h=1.6% 403.000MHz Type=RS41-SGP rdzTTGOsonde
EA4CP-14U02301022022-12-06 01:00:3440.545-3.242861042425532Clb=4.5m/s p=22.4hPa t=-59.8C h=5.8% 403.00MHz Type=RS41-SGP Details on http://radiosondy.info
EA1JAY-16U02301022022-12-06 01:00:1540.5453-3.2437972225475Clb=4.7m/s p=22.6hPa t=-59.4C h=1.5% 403.000MHz Type=RS41-SGP rdzTTGOsonde
EA4GBR-10U02301022022-12-06 01:00:1440.5453-3.24377942225470Clb=4.3m/s p=22.6hPa t=-59.4C h=1.5% 403.000MHz Type=RS41-SGP rdzTTGOsonde
EA4EKH-11U02301022022-12-06 01:00:1140.5453-3.243981082025456Clb=4.2m/s t=-59.3C h=1.5% p=22.7hPa 403.000 MHz Type=RS41-SGP ser=U0230102 Radiosonde
EA4CP-14U02301022022-12-06 01:00:1040.5453-3.243981092025456Clb=4.1m/s p=22.6hPa t=-59.3C h=5.6% 403.00MHz Type=RS41-SGP Details on http://radiosondy.info
EA4CP-14U02301022022-12-06 00:59:4840.5456-3.244921221525380Clb=5.0m/s p=22.9hPa t=-59.2C h=5.3% 403.00MHz Type=RS41-SGP TxPastBurst=8h30m batt=2.5V Details on http://radiosondy.info
EA1JAY-16U02301022022-12-06 00:59:4640.5456-3.244971301725375Clb=4.3m/s p=23.0hPa t=-59.2C h=1.4% 403.000MHz Type=RS41-SGP rdzTTGOsonde
EA4GBR-10U02301022022-12-06 00:59:4140.5458-3.245051781325356Clb=4.1m/s p=23.1hPa t=-59.3C h=1.5% 403.000MHz Type=RS41-SGP rdzTTGOsonde
EA4EKH-11U02301022022-12-06 00:59:3040.5459-3.245491071925309Clb=4.8m/s t=-59.5C h=1.4% p=23.2hPa 403.000 MHz Type=RS41-SGP ser=U0230102 Radiosonde
EA4CP-14U02301022022-12-06 00:59:2740.5459-3.245551141525305Clb=3.9m/s p=23.2hPa t=-59.5C h=5.6% 403.00MHz Type=RS41-SGP Details on http://radiosondy.info
EA1JAY-16U02301022022-12-06 00:59:1940.546-3.24569144925282Clb=4.6m/s p=23.3hPa t=-59.6C h=1.5% 403.000MHz Type=RS41-SGP rdzTTGOsonde
EA4GBR-10U02301022022-12-06 00:59:0940.5461-3.245951071525250Clb=4.6m/s p=23.5hPa t=-59.5C h=1.5% 403.000MHz Type=RS41-SGP rdzTTGOsonde
EA4CP-14U02301022022-12-06 00:59:0540.5462-3.246181181725231Clb=5.5m/s p=23.5hPa t=-59.4C h=5.5% 403.00MHz Type=RS41-SGP Details on http://radiosondy.info
EA1JAY-16U02301022022-12-06 00:58:5040.5463-3.246641171925185Clb=5.1m/s p=23.7hPa t=-59.6C h=1.5% 403.000MHz Type=RS41-SGP rdzTTGOsonde
EA4EKH-11U02301022022-12-06 00:58:4540.5464-3.246911212025167Clb=5.0m/s t=-59.8C h=1.5% p=23.8hPa 403.000 MHz Type=RS41-SGP ser=U0230102 Radiosonde
EA4CP-14U02301022022-12-06 00:58:4440.5464-3.246961252625162Clb=4.2m/s p=23.7hPa t=-59.8C h=5.6% 403.00MHz Type=RS41-SGP batt=2.5V Details on http://radiosondy.info
EA4GBR-10U02301022022-12-06 00:58:3740.5466-3.247251272225140Clb=4.7m/s p=23.9hPa t=-59.8C h=1.6% 403.000MHz Type=RS41-SGP rdzTTGOsonde
EA4CP-14U02301022022-12-06 00:58:2440.547-3.247981272825095Clb=4.5m/s p=24.0hPa t=-59.6C h=5.6% 403.00MHz Type=RS41-SGP Details on http://radiosondy.info
EA1JAY-16U02301022022-12-06 00:58:2340.547-3.247981282825094Clb=4.6m/s p=24.1hPa t=-59.7C h=1.5% 403.000MHz Type=RS41-SGP rdzTTGOsonde
EA4EKH-11U02301022022-12-06 00:58:0340.5476-3.249131333025030Clb=3.5m/s t=-59.7C h=1.5% p=24.3hPa 403.000 MHz Type=RS41-SGP ser=U0230102 Radiosonde
EA4CP-14U02301022022-12-06 00:58:0240.5476-3.249131343125030Clb=3.4m/s p=24.2hPa t=-59.6C h=5.6% 403.00MHz Type=RS41-SGP Details on http://radiosondy.info
EA1JAY-16U02301022022-12-06 00:57:5240.5478-3.249581272425003Clb=4.0m/s p=24.4hPa t=-59.6C h=1.4% 403.000MHz Type=RS41-SGP rdzTTGOsonde
EA4CP-14U02301022022-12-06 00:57:4040.5482-3.250371253324966Clb=4.6m/s p=24.5hPa t=-59.9C h=5.5% 403.00MHz Type=RS41-SGP batt=2.6V Details on http://radiosondy.info
EA4GBR-10U02301022022-12-06 00:57:2840.5484-3.250961053024936Clb=4.8m/s p=24.7hPa t=-60.0C h=1.6% 403.000MHz Type=RS41-SGP rdzTTGOsonde
EA1JAY-16U02301022022-12-06 00:57:1840.5487-3.25171434124906Clb=4.2m/s p=24.8hPa t=-60.1C h=1.5% 403.000MHz Type=RS41-SGP rdzTTGOsonde
EA4CP-14U02301022022-12-06 00:57:1740.5488-3.251781423124901Clb=4.8m/s p=24.8hPa t=-60.1C h=5.7% 403.00MHz Type=RS41-SGP Details on http://radiosondy.info
EA4EKH-11U02301022022-12-06 00:57:1540.5489-3.251861373724897Clb=3.9m/s t=-60.2C h=1.5% p=24.8hPa 403.000 MHz Type=RS41-SGP ser=U0230102 Radiosonde
EA4GBR-10U02301022022-12-06 00:56:5440.5495-3.252971383024838Clb=4.2m/s p=25.0hPa t=-60.2C h=1.5% 403.000MHz Type=RS41-SGP rdzTTGOsonde
EA1JAY-16U02301022022-12-06 00:56:4740.5496-3.25339992624817Clb=4.8m/s p=25.1hPa t=-60.1C h=1.5% 403.000MHz Type=RS41-SGP rdzTTGOsonde
EA4CP-14U02301022022-12-06 00:56:3140.5498-3.254131132224770Clb=5.0m/s p=25.3hPa t=-60.0C h=5.6% 403.00MHz Type=RS41-SGP TxPastBurst=8h30m batt=2.6V Details on http://radiosondy.info
EA4EKH-11U02301022022-12-06 00:56:2940.5498-3.25421062224766Clb=4.8m/s t=-60.1C h=1.5% p=25.3hPa 403.000 MHz Type=RS41-SGP ser=U0230102 Radiosonde
EA4GBR-10U02301022022-12-06 00:56:1940.55-3.254621512024736Clb=3.7m/s p=25.4hPa t=-60.3C h=1.5% 403.000MHz Type=RS41-SGP rdzTTGOsonde
EA1JAY-16U02301022022-12-06 00:56:1840.5501-3.254661462224732Clb=4.0m/s p=25.5hPa t=-60.3C h=1.6% 403.000MHz Type=RS41-SGP rdzTTGOsonde
EA4CP-14U02301022022-12-06 00:56:1140.5502-3.25503651924706Clb=4.0m/s p=25.5hPa t=-60.2C h=5.6% 403.00MHz Type=RS41-SGP Details on http://radiosondy.info
EA1JAY-16U02301022022-12-06 00:55:4740.5502-3.255811141324639Clb=5.0m/s p=25.9hPa t=-60.7C h=1.7% 403.000MHz Type=RS41-SGP rdzTTGOsonde
EA4CP-14U02301022022-12-06 00:55:4640.5502-3.255851111324634Clb=4.8m/s p=25.8hPa t=-60.6C h=6.0% 403.00MHz Type=RS41-SGP Details on http://radiosondy.info
EA4EKH-11U02301022022-12-06 00:55:4540.5502-3.25588102924629Clb=4.4m/s t=-60.6C h=1.5% p=25.9hPa 403.000 MHz Type=RS41-SGP ser=U0230102 Radiosonde
EA4GBR-10U02301022022-12-06 00:55:4340.5502-3.25588104924629Clb=4.4m/s p=25.9hPa t=-60.6C h=1.6% 403.000MHz Type=RS41-SGP rdzTTGOsonde
EA4CP-14U02301022022-12-06 00:55:2240.5504-3.256511171924560Clb=4.9m/s p=26.2hPa t=-60.1C h=5.9% 403.00MHz Type=RS41-SGP batt=2.5V Details on http://radiosondy.info
EA1JAY-16U02301022022-12-06 00:55:1640.5504-3.256721021724540Clb=4.3m/s p=26.3hPa t=-60.0C h=1.6% 403.000MHz Type=RS41-SGP rdzTTGOsonde
EA4CP-14U02301022022-12-06 00:54:5840.5507-3.257431242024483Clb=5.2m/s p=26.5hPa t=-59.6C h=5.8% 403.00MHz Type=RS41-SGP Details on http://radiosondy.info
EA1JAY-16U02301022022-12-06 00:54:4540.5509-3.257961152224447Clb=4.6m/s p=26.7hPa t=-59.4C h=1.6% 403.000MHz Type=RS41-SGP rdzTTGOsonde
EA4CP-14U02301022022-12-06 00:54:3540.5512-3.258351232624410Clb=5.0m/s p=26.8hPa t=-59.1C h=5.6% 403.00MHz Type=RS41-SGP Details on http://radiosondy.info
EA4GBR-10U02301022022-12-06 00:54:1540.5516-3.259221132824356Clb=4.8m/s p=27.1hPa t=-58.9C h=1.5% 403.000MHz Type=RS41-SGP rdzTTGOsonde
EA1JAY-16U02301022022-12-06 00:54:1440.5516-3.259311173124351Clb=4.8m/s p=27.1hPa t=-58.8C h=1.5% 403.000MHz Type=RS41-SGP rdzTTGOsonde
EA4EKH-11U02301022022-12-06 00:54:1240.5517-3.259491213024341Clb=5.3m/s t=-58.8C h=1.6% p=27.1hPa 403.000 MHz Type=RS41-SGP ser=U0230102 Radiosonde
EA4CP-14U02301022022-12-06 00:54:1040.5517-3.259571273124336Clb=4.6m/s p=27.1hPa t=-58.7C h=5.5% 403.00MHz Type=RS41-SGP batt=2.5V Details on http://radiosondy.info
EA4CP-14U02301022022-12-06 00:53:4640.5524-3.260951313524259Clb=4.9m/s p=27.4hPa t=-58.4C h=5.4% 403.00MHz Type=RS41-SGP Details on http://radiosondy.info
EA1JAY-16U02301022022-12-06 00:53:4240.5524-3.261041343524254Clb=4.5m/s p=27.5hPa 403.000MHz Type=RS41-SGP rdzTTGOsonde
EA4GBR-10U02301022022-12-06 00:53:4040.5525-3.261191333024244Clb=5.2m/s p=27.5hPa t=-58.6C h=1.5% 403.000MHz Type=RS41-SGP rdzTTGOsonde
EA4EKH-11U02301022022-12-06 00:53:2340.5532-3.262331324324187Clb=4.1m/s t=-58.7C h=1.5% p=27.8hPa 403.000 MHz Type=RS41-SGP ser=U0230102 Radiosonde
EA4CP-14U02301022022-12-06 00:53:2140.5533-3.262431333324183Clb=4.5m/s p=27.8hPa t=-58.6C h=5.5% 403.00MHz Type=RS41-SGP Details on http://radiosondy.info
EA1JAY-16U02301022022-12-06 00:53:1140.5535-3.262861313124159Clb=5.5m/s 403.000MHz Type=RS41 rdzTTGOsonde
EA4GBR-10U02301022022-12-06 00:53:0340.5538-3.263341223024130Clb=4.8m/s p=28.0hPa t=-58.9C h=1.5% 403.000MHz Type=RS41-SGP rdzTTGOsonde
EA4CP-14U02301022022-12-06 00:52:5640.5541-3.263791302424107Clb=4.1m/s p=28.1hPa t=-58.8C h=5.6% 403.00MHz Type=RS41-SGP TxPastBurst=8h30m batt=2.6V Details on http://radiosondy.info
EA1JAY-16U02301022022-12-06 00:52:3840.5544-3.264311292424059Clb=4.5m/s 403.000MHz Type=RS41 rdzTTGOsonde
EA4EKH-11U02301022022-12-06 00:52:3440.5546-3.264611263024041Clb=3.7m/s t=-58.9C h=1.5% p=28.4hPa 403.000 MHz Type=RS41-SGP ser=U0230102 Radiosonde
EA4CP-14U02301022022-12-06 00:52:3040.5547-3.264751141724031Clb=4.9m/s p=28.4hPa t=-58.8C h=5.7% 403.00MHz Type=RS41-SGP Details on http://radiosondy.info
EA4GBR-10U02301022022-12-06 00:52:2440.5547-3.26484109924023Clb=4.3m/s p=28.5hPa t=-58.9C h=1.6% 403.000MHz Type=RS41-SGP rdzTTGOsonde
EA4CP-14U02301022022-12-06 00:52:0240.5552-3.265271291923957Clb=4.2m/s p=28.8hPa t=-58.4C h=5.4% 403.00MHz Type=RS41-SGP Details on http://radiosondy.info
EA4GBR-10U02301022022-12-06 00:51:5240.5554-3.265631301723916Clb=5.4m/s p=29.0hPa t=-58.7C h=1.7% 403.000MHz Type=RS41-SGP rdzTTGOsonde
EA4EKH-11U02301022022-12-06 00:51:5040.5556-3.26581321923896Clb=5.2m/s t=-58.9C h=1.6% p=29.1hPa 403.000 MHz Type=RS41-SGP ser=U0230102 Radiosonde
EA4CP-14U02301022022-12-06 00:51:4740.5556-3.265911241923887Clb=4.2m/s p=29.1hPa t=-58.8C h=5.6% 403.00MHz Type=RS41-SGP batt=2.6V Details on http://radiosondy.info
EA4CP-14U02301022022-12-06 00:51:3340.556-3.266771341523812Clb=5.0m/s p=29.4hPa t=-59.0C h=5.6% 403.00MHz Type=RS41-SGP Details on http://radiosondy.info
EA4GBR-10U02301022022-12-06 00:51:3040.556-3.266851261723803Clb=5.3m/s p=29.5hPa t=-59.1C h=1.7% 403.000MHz Type=RS41-SGP rdzTTGOsonde
EA4EKH-11U02301022022-12-06 00:51:1940.5562-3.267251221123753Clb=5.2m/s t=-59.3C h=1.7% p=29.8hPa 403.000 MHz Type=RS41-SGP ser=U0230102 Radiosonde
EA4CP-14U02301022022-12-06 00:51:1540.5563-3.267331531323739Clb=4.9m/s p=29.8hPa t=-59.2C h=5.8% 403.00MHz Type=RS41-SGP Details on http://radiosondy.info
EA4GBR-10U02301022022-12-06 00:51:0540.5566-3.267611071323694Clb=3.9m/s p=30.0hPa t=-59.2C h=1.8% 403.000MHz Type=RS41-SGP rdzTTGOsonde
EA4CP-14U02301022022-12-06 00:50:5940.5567-3.267731601923667Clb=3.8m/s p=30.1hPa t=-59.1C h=5.9% 403.00MHz Type=RS41-SGP batt=2.6V Details on http://radiosondy.info
EA4EKH-11U02301022022-12-06 00:50:4840.5571-3.268181331723613Clb=5.1m/s t=-59.0C h=1.8% p=30.4hPa 403.000 MHz Type=RS41-SGP ser=U0230102 Radiosonde
EA4CP-14U02301022022-12-06 00:50:4340.5572-3.268391432223595Clb=4.2m/s p=30.5hPa t=-58.9C h=5.8% 403.00MHz Type=RS41-SGP Details on http://radiosondy.info
EA4GBR-10U02301022022-12-06 00:50:4140.5573-3.268451432823591Clb=3.7m/s p=30.5hPa t=-58.9C h=1.8% 403.000MHz Type=RS41-SGP rdzTTGOsonde
EA4CP-14U02301022022-12-06 00:50:2840.5579-3.26921362423525Clb=4.9m/s p=30.8hPa t=-59.2C h=5.8% 403.00MHz Type=RS41-SGP Details on http://radiosondy.info
EA4GBR-10U02301022022-12-06 00:50:2040.5581-3.269661172023488Clb=4.1m/s p=31.0hPa t=-59.9C h=1.9% 403.000MHz Type=RS41-SGP rdzTTGOsonde
EA4EKH-11U02301022022-12-06 00:50:1740.5582-3.269851262623475Clb=4.2m/s t=-60.0C h=2.0% p=31.1hPa 403.000 MHz Type=RS41-SGP ser=U0230102 Radiosonde
EA4CP-14U02301022022-12-06 00:50:1140.5583-3.27023971723455Clb=4.1m/s p=31.2hPa t=-60.1C h=6.0% 403.00MHz Type=RS41-SGP TxPastBurst=8h30m batt=2.6V Details on http://radiosondy.info
EA4CP-14U02301022022-12-06 00:49:5540.5584-3.2709884723380Clb=4.0m/s p=31.6hPa t=-61.3C h=6.5% 403.00MHz Type=RS41-SGP Details on http://radiosondy.info
EA4GBR-10U02301022022-12-06 00:49:5440.5584-3.27098851523379Clb=4.1m/s p=31.6hPa t=-61.4C h=2.0% 403.000MHz Type=RS41-SGP rdzTTGOsonde
EA4EKH-11U02301022022-12-06 00:49:4540.5584-3.27114214423333Clb=4.3m/s t=-61.3C h=2.1% p=31.8hPa 403.000 MHz Type=RS41-SGP ser=U0230102 Radiosonde
EA4CP-14U02301022022-12-06 00:49:4040.5626-3.273491541922258Clb=3.9m/s p=37.7hPa t=-61.6C h=7.2% 403.00MHz Type=RS41-SGP Details on http://radiosondy.info
EA4CP-14U02301022022-12-06 00:49:3640.5633-3.273991521922188Clb=4.0m/s p=38.2hPa t=-62.2C h=7.4% 403.00MHz Type=RS41-SGP Details on http://radiosondy.info
EA4CP-14U02301022022-12-06 00:49:3540.5638-3.274611431922124Clb=3.8m/s p=38.6hPa t=-62.2C h=7.5% 403.00MHz Type=RS41-SGP TxPastBurst=8h30m batt=2.6V Details on http://radiosondy.info
EA4GBR-10U02301022022-12-06 00:49:3440.5642-3.275081431922077Clb=4.5m/s p=38.9hPa t=-62.5C h=2.7% 403.000MHz Type=RS41-SGP rdzTTGOsonde
EA4EKH-11U02301022022-12-06 00:49:3340.5646-3.275281701122028Clb=4.1m/s t=-62.7C h=2.8% p=39.2hPa 403.000 MHz Type=RS41-SGP ser=U0230102 Radiosonde
EA4CP-14U02301022022-12-06 00:49:3240.5659-3.275641602421917Clb=3.4m/s p=39.9hPa t=-62.0C h=7.7% 403.00MHz Type=RS41-SGP batt=2.5V Details on http://radiosondy.info
EA4CP-14U02301022022-12-06 00:49:3140.5668-3.276021592421849Clb=4.1m/s p=40.3hPa t=-62.1C h=7.7% 403.00MHz Type=RS41-SGP Details on http://radiosondy.info
EA4CP-14U02301022022-12-06 00:49:3040.5677-3.276541422621779Clb=4.6m/s p=40.8hPa t=-62.4C h=8.1% 403.00MHz Type=RS41-SGP Details on http://radiosondy.info
EA4CP-14U02301022022-12-06 00:49:2940.5686-3.277431472221704Clb=4.3m/s p=41.3hPa t=-62.5C h=7.9% 403.00MHz Type=RS41-SGP batt=2.5V Details on http://radiosondy.info
EA4CP-14U02301022022-12-06 00:49:2840.5691-3.278191361921636Clb=5.1m/s p=41.7hPa t=-62.7C h=7.8% 403.00MHz Type=RS41-SGP Details on http://radiosondy.info
EA4CP-14U02301022022-12-06 00:49:2040.5696-3.278991412021563Clb=4.1m/s p=42.2hPa t=-63.0C h=7.9% 403.00MHz Type=RS41-SGP Details on http://radiosondy.info
EA4CP-14U02301022022-12-06 00:48:5640.5701-3.279811321921488Clb=4.2m/s p=42.7hPa t=-63.3C h=8.2% 403.00MHz Type=RS41-SGP TxPastBurst=8h30m batt=2.6V Details on http://radiosondy.info
EA4EKH-11U02301022022-12-06 00:48:5540.5702-3.279861302021484Clb=5.0m/s t=-63.3C h=3.1% p=42.8hPa 403.000 MHz Type=RS41-SGP ser=U0230102 Radiosonde
EA4EKH-12U02301022022-12-06 00:48:4440.5703-3.280081221921461Clb=4.4m/s p=43.0hPa t=-63.2C h=3.1% 403.000MHz Type=RS41-SGP rdzTTGOsonde
EA4CP-14U02301022022-12-06 00:48:3140.5705-3.280561202021420Clb=4.9m/s p=43.2hPa t=-63.2C h=8.2% 403.00MHz Type=RS41-SGP Details on http://radiosondy.info
EA4CP-14U02301022022-12-06 00:48:0240.571-3.281321362421350Clb=5.3m/s p=43.7hPa t=-63.8C h=8.6% 403.00MHz Type=RS41-SGP Details on http://radiosondy.info
EA4EKH-11U02301022022-12-06 00:48:0140.5711-3.281381342621346Clb=3.9m/s t=-63.8C h=3.3% p=43.8hPa 403.000 MHz Type=RS41-SGP ser=U0230102 Radiosonde
EA4CP-14U02301022022-12-06 00:47:3540.5717-3.282081452621285Clb=4.3m/s p=44.2hPa t=-63.3C h=8.6% 403.00MHz Type=RS41-SGP batt=2.6V Details on http://radiosondy.info
EA4GBR-10U02301022022-12-06 00:47:2040.5721-3.282421453121254Clb=3.9m/s p=44.4hPa t=-63.2C h=3.4% 403.000MHz Type=RS41-SGP rdzTTGOsonde
EA4CP-14U02301022022-12-06 00:47:0540.5726-3.282781462021213Clb=5.4m/s p=44.7hPa t=-63.0C h=8.2% 403.00MHz Type=RS41-SGP Details on http://radiosondy.info
EA4EKH-11U02301022022-12-06 00:47:0340.5726-3.282821431721209Clb=4.0m/s t=-63.0C h=3.1% p=44.8hPa 403.000 MHz Type=RS41-SGP ser=U0230102 Radiosonde
EA4CP-14U02301022022-12-06 00:46:3740.5732-3.283511362621142Clb=5.3m/s p=45.2hPa t=-63.1C h=8.4% 403.00MHz Type=RS41-SGP Details on http://radiosondy.info
EA4CP-14U02301022022-12-06 00:46:0740.5738-3.284621263121070Clb=5.1m/s p=45.7hPa t=-62.8C h=8.3% 403.00MHz Type=RS41-SGP batt=2.5V Details on http://radiosondy.info
EA4CP-14U02301022022-12-06 00:45:4040.5746-3.285881353721000Clb=4.9m/s p=46.2hPa t=-62.7C h=8.3% 403.00MHz Type=RS41-SGP Details on http://radiosondy.info
EA4EKH-12U02301022022-12-06 00:45:3340.5748-3.286161223920987Clb=4.4m/s p=46.4hPa t=-62.8C h=3.4% 403.000MHz Type=RS41-SGP rdzTTGOsonde
EA4EKH-11U02301022022-12-06 00:45:1240.5753-3.287471153120932Clb=4.7m/s t=-62.8C h=3.2% p=46.8hPa 403.000 MHz Type=RS41-SGP ser=U0230102 Radiosonde
EA4CP-14U02301022022-12-06 00:45:1040.5753-3.287571143520928Clb=3.7m/s p=46.8hPa t=-62.8C h=8.3% 403.00MHz Type=RS41-SGP Details on http://radiosondy.info
EA4CP-14U02301022022-12-06 00:44:4540.5756-3.28935993320855Clb=4.2m/s p=47.4hPa t=-62.8C h=8.6% 403.00MHz Type=RS41-SGP TxPastBurst=8h30m batt=2.5V Details on http://radiosondy.info
EA4EKH-11U02301022022-12-06 00:44:1940.5755-3.29083883320794Clb=4.2m/s t=-62.9C h=3.4% p=47.9hPa 403.000 MHz Type=RS41-SGP ser=U0230102 Radiosonde
EA4CP-14U02301022022-12-06 00:44:1840.5755-3.29095943720789Clb=4.9m/s p=47.9hPa t=-62.9C h=8.4% 403.00MHz Type=RS41-SGP Details on http://radiosondy.info
EA4CP-14U02301022022-12-06 00:43:5040.5754-3.29286823520719Clb=4.9m/s p=48.4hPa t=-63.1C h=8.6% 403.00MHz Type=RS41-SGP Details on http://radiosondy.info
EA4GBR-10U02301022022-12-06 00:43:3840.5754-3.29352863720691Clb=5.0m/s p=48.7hPa t=-63.0C h=3.3% 403.000MHz Type=RS41-SGP rdzTTGOsonde
EA4EKH-11U02301022022-12-06 00:43:2340.5753-3.29447813320655Clb=4.5m/s t=-63.0C h=3.1% p=49.0hPa 403.000 MHz Type=RS41-SGP ser=U0230102 Radiosonde
EA4CP-14U02301022022-12-06 00:43:2140.5753-3.29458813320650Clb=5.6m/s p=49.0hPa t=-63.0C h=8.1% 403.00MHz Type=RS41-SGP batt=2.5V Details on http://radiosondy.info
EA4CP-14U02301022022-12-06 00:42:5340.5749-3.29617623320576Clb=4.3m/s p=49.6hPa t=-63.1C h=8.5% 403.00MHz Type=RS41-SGP Details on http://radiosondy.info
EA4EKH-11U02301022022-12-06 00:42:2440.5744-3.29761673020513Clb=5.0m/s t=-62.9C h=3.2% p=50.1hPa 403.000 MHz Type=RS41-SGP ser=U0230102 Radiosonde
EA4CP-14U02301022022-12-06 00:42:1940.5743-3.29779663520504Clb=4.0m/s p=50.1hPa t=-62.8C h=8.3% 403.00MHz Type=RS41-SGP Details on http://radiosondy.info
EA4CP-14U02301022022-12-06 00:41:5040.5737-3.29938503120434Clb=5.0m/s p=50.7hPa t=-62.8C h=8.8% 403.00MHz Type=RS41-SGP batt=2.6V Details on http://radiosondy.info
LETO2-14U02301022022-12-06 00:41:4840.5736-3.29945532820429Clb=4.0m/s p=50.7hPa t=-62.8C h=8.7% 403.00MHz Type=RS41-SGP Radiosonde Tracker +Info: 403MHz@gmail.com
EA4GBR-10U02301022022-12-06 00:41:4540.5736-3.29953573120425Clb=4.3m/s p=50.8hPa t=-62.8C h=3.5% 403.000MHz Type=RS41-SGP rdzTTGOsonde
LETO2-14U02301022022-12-06 00:41:3340.5733-3.30035663020391Clb=4.9m/s p=51.0hPa t=-62.6C h=8.3% 403.00MHz Type=RS41-SGP Radiosonde Tracker +Info: 403MHz@gmail.com
EA4EKH-11U02301022022-12-06 00:41:2540.5732-3.30061692620377Clb=5.1m/s t=-62.6C h=3.2% p=51.2hPa 403.000 MHz Type=RS41-SGP ser=U0230102 Radiosonde
EA4CP-14U02301022022-12-06 00:41:1840.5731-3.30094652620359Clb=3.8m/s p=51.3hPa t=-62.4C h=8.2% 403.00MHz Type=RS41-SGP Details on http://radiosondy.info
LETO2-14U02301022022-12-06 00:41:1440.5731-3.30111702420350Clb=5.1m/s p=51.4hPa t=-62.5C h=8.2% 403.00MHz Type=RS41-SGP batt=2.6V Radiosonde Tracker +Info: 403MHz@gmail.com
EA4GBR-10U02301022022-12-06 00:40:5840.5729-3.3017692620313Clb=5.0m/s p=51.7hPa t=-62.5C h=3.3% 403.000MHz Type=RS41-SGP rdzTTGOsonde
EA4CP-14U02301022022-12-06 00:40:5040.5727-3.30206742220291Clb=4.4m/s p=51.9hPa t=-62.4C h=8.3% 403.00MHz Type=RS41-SGP Details on http://radiosondy.info
EA4EKH-11U02301022022-12-06 00:40:2640.5725-3.30284742420237Clb=4.4m/s t=-62.2C h=3.4% p=52.4hPa 403.000 MHz Type=RS41-SGP ser=U0230102 Radiosonde
EA4CP-14U02301022022-12-06 00:40:1940.5725-3.30317842020219Clb=4.7m/s p=52.5hPa t=-62.3C h=8.3% 403.00MHz Type=RS41-SGP TxPastBurst=8h30m batt=2.5V Details on http://radiosondy.info
EA4GBR-10U02301022022-12-06 00:40:1140.5724-3.30343761920201Clb=3.7m/s p=52.7hPa t=-62.3C h=3.3% 403.000MHz Type=RS41-SGP rdzTTGOsonde
EA4CP-14U02301022022-12-06 00:39:5140.5722-3.30415651920148Clb=4.3m/s p=53.1hPa t=-62.1C h=8.2% 403.00MHz Type=RS41-SGP Details on http://radiosondy.info
EA4EKH-11U02301022022-12-06 00:39:3040.572-3.30478541920096Clb=4.2m/s t=-62.4C h=3.4% p=53.6hPa 403.000 MHz Type=RS41-SGP ser=U0230102 Radiosonde
EA4GBR-10U02301022022-12-06 00:39:2640.5719-3.30483612020092Clb=4.5m/s p=53.6hPa t=-62.4C h=3.4% 403.000MHz Type=RS41-SGP rdzTTGOsonde
EA4CP-14U02301022022-12-06 00:39:2240.5719-3.30501752220079Clb=4.0m/s p=53.7hPa t=-62.3C h=8.5% 403.00MHz Type=RS41-SGP Details on http://radiosondy.info
LETO2-14U02301022022-12-06 00:39:1040.5717-3.30545582020048Clb=4.7m/s p=54.0hPa t=-62.4C h=8.4% 403.00MHz Type=RS41-SGP Radiosonde Tracker +Info: 403MHz@gmail.com
EA4CP-14U02301022022-12-06 00:38:5640.5715-3.30595581520014Clb=3.9m/s p=54.2hPa t=-62.8C h=8.5% 403.00MHz Type=RS41-SGP batt=2.6V Details on http://radiosondy.info
LETO2-14U02301022022-12-06 00:38:5040.5715-3.30606611320000Clb=4.5m/s p=54.3hPa t=-62.9C h=8.6% 403.00MHz Type=RS41-SGP Radiosonde Tracker +Info: 403MHz@gmail.com
EA4GBR-10U02301022022-12-06 00:38:4040.5714-3.30629811719978Clb=3.8m/s p=54.6hPa t=-63.1C h=3.7% 403.000MHz Type=RS41-SGP rdzTTGOsonde
EA4EKH-11U02301022022-12-06 00:38:3540.5714-3.30649541319960Clb=4.1m/s t=-63.2C h=3.6% p=54.8hPa 403.000 MHz Type=RS41-SGP ser=U0230102 Radiosonde
EA4CP-14U02301022022-12-06 00:38:2740.5713-3.30662691119944Clb=4.6m/s p=54.8hPa t=-63.2C h=9.0% 403.00MHz Type=RS41-SGP Details on http://radiosondy.info
EA4CP-14U02301022022-12-06 00:37:5640.5711-3.3071466919871Clb=3.4m/s p=55.5hPa t=-63.1C h=9.1% 403.00MHz Type=RS41-SGP Details on http://radiosondy.info
EA4GBR-10U02301022022-12-06 00:37:5540.5711-3.3071467919871Clb=3.5m/s p=55.5hPa t=-63.2C h=3.9% 403.000MHz Type=RS41-SGP rdzTTGOsonde
EA4EKH-11U02301022022-12-06 00:37:3540.5711-3.30744101719828Clb=5.0m/s t=-63.2C h=3.8% p=55.9hPa 403.000 MHz Type=RS41-SGP ser=U0230102 Radiosonde
EA4CP-14U02301022022-12-06 00:37:1940.571-3.3077631919799Clb=3.8m/s p=56.2hPa t=-63.2C h=8.8% 403.00MHz Type=RS41-SGP batt=2.6V Details on http://radiosondy.info
EA4GBR-10U02301022022-12-06 00:37:0340.571-3.308121212019765Clb=4.9m/s p=56.5hPa t=-63.3C h=3.7% 403.000MHz Type=RS41-SGP rdzTTGOsonde
EA4CP-14U02301022022-12-06 00:36:4640.5711-3.308591032019732Clb=4.4m/s p=56.8hPa t=-63.3C h=9.0% 403.00MHz Type=RS41-SGP Details on http://radiosondy.info
LETO2-14U02301022022-12-06 00:36:3840.5712-3.308841222019714Clb=4.3m/s p=56.9hPa t=-63.4C h=9.2% 403.00MHz Type=RS41-SGP batt=2.6V Radiosonde Tracker +Info: 403MHz@gmail.com
EA4EKH-11U02301022022-12-06 00:36:3240.5714-3.309081192019698Clb=4.0m/s t=-63.5C h=3.9% p=57.1hPa 403.000 MHz Type=RS41-SGP ser=U0230102 Radiosonde
EA4EKH-12U02301022022-12-06 00:36:2540.5714-3.309211072419689Clb=4.1m/s p=57.2hPa t=-63.5C h=3.9% 403.000MHz Type=RS41-SGP rdzTTGOsonde
EA4CP-14U02301022022-12-06 00:36:1540.5715-3.309621041719663Clb=3.6m/s p=57.4hPa t=-63.4C h=9.1% 403.00MHz Type=RS41-SGP Details on http://radiosondy.info
EA4GBR-10U02301022022-12-06 00:36:1040.5715-3.309711271319654Clb=3.9m/s p=57.6hPa t=-63.4C h=3.9% 403.000MHz Type=RS41-SGP rdzTTGOsonde
EA4CP-14U02301022022-12-06 00:35:5440.5718-3.310361191919600Clb=3.4m/s p=58.0hPa t=-63.3C h=9.1% 403.00MHz Type=RS41-SGP TxPastBurst=8h30m batt=2.5V Details on http://radiosondy.info
EA4EKH-11U02301022022-12-06 00:35:4740.5719-3.310741151919568Clb=4.6m/s t=-63.5C h=3.9% p=58.4hPa 403.000 MHz Type=RS41-SGP ser=U0230102 Radiosonde
EA4GBR-10U02301022022-12-06 00:35:4340.572-3.310871142419560Clb=3.3m/s p=58.4hPa t=-63.5C h=4.0% 403.000MHz Type=RS41-SGP rdzTTGOsonde
EA4CP-14U02301022022-12-06 00:35:4040.5721-3.311251202219536Clb=3.5m/s p=58.6hPa t=-63.4C h=9.4% 403.00MHz Type=RS41-SGP Details on http://radiosondy.info
LETO2-14U02301022022-12-06 00:35:3840.5724-3.311641192419508Clb=3.6m/s p=58.9hPa t=-63.3C h=9.1% 403.00MHz Type=RS41-SGP Radiosonde Tracker +Info: 403MHz@gmail.com
EA4GBR-10U02301022022-12-06 00:35:2840.5725-3.312131282019478Clb=4.8m/s p=59.2hPa t=-63.7C h=4.0% 403.000MHz Type=RS41-SGP rdzTTGOsonde
LETO2-14U02301022022-12-06 00:35:2640.5726-3.312231342219470Clb=4.2m/s p=59.2hPa t=-63.7C h=9.3% 403.00MHz Type=RS41-SGP Radiosonde Tracker +Info: 403MHz@gmail.com
EA4EKH-12U02301022022-12-06 00:35:2340.5727-3.312361262619461Clb=3.6m/s p=59.4hPa t=-63.8C h=4.0% 403.000MHz Type=RS41-SGP rdzTTGOsonde
EA4EKH-11U02301022022-12-06 00:35:1840.5728-3.312711092219441Clb=4.1m/s t=-64.1C h=4.0% p=59.5hPa 403.000 MHz Type=RS41-SGP ser=U0230102 Radiosonde
LETO2-14U02301022022-12-06 00:35:1740.5728-3.312791072819437Clb=4.8m/s p=59.5hPa t=-64.0C h=9.6% 403.00MHz Type=RS41-SGP TxPastBurst=8h30m batt=2.6V Radiosonde Tracker +Info: 403MHz@gmail.com
EA4CP-14U02301022022-12-06 00:35:0740.5729-3.31335922219407Clb=3.8m/s p=59.9hPa t=-63.9C h=9.5% 403.00MHz Type=RS41-SGP batt=2.5V Details on http://radiosondy.info
LETO2-14U02301022022-12-06 00:35:0440.5729-3.313541061719395Clb=3.7m/s p=60.0hPa t=-63.8C h=9.6% 403.00MHz Type=RS41-SGP Radiosonde Tracker +Info: 403MHz@gmail.com
EA4GBR-10U02301022022-12-06 00:35:0340.5729-3.31361101919391Clb=3.3m/s p=60.0hPa t=-63.9C h=4.1% 403.000MHz Type=RS41-SGP rdzTTGOsonde
LETO2-14U02301022022-12-06 00:34:5640.573-3.31414872219363Clb=4.3m/s p=60.3hPa t=-63.8C h=9.6% 403.00MHz Type=RS41-SGP Radiosonde Tracker +Info: 403MHz@gmail.com
EA4CP-14U02301022022-12-06 00:34:5140.573-3.314511102219342Clb=3.4m/s p=60.5hPa t=-63.7C h=9.6% 403.00MHz Type=RS41-SGP Details on http://radiosondy.info
LETO2-14U02301022022-12-06 00:34:4940.573-3.314621212419334Clb=4.1m/s p=60.6hPa t=-63.6C h=9.6% 403.00MHz Type=RS41-SGP batt=2.6V Radiosonde Tracker +Info: 403MHz@gmail.com
EA4EKH-11U02301022022-12-06 00:34:4540.5732-3.314961052219312Clb=5.0m/s t=-63.6C h=4.1% p=60.8hPa 403.000 MHz Type=RS41-SGP ser=U0230102 Radiosonde
LETO2-14U02301022022-12-06 00:34:4040.5732-3.31525872019295Clb=3.7m/s p=60.9hPa t=-63.5C h=9.8% 403.00MHz Type=RS41-SGP Radiosonde Tracker +Info: 403MHz@gmail.com
EA4GBR-10U02301022022-12-06 00:34:3940.5732-3.31538982019288Clb=4.3m/s p=61.1hPa t=-63.5C h=4.3% 403.000MHz Type=RS41-SGP rdzTTGOsonde
EA4CP-14U02301022022-12-06 00:34:3840.5732-3.315581102219275Clb=5.0m/s p=61.2hPa t=-63.3C h=9.8% 403.00MHz Type=RS41-SGP Details on http://radiosondy.info
LETO2-14U02301022022-12-06 00:34:3640.5733-3.315721112219266Clb=3.5m/s p=61.2hPa t=-63.2C h=9.8% 403.00MHz Type=RS41-SGP Radiosonde Tracker +Info: 403MHz@gmail.com
LETO2-14U02301022022-12-06 00:34:3140.5733-3.31611022019246Clb=4.4m/s p=61.4hPa t=-63.1C h=9.7% 403.00MHz Type=RS41-SGP batt=2.5V Radiosonde Tracker +Info: 403MHz@gmail.com
LETO2-14U02301022022-12-06 00:34:2240.5735-3.316661172619207Clb=3.7m/s p=61.8hPa t=-62.9C h=9.8% 403.00MHz Type=RS41-SGP Radiosonde Tracker +Info: 403MHz@gmail.com
EA4GBR-10U02301022022-12-06 00:34:1740.5736-3.317021032219187Clb=5.2m/s p=62.0hPa t=-62.9C h=4.4% 403.000MHz Type=RS41-SGP rdzTTGOsonde
LETO2-14U02301022022-12-06 00:34:1640.5736-3.31709991919182Clb=4.1m/s p=62.1hPa t=-62.9C h=9.7% 403.00MHz Type=RS41-SGP Radiosonde Tracker +Info: 403MHz@gmail.com
EA4CP-14U02301022022-12-06 00:34:0340.5738-3.31761251919141Clb=3.1m/s p=62.5hPa t=-62.8C h=9.8% 403.00MHz Type=RS41-SGP Details on http://radiosondy.info
EA4CP-14U02301022022-12-06 00:33:4740.5742-3.31841382219074Clb=4.9m/s p=63.2hPa t=-62.9C h=10.4% 403.00MHz Type=RS41-SGP Details on http://radiosondy.info
EA4EKH-11U02301022022-12-06 00:33:4240.5744-3.318641312219054Clb=3.9m/s t=-63.0C h=4.8% p=63.4hPa 403.000 MHz Type=RS41-SGP ser=U0230102 Radiosonde
EA4CP-14U02301022022-12-06 00:33:3140.5746-3.319371092619007Clb=4.1m/s p=63.8hPa t=-62.7C h=10.6% 403.00MHz Type=RS41-SGP TxPastBurst=8h30m batt=2.5V Details on http://radiosondy.info
LETO2-14U02301022022-12-06 00:33:2540.5747-3.319831162218981Clb=4.1m/s p=64.1hPa t=-62.8C h=10.7% 403.00MHz Type=RS41-SGP Radiosonde Tracker +Info: 403MHz@gmail.com
EA4EKH-12U02301022022-12-06 00:33:2440.5747-3.319831162418981Clb=4.2m/s p=64.2hPa t=-62.9C h=5.2% 403.000MHz Type=RS41-SGP rdzTTGOsonde
LETO2-14U02301022022-12-06 00:33:1940.5749-3.320271072818956Clb=4.3m/s p=64.4hPa t=-62.9C h=10.7% 403.00MHz Type=RS41-SGP Radiosonde Tracker +Info: 403MHz@gmail.com
EA4CP-14U02301022022-12-06 00:33:1640.5749-3.320581092618945Clb=4.5m/s p=64.5hPa t=-63.0C h=10.7% 403.00MHz Type=RS41-SGP Details on http://radiosondy.info
EA4GBR-10U02301022022-12-06 00:33:1340.575-3.320821112418932Clb=4.5m/s p=64.7hPa t=-63.2C h=5.3% 403.000MHz Type=RS41-SGP rdzTTGOsonde
EA4EKH-11U02301022022-12-06 00:33:1240.5751-3.320971052218924Clb=3.4m/s t=-63.2C h=5.2% p=64.8hPa 403.000 MHz Type=RS41-SGP ser=U0230102 Radiosonde
LETO2-14U02301022022-12-06 00:33:0840.5751-3.32118912618912Clb=3.7m/s p=64.8hPa t=-63.3C h=10.9% 403.00MHz Type=RS41-SGP batt=2.5V Radiosonde Tracker +Info: 403MHz@gmail.com
EA4CP-14U02301022022-12-06 00:33:0540.5776-3.35693963017011Clb=4.5m/s p=88.3hPa t=-63.8C h=11.2% 403.00MHz Type=RS41-SGP Details on http://radiosondy.info
EA4GBR-10U02301022022-12-06 00:33:0240.5776-3.357121093017003Clb=3.5m/s p=88.5hPa t=-63.8C h=5.5% 403.000MHz Type=RS41-SGP rdzTTGOsonde
EA4EKH-12U02301022022-12-06 00:32:5640.5777-3.357371122616991Clb=3.6m/s p=88.7hPa t=-63.9C h=5.6% 403.000MHz Type=RS41-SGP rdzTTGOsonde
LETO2-14U02301022022-12-06 00:32:5040.5777-3.357731023116976Clb=4.7m/s p=88.8hPa t=-63.9C h=11.8% 403.00MHz Type=RS41-SGP batt=2.7V Radiosonde Tracker +Info: 403MHz@gmail.com
EA4EKH-11U02301022022-12-06 00:32:4640.5778-3.35793953316968Clb=3.4m/s t=-63.9C h=6.0% p=89.0hPa 403.000 MHz Type=RS41-SGP ser=U0230102 Radiosonde
LETO2-14U02301022022-12-06 00:32:3840.5778-3.35838963016952Clb=4.5m/s p=89.1hPa t=-63.9C h=11.9% 403.00MHz Type=RS41-SGP Radiosonde Tracker +Info: 403MHz@gmail.com
EA4CP-14U02301022022-12-06 00:32:3640.5778-3.35849973516947Clb=3.3m/s p=89.2hPa t=-63.9C h=12.0% 403.00MHz Type=RS41-SGP batt=2.6V Details on http://radiosondy.info
LETO2-14U02301022022-12-06 00:32:2740.5779-3.358931143516929Clb=4.2m/s p=89.5hPa t=-63.8C h=11.8% 403.00MHz Type=RS41-SGP Radiosonde Tracker +Info: 403MHz@gmail.com
EA4GBR-10U02301022022-12-06 00:32:1940.578-3.359361064116911Clb=3.9m/s p=89.8hPa t=-63.7C h=5.9% 403.000MHz Type=RS41-SGP rdzTTGOsonde
EA4EKH-12U02301022022-12-06 00:32:1740.5781-3.359491034116907Clb=4.8m/s p=89.9hPa t=-63.7C h=5.8% 403.000MHz Type=RS41-SGP rdzTTGOsonde
LETO2-14U02301022022-12-06 00:32:1540.5781-3.359751003916899Clb=4.3m/s p=90.0hPa t=-63.6C h=11.7% 403.00MHz Type=RS41-SGP TxPastBurst=8h30m batt=2.5V Radiosonde Tracker +Info: 403MHz@gmail.com
EA4CP-14U02301022022-12-06 00:32:0640.5782-3.360231013516883Clb=4.0m/s p=90.1hPa t=-63.6C h=11.6% 403.00MHz Type=RS41-SGP Details on http://radiosondy.info
LETO2-14U02301022022-12-06 00:31:5140.5783-3.360961093516853Clb=4.5m/s p=90.6hPa t=-63.3C h=11.5% 403.00MHz Type=RS41-SGP Radiosonde Tracker +Info: 403MHz@gmail.com
EA4EKH-11U02301022022-12-06 00:31:4640.5784-3.361351003716841Clb=3.4m/s t=-63.3C h=5.7% p=90.8hPa 403.000 MHz Type=RS41-SGP ser=U0230102 Radiosonde
EA4EKH-12U02301022022-12-06 00:31:3540.5785-3.361891123316822Clb=4.5m/s p=91.1hPa t=-63.2C h=5.7% 403.000MHz Type=RS41-SGP rdzTTGOsonde
EA4CP-14U02301022022-12-06 00:31:3440.5786-3.361991113516818Clb=4.3m/s p=91.1hPa t=-63.1C h=11.3% 403.00MHz Type=RS41-SGP Details on http://radiosondy.info
LETO2-14U02301022022-12-06 00:31:3340.5786-3.36211113516814Clb=2.9m/s p=91.1hPa t=-63.1C h=11.3% 403.00MHz Type=RS41-SGP Radiosonde Tracker +Info: 403MHz@gmail.com
LETO2-14U02301022022-12-06 00:31:2040.5789-3.362841153316785Clb=4.3m/s p=91.6hPa t=-63.0C h=11.4% 403.00MHz Type=RS41-SGP batt=2.5V Radiosonde Tracker +Info: 403MHz@gmail.com
LETO2-14U02301022022-12-06 00:31:1140.579-3.363361093516766Clb=3.7m/s p=91.9hPa t=-62.9C h=11.4% 403.00MHz Type=RS41-SGP Radiosonde Tracker +Info: 403MHz@gmail.com
EA4CP-14U02301022022-12-06 00:31:0540.5791-3.363681213516754Clb=4.0m/s p=92.0hPa t=-62.9C h=11.4% 403.00MHz Type=RS41-SGP TxPastBurst=8h30m batt=2.5V Details on http://radiosondy.info
LETO2-14U02301022022-12-06 00:30:5940.5793-3.363951203516744Clb=4.0m/s p=92.2hPa t=-62.9C h=11.4% 403.00MHz Type=RS41-SGP Radiosonde Tracker +Info: 403MHz@gmail.com
EA4EKH-12U02301022022-12-06 00:30:5740.5793-3.363951213116744Clb=4.1m/s p=92.3hPa t=-63.0C h=5.8% 403.000MHz Type=RS41-SGP rdzTTGOsonde
LETO2-14U02301022022-12-06 00:30:4740.5795-3.364581123516720Clb=3.9m/s p=92.6hPa t=-62.8C h=11.4% 403.00MHz Type=RS41-SGP batt=2.5V Radiosonde Tracker +Info: 403MHz@gmail.com
LETO2-14U02301022022-12-06 00:30:3740.5796-3.365231093716697Clb=3.7m/s p=92.9hPa t=-62.7C h=11.4% 403.00MHz Type=RS41-SGP Radiosonde Tracker +Info: 403MHz@gmail.com
EA4CP-14U02301022022-12-06 00:30:3240.5797-3.365571143916685Clb=4.3m/s p=93.1hPa t=-62.6C h=11.4% 403.00MHz Type=RS41-SGP Details on http://radiosondy.info
LETO2-14U02301022022-12-06 00:30:2640.5798-3.365921143916673Clb=4.6m/s p=93.2hPa t=-62.8C h=11.7% 403.00MHz Type=RS41-SGP Radiosonde Tracker +Info: 403MHz@gmail.com
EA4EKH-12U02301022022-12-06 00:30:1840.58-3.366281103916660Clb=4.5m/s p=93.5hPa t=-62.9C h=6.2% 403.000MHz Type=RS41-SGP rdzTTGOsonde
LETO2-14U02301022022-12-06 00:30:1240.5801-3.366881053716639Clb=4.4m/s p=93.8hPa t=-62.7C h=11.6% 403.00MHz Type=RS41-SGP TxPastBurst=8h30m batt=2.5V Radiosonde Tracker +Info: 403MHz@gmail.com
EA4CP-14U02301022022-12-06 00:30:0040.5802-3.367471034316620Clb=4.1m/s p=94.1hPa t=-62.8C h=11.6% 403.00MHz Type=RS41-SGP Details on http://radiosondy.info
LETO2-14U02301022022-12-06 00:29:5840.5802-3.367591033916616Clb=4.2m/s p=94.1hPa t=-62.8C h=11.6% 403.00MHz Type=RS41-SGP Radiosonde Tracker +Info: 403MHz@gmail.com
LETO2-14U02301022022-12-06 00:29:4940.5803-3.368251064616597Clb=4.5m/s p=94.4hPa t=-62.8C h=11.6% 403.00MHz Type=RS41-SGP Radiosonde Tracker +Info: 403MHz@gmail.com
LETO2-14U02301022022-12-06 00:29:4040.5805-3.36911053916574Clb=4.4m/s p=94.8hPa t=-62.8C h=11.8% 403.00MHz Type=RS41-SGP batt=2.5V Radiosonde Tracker +Info: 403MHz@gmail.com
LETO2-14U02301022022-12-06 00:29:2940.5806-3.369841084116551Clb=3.6m/s p=95.1hPa t=-62.8C h=11.8% 403.00MHz Type=RS41-SGP Radiosonde Tracker +Info: 403MHz@gmail.com
EA4CP-14U02301022022-12-06 00:29:2840.5806-3.369841083916551Clb=3.6m/s p=95.1hPa t=-62.8C h=11.8% calibration 98% 403.00MHz Type=RS41-SGP batt=2.5V Details on http://radiosondy.info
EA4EKH-12U02301022022-12-06 00:29:2340.5807-3.370091084116544Clb=4.5m/s p=95.3hPa t=-62.8C h=6.2% 403.000MHz Type=RS41-SGP rdzTTGOsonde
LETO2-14U02301022022-12-06 00:29:1540.5809-3.370811153916522Clb=3.6m/s p=95.6hPa t=-62.9C h=12.0% 403.00MHz Type=RS41-SGP Radiosonde Tracker +Info: 403MHz@gmail.com
EA4CP-14U02301022022-12-06 00:28:5740.5811-3.371761043516491Clb=3.3m/s p=96.0hPa t=-63.0C h=12.0% calibration 98% 403.00MHz Type=RS41-SGP Details on http://radiosondy.info
EA4EKH-11U02301022022-12-06 00:28:5240.5812-3.37231122816472Clb=3.6m/s t=-63.0C h=6.5% p=96.4hPa 403.000 MHz Type=RS41-SGP ser=U0230102 Radiosonde
LETO2-14U02301022022-12-06 00:28:4640.5812-3.372381143316469Clb=3.7m/s p=96.4hPa t=-62.9C h=12.2% 403.00MHz Type=RS41-SGP Radiosonde Tracker +Info: 403MHz@gmail.com
EA4EKH-12U02301022022-12-06 00:28:4240.5813-3.372581113516461Clb=3.0m/s p=96.6hPa t=-63.0C h=6.6% 403.000MHz Type=RS41-SGP rdzTTGOsonde
LETO2-14U02301022022-12-06 00:28:3640.5814-3.37305983916446Clb=4.6m/s p=96.7hPa t=-63.0C h=12.5% 403.00MHz Type=RS41-SGP Radiosonde Tracker +Info: 403MHz@gmail.com
EA4CP-14U02301022022-12-06 00:28:2940.5814-3.37356993516430Clb=3.1m/s p=97.0hPa t=-63.0C h=12.5% calibration 98% 403.00MHz Type=RS41-SGP Details on http://radiosondy.info
LETO2-14U02301022022-12-06 00:28:2540.5815-3.373781093316422Clb=3.5m/s p=97.1hPa t=-63.0C h=12.2% 403.00MHz Type=RS41-SGP TxPastBurst=8h30m batt=2.7V Radiosonde Tracker +Info: 403MHz@gmail.com
LETO2-14U02301022022-12-06 00:28:1340.5816-3.374391013516400Clb=3.5m/s p=97.5hPa t=-63.2C h=12.1% 403.00MHz Type=RS41-SGP Radiosonde Tracker +Info: 403MHz@gmail.com
EA4EKH-12U02301022022-12-06 00:28:0340.5816-3.37497983916381Clb=3.8m/s p=97.8hPa t=-63.2C h=6.5% 403.000MHz Type=RS41-SGP rdzTTGOsonde
LETO2-14U02301022022-12-06 00:28:0240.5817-3.3751973916377Clb=3.2m/s p=97.8hPa t=-63.2C h=12.4% 403.00MHz Type=RS41-SGP Radiosonde Tracker +Info: 403MHz@gmail.com
EA4CP-14U02301022022-12-06 00:27:5840.5817-3.37536933516370Clb=3.8m/s p=98.0hPa t=-63.2C h=12.7% calibration 98% 403.00MHz Type=RS41-SGP batt=2.7V Details on http://radiosondy.info
EA4EKH-11U02301022022-12-06 00:27:5440.5817-3.37572943516359Clb=4.0m/s t=-63.3C h=6.9% p=98.2hPa 403.000 MHz Type=RS41-SGP ser=U0230102 Radiosonde
LETO2-14U02301022022-12-06 00:27:5040.5817-3.37584953516354Clb=3.8m/s p=98.2hPa t=-63.3C h=12.9% 403.00MHz Type=RS41-SGP batt=2.5V Radiosonde Tracker +Info: 403MHz@gmail.com
LETO2-14U02301022022-12-06 00:27:4040.5817-3.37652883516331Clb=4.1m/s p=98.5hPa t=-63.3C h=12.5% 403.00MHz Type=RS41-SGP Radiosonde Tracker +Info: 403MHz@gmail.com
LETO2-14U02301022022-12-06 00:27:2840.5817-3.37719963016308Clb=3.6m/s p=98.9hPa t=-63.3C h=11.9% 403.00MHz Type=RS41-SGP Radiosonde Tracker +Info: 403MHz@gmail.com
LETO2-14U02301022022-12-06 00:27:1640.5818-3.377761053016285Clb=3.5m/s p=99.3hPa t=-63.4C h=12.4% 403.00MHz Type=RS41-SGP batt=2.5V Radiosonde Tracker +Info: 403MHz@gmail.com
LETO2-14U02301022022-12-06 00:27:0340.5819-3.378291002416262Clb=4.0m/s p=99.7hPa t=-63.7C h=13.0% 403.00MHz Type=RS41-SGP Radiosonde Tracker +Info: 403MHz@gmail.com
EA4GBR-10U02301022022-12-06 00:26:5640.5819-3.37854902616250Clb=3.9m/s p=99.9hPa t=-63.7C h=6.7% 403.000MHz Type=RS41-SGP rdzTTGOsonde
EA4CP-14U02301022022-12-06 00:26:5540.5819-3.37862902016246Clb=3.1m/s p=99.9hPa t=-63.6C h=12.4% calibration 98% 403.00MHz Type=RS41-SGP Details on http://radiosondy.info
EA4EKH-12U02301022022-12-06 00:26:5240.5819-3.3787912216243Clb=4.4m/s p=100.0hPa t=-63.7C h=6.5% 403.000MHz Type=RS41-SGP rdzTTGOsonde
LETO2-14U02301022022-12-06 00:26:5140.5819-3.37877941916238Clb=3.7m/s p=100.0hPa t=-63.6C h=12.5% 403.00MHz Type=RS41-SGP Radiosonde Tracker +Info: 403MHz@gmail.com
LETO2-14U02301022022-12-06 00:26:4240.582-3.379121202216216Clb=4.1m/s p=100.4hPa t=-63.4C h=12.4% 403.00MHz Type=RS41-SGP TxPastBurst=8h30m batt=2.5V Radiosonde Tracker +Info: 403MHz@gmail.com
LETO2-14U02301022022-12-06 00:26:3040.5821-3.379531142216193Clb=3.0m/s p=100.8hPa t=-63.2C h=12.1% 403.00MHz Type=RS41-SGP Radiosonde Tracker +Info: 403MHz@gmail.com
EA4CP-14U02301022022-12-06 00:26:2840.5822-3.37961152616189Clb=4.3m/s p=100.9hPa t=-63.2C h=12.0% calibration 98% 403.00MHz Type=RS41-SGP batt=2.5V Details on http://radiosondy.info
EA4EKH-12U02301022022-12-06 00:26:1140.5824-3.380091242216156Clb=4.8m/s p=101.4hPa t=-63.3C h=6.2% 403.000MHz Type=RS41-SGP rdzTTGOsonde
EA4CP-14U02301022022-12-06 00:25:5840.5826-3.380621123016128Clb=3.9m/s p=101.8hPa t=-63.2C h=12.3% calibration 98% 403.00MHz Type=RS41-SGP Details on http://radiosondy.info
EA4EKH-11U02301022022-12-06 00:25:5440.5826-3.380771212616122Clb=4.1m/s t=-63.2C h=6.8% p=102.0hPa 403.000 MHz Type=RS41-SGP ser=U0230102 Radiosonde
LETO2-14U02301022022-12-06 00:25:3240.5832-3.381681293316076Clb=3.3m/s p=102.7hPa t=-63.5C h=13.1% 403.00MHz Type=RS41-SGP batt=2.5V Radiosonde Tracker +Info: 403MHz@gmail.com
EA4EKH-12U02301022022-12-06 00:25:3140.5832-3.381681303016076Clb=3.3m/s p=102.8hPa t=-63.5C h=7.2% 403.000MHz Type=RS41-SGP rdzTTGOsonde
EA4CP-14U02301022022-12-06 00:25:2940.5833-3.381831323516067Clb=4.4m/s p=102.9hPa t=-63.5C h=13.0% calibration 98% 403.00MHz Type=RS41-SGP Details on http://radiosondy.info
LETO2-14U02301022022-12-06 00:25:2040.5835-3.382161363516050Clb=3.0m/s p=103.1hPa t=-63.6C h=13.1% 403.00MHz Type=RS41-SGP Radiosonde Tracker +Info: 403MHz@gmail.com
LETO2-14U02301022022-12-06 00:25:1040.5838-3.382631233516031Clb=4.4m/s p=103.5hPa t=-63.7C h=13.0% 403.00MHz Type=RS41-SGP Radiosonde Tracker +Info: 403MHz@gmail.com
LETO2-14U02301022022-12-06 00:24:5940.5841-3.383221284116006Clb=3.5m/s p=103.9hPa t=-63.6C h=12.8% 403.00MHz Type=RS41-SGP batt=2.5V Radiosonde Tracker +Info: 403MHz@gmail.com
EA4CP-14U02301022022-12-06 00:24:5840.5841-3.383321304116002Clb=3.8m/s p=103.9hPa t=-63.6C h=12.4% calibration 98% 403.00MHz Type=RS41-SGP batt=2.5V Details on http://radiosondy.info
EA4EKH-11U02301022022-12-06 00:24:5540.5842-3.383421294315998Clb=4.4m/s t=-63.6C h=6.5% p=104.1hPa 403.000 MHz Type=RS41-SGP ser=U0230102 Radiosonde
LETO2-14U02301022022-12-06 00:24:4740.5845-3.383881254315982Clb=3.6m/s p=104.3hPa t=-63.5C h=12.0% 403.00MHz Type=RS41-SGP Radiosonde Tracker +Info: 403MHz@gmail.com
LETO2-14U02301022022-12-06 00:24:3840.5847-3.384471123715961Clb=4.2m/s p=104.7hPa t=-63.5C h=12.2% 403.00MHz Type=RS41-SGP Radiosonde Tracker +Info: 403MHz@gmail.com
EA4EKH-12U02301022022-12-06 00:24:2740.5849-3.385021293915941Clb=4.8m/s p=105.0hPa t=-63.6C h=6.4% 403.000MHz Type=RS41-SGP rdzTTGOsonde
LETO2-14U02301022022-12-06 00:24:2640.585-3.385121293915936Clb=3.5m/s p=105.1hPa t=-63.5C h=12.2% 403.00MHz Type=RS41-SGP TxPastBurst=8h30m batt=2.7V Radiosonde Tracker +Info: 403MHz@gmail.com
LETO2-14U02301022022-12-06 00:24:1340.5853-3.385771123315913Clb=4.1m/s p=105.5hPa t=-63.5C h=12.2% 403.00MHz Type=RS41-SGP Radiosonde Tracker +Info: 403MHz@gmail.com
LETO2-14U02301022022-12-06 00:24:0340.5855-3.386371223715888Clb=4.1m/s p=105.9hPa t=-63.5C h=12.2% 403.00MHz Type=RS41-SGP Radiosonde Tracker +Info: 403MHz@gmail.com
EA4CP-14U02301022022-12-06 00:23:5840.5856-3.386691203715876Clb=2.8m/s p=106.1hPa t=-63.4C h=12.2% calibration 98% 403.00MHz Type=RS41-SGP Details on http://radiosondy.info
EA4EKH-11U02301022022-12-06 00:23:5640.5857-3.386921173715868Clb=3.7m/s t=-63.5C h=6.4% p=106.3hPa 403.000 MHz Type=RS41-SGP ser=U0230102 Radiosonde
LETO2-14U02301022022-12-06 00:23:5440.5857-3.386921183715868Clb=3.7m/s p=106.2hPa t=-63.5C h=12.2% 403.00MHz Type=RS41-SGP batt=2.7V Radiosonde Tracker +Info: 403MHz@gmail.com
EA4EKH-12U02301022022-12-06 00:23:4740.5858-3.387251173915856Clb=4.2m/s p=106.5hPa t=-63.5C h=6.4% 403.000MHz Type=RS41-SGP rdzTTGOsonde
LETO2-14U02301022022-12-06 00:23:4340.586-3.387571123715844Clb=3.8m/s p=106.6hPa t=-63.5C h=12.2% 403.00MHz Type=RS41-SGP Radiosonde Tracker +Info: 403MHz@gmail.com
LETO2-14U02301022022-12-06 00:23:3240.5862-3.388231183715821Clb=4.5m/s p=107.1hPa t=-63.4C h=12.2% 403.00MHz Type=RS41-SGP Radiosonde Tracker +Info: 403MHz@gmail.com
EA4CP-14U02301022022-12-06 00:23:2840.5863-3.388441203715812Clb=4.0m/s p=107.2hPa t=-63.4C h=12.3% calibration 96% Type=RS41-SGP batt=2.5V Details on http://radiosondy.info
LETO2-14U02301022022-12-06 00:23:2040.5864-3.388881133715796Clb=4.0m/s p=107.5hPa t=-63.3C h=12.5% 403.00MHz Type=RS41-SGP batt=2.7V Radiosonde Tracker +Info: 403MHz@gmail.com
LETO2-14U02301022022-12-06 00:23:0940.5866-3.389591063915772Clb=3.7m/s p=107.9hPa t=-63.2C h=12.4% 403.00MHz Type=RS41-SGP Radiosonde Tracker +Info: 403MHz@gmail.com
EA4EKH-12U02301022022-12-06 00:23:0540.5866-3.389711073715768Clb=3.8m/s p=108.0hPa t=-63.2C h=6.7% 403.000MHz Type=RS41-SGP rdzTTGOsonde
EA4GBR-10U02301022022-12-06 00:23:0340.5867-3.389831083915764Clb=4.5m/s p=108.1hPa t=-63.2C h=6.7% 403.000MHz Type=RS41-SGP rdzTTGOsonde
LETO2-14U02301022022-12-06 00:22:5740.5868-3.390291113515747Clb=3.5m/s p=108.3hPa t=-63.1C h=12.5% 403.00MHz Type=RS41-SGP Radiosonde Tracker +Info: 403MHz@gmail.com
LETO2-14U02301022022-12-06 00:22:4640.587-3.390971063715723Clb=4.7m/s p=108.7hPa t=-63.0C h=12.4% 403.00MHz Type=RS41-SGP TxPastBurst=8h30m batt=2.6V Radiosonde Tracker +Info: 403MHz@gmail.com
EA4GSU-11U02301022022-12-06 00:22:2940.5872-3.392051053515687Clb=4.8m/s t=-62.9C h=6.3% p=109.5hPa 403.000 MHz Type=RS41-SGP Radiosonde auto_rx v1.5.3
EA4EKH-12U02301022022-12-06 00:22:2540.5872-3.392051063515687Clb=4.8m/s p=109.5hPa t=-62.9C h=6.4% 403.000MHz Type=RS41-SGP rdzTTGOsonde
EA4GBR-10U02301022022-12-06 00:22:2240.5873-3.392271023515680Clb=3.7m/s p=109.6hPa t=-62.9C h=6.5% 403.000MHz Type=RS41-SGP rdzTTGOsonde
LETO2-14U02301022022-12-06 00:22:2140.5873-3.392391003915676Clb=4.5m/s p=109.6hPa t=-62.9C h=12.0% 403.00MHz Type=RS41-SGP Radiosonde Tracker +Info: 403MHz@gmail.com
LETO2-14U02301022022-12-06 00:22:1340.5874-3.393051014115655Clb=2.9m/s p=110.0hPa t=-62.9C h=12.0% 403.00MHz Type=RS41-SGP Radiosonde Tracker +Info: 403MHz@gmail.com
LETO2-14U02301022022-12-06 00:22:0140.5874-3.39382913915631Clb=4.9m/s p=110.4hPa t=-62.8C h=12.0% 403.00MHz Type=RS41-SGP batt=2.6V Radiosonde Tracker +Info: 403MHz@gmail.com
EA4EKH-11U02301022022-12-06 00:21:5840.5874-3.39409874115623Clb=3.6m/s t=-62.9C h=6.4% p=110.6hPa 403.000 MHz Type=RS41-SGP ser=U0230102 Radiosonde
EA4CP-14U02301022022-12-06 00:21:5340.5874-3.39448904115611Clb=3.6m/s t=-62.8C calibration 72% Type=RS41-SGP batt=2.5V Details on http://radiosondy.info
LETO2-14U02301022022-12-06 00:21:5040.5874-3.39461934115607Clb=5.0m/s p=110.8hPa t=-62.8C h=12.1% 403.00MHz Type=RS41-SGP Radiosonde Tracker +Info: 403MHz@gmail.com
EA4EKH-12U02301022022-12-06 00:21:4840.5874-3.39475964315602Clb=3.8m/s p=111.0hPa t=-62.8C h=6.5% 403.000MHz Type=RS41-SGP rdzTTGOsonde
EA4GBR-10U02301022022-12-06 00:21:4140.5875-3.39529994115587Clb=3.8m/s p=111.3hPa t=-62.8C h=6.5% 403.000MHz Type=RS41-SGP rdzTTGOsonde
LETO2-14U02301022022-12-06 00:21:3740.5875-3.39569944115574Clb=4.7m/s p=111.4hPa t=-62.8C h=12.2% 403.00MHz Type=RS41-SGP Radiosonde Tracker +Info: 403MHz@gmail.com
EA4GSU-11U02301022022-12-06 00:21:3440.5875-3.39594873715565Clb=3.8m/s t=-62.8C h=6.5% p=111.6hPa 403.000 MHz Type=RS41-SGP Radiosonde auto_rx v1.5.3
EA4CP-14U02301022022-12-06 00:21:2540.5875-3.39647913915548Clb=4.2m/s t=-62.7C calibration 68% Type=RS41-SGP Details on http://radiosondy.info
LETO2-14U02301022022-12-06 00:21:2240.5875-3.39673953915541Clb=4.2m/s p=112.0hPa t=-62.7C h=12.1% 403.00MHz Type=RS41-SGP batt=2.6V Radiosonde Tracker +Info: 403MHz@gmail.com
LETO2-14U02301022022-12-06 00:21:1140.5876-3.39749993915516Clb=4.2m/s p=112.4hPa t=-62.6C h=11.8% 403.00MHz Type=RS41-SGP Radiosonde Tracker +Info: 403MHz@gmail.com
EA4EKH-12U02301022022-12-06 00:21:0740.5876-3.39762953915512Clb=3.3m/s p=112.6hPa t=-62.6C h=6.3% 403.000MHz Type=RS41-SGP rdzTTGOsonde
EA4EKH-11U02301022022-12-06 00:21:0240.5876-3.39813833915495Clb=3.8m/s t=-62.5C h=6.0% p=112.9hPa 403.000 MHz Type=RS41-SGP ser=U0230102 Radiosonde
EA4GBR-10U02301022022-12-06 00:20:5940.5876-3.39825863915492Clb=3.3m/s p=112.9hPa t=-62.5C h=6.1% 403.000MHz Type=RS41-SGP rdzTTGOsonde
LETO2-14U02301022022-12-06 00:20:5640.5876-3.39849893515484Clb=3.9m/s p=113.0hPa t=-62.4C h=11.7% 403.00MHz Type=RS41-SGP Radiosonde Tracker +Info: 403MHz@gmail.com
LETO2-14U02301022022-12-06 00:20:4540.5876-3.399161053515459Clb=3.6m/s p=113.5hPa t=-62.4C h=11.6% 403.00MHz Type=RS41-SGP TxPastBurst=8h30m batt=2.7V Radiosonde Tracker +Info: 403MHz@gmail.com
LETO2-14U02301022022-12-06 00:20:3340.5877-3.39983863115435Clb=4.4m/s p=113.9hPa t=-62.4C h=11.6% 403.00MHz Type=RS41-SGP Radiosonde Tracker +Info: 403MHz@gmail.com
EA4CP-14U02301022022-12-06 00:20:2940.5877-3.40004903115427Clb=3.1m/s calibration 52% Type=RS41 batt=2.6V Details on http://radiosondy.info
EA4EKH-12U02301022022-12-06 00:20:2740.5877-3.40004903315427Clb=3.2m/s p=114.1hPa t=-62.4C h=6.2% 403.000MHz Type=RS41-SGP rdzTTGOsonde
LETO2-14U02301022022-12-06 00:20:2140.5877-3.40044973115412Clb=3.9m/s p=114.4hPa t=-62.2C h=11.6% 403.00MHz Type=RS41-SGP Radiosonde Tracker +Info: 403MHz@gmail.com
EA4GBR-10U02301022022-12-06 00:20:1640.5877-3.40064953315404Clb=3.5m/s p=114.6hPa t=-62.2C h=6.2% 403.000MHz Type=RS41-SGP rdzTTGOsonde
LETO2-14U02301022022-12-06 00:20:1040.5877-3.40106913015386Clb=4.2m/s p=114.8hPa t=-62.0C h=11.5% 403.00MHz Type=RS41-SGP batt=2.6V Radiosonde Tracker +Info: 403MHz@gmail.com
EA4EKH-11U02301022022-12-06 00:20:0240.5877-3.40146912615370Clb=3.9m/s t=-62.0C h=6.0% p=115.2hPa 403.000 MHz Type=RS41-SGP ser=U0230102 Radiosonde
EA4CP-14U02301022022-12-06 00:19:5740.5877-3.40164952815363Clb=3.0m/s calibration 43% Type=RS41 Details on http://radiosondy.info
LETO2-14U02301022022-12-06 00:19:5440.5877-3.40173982815359Clb=4.2m/s p=115.3hPa t=-61.9C h=11.5% 403.00MHz Type=RS41-SGP Radiosonde Tracker +Info: 403MHz@gmail.com
EA4EKH-12U02301022022-12-06 00:19:4640.5878-3.40209973115343Clb=4.3m/s p=115.7hPa t=-61.8C h=6.0% 403.000MHz Type=RS41-SGP rdzTTGOsonde
EA4GBR-10U02301022022-12-06 00:19:3440.5878-3.40275912615316Clb=3.6m/s p=116.2hPa t=-61.6C h=6.2% 403.000MHz Type=RS41-SGP rdzTTGOsonde
LETO2-14U02301022022-12-06 00:19:3140.5878-3.402911012415308Clb=3.9m/s p=116.3hPa t=-61.4C h=11.4% 403.00MHz Type=RS41-SGP batt=2.7V Radiosonde Tracker +Info: 403MHz@gmail.com
EA4CP-14U02301022022-12-06 00:19:2840.5878-3.403071042615300Clb=4.6m/s calibration 41% Type=RS41 Details on http://radiosondy.info
LETO2-14U02301022022-12-06 00:19:2240.5879-3.403341062415288Clb=4.4m/s p=116.6hPa t=-61.2C h=11.4% 403.00MHz Type=RS41-SGP Radiosonde Tracker +Info: 403MHz@gmail.com
LETO2-14U02301022022-12-06 00:19:1240.588-3.40379962415264Clb=3.7m/s p=117.1hPa t=-61.0C h=11.2% 403.00MHz Type=RS41-SGP Radiosonde Tracker +Info: 403MHz@gmail.com
EA4EKH-12U02301022022-12-06 00:19:0640.588-3.40402982615252Clb=3.7m/s p=117.4hPa t=-60.9C h=6.0% 403.000MHz Type=RS41-SGP rdzTTGOsonde
EA4EKH-11U02301022022-12-06 00:19:0540.588-3.40419972415244Clb=3.9m/s t=-60.9C h=6.0% p=117.5hPa 403.000 MHz Type=RS41-SGP ser=U0230102 Radiosonde
LETO2-14U02301022022-12-06 00:19:0040.588-3.40427982615241Clb=3.1m/s p=117.6hPa t=-60.8C h=11.2% 403.00MHz Type=RS41-SGP TxPastBurst=8h30m batt=2.7V Radiosonde Tracker +Info: 403MHz@gmail.com
EA4GBR-10U02301022022-12-06 00:18:5140.588-3.40468902215220Clb=3.5m/s p=118.0hPa t=-60.7C h=6.0% 403.000MHz Type=RS41-SGP rdzTTGOsonde
LETO2-14U02301022022-12-06 00:18:3940.5881-3.405181032615192Clb=4.4m/s p=118.5hPa t=-60.5C h=11.0% 403.00MHz Type=RS41-SGP Radiosonde Tracker +Info: 403MHz@gmail.com
EA4CP-14U02301022022-12-06 00:18:3340.5881-3.40551982415176Clb=3.2m/s calibration 31% Type=RS41 Details on http://radiosondy.info
EA4EKH-12U02301022022-12-06 00:18:2940.5881-3.40559992615173Clb=3.8m/s p=118.9hPa t=-60.5C h=6.0% 403.000MHz Type=RS41-SGP rdzTTGOsonde
LETO2-14U02301022022-12-06 00:18:1840.5882-3.40612992215145Clb=3.6m/s p=119.4hPa t=-60.3C h=11.2% 403.00MHz Type=RS41-SGP Radiosonde Tracker +Info: 403MHz@gmail.com
EA4GBR-10U02301022022-12-06 00:18:1140.5882-3.406411002415129Clb=4.4m/s p=119.7hPa t=-60.3C h=6.1% 403.000MHz Type=RS41-SGP rdzTTGOsonde
LETO2-14U02301022022-12-06 00:18:0640.5882-3.406581032415123Clb=3.1m/s p=119.8hPa t=-60.2C h=11.0% 403.00MHz Type=RS41-SGP Radiosonde Tracker +Info: 403MHz@gmail.com
EA4CP-14U02301022022-12-06 00:18:0440.5883-3.406741092215114Clb=4.1m/s calibration 19% Type=RS41 Details on http://radiosondy.info
LETO2-14U02301022022-12-06 00:17:5540.5883-3.407031062015099Clb=4.1m/s p=120.3hPa t=-60.2C h=10.9% 403.00MHz Type=RS41-SGP batt=2.7V Radiosonde Tracker +Info: 403MHz@gmail.com
LETO2-14U02301022022-12-06 00:17:4440.5884-3.40743992215074Clb=3.9m/s p=120.8hPa t=-60.1C h=10.9% 403.00MHz Type=RS41-SGP Radiosonde Tracker +Info: 403MHz@gmail.com
EA4EKH-12U02301022022-12-06 00:17:3740.5884-3.407641102615061Clb=3.3m/s p=121.0hPa t=-60.1C h=5.9% 403.000MHz Type=RS41-SGP rdzTTGOsonde
LETO2-14U02301022022-12-06 00:17:3340.5885-3.407871182615050Clb=4.3m/s p=121.2hPa t=-59.9C h=10.8% 403.00MHz Type=RS41-SGP Radiosonde Tracker +Info: 403MHz@gmail.com
EA4GBR-10U02301022022-12-06 00:17:2540.5886-3.408081222215038Clb=4.9m/s p=121.5hPa t=-59.8C h=6.0% 403.000MHz Type=RS41-SGP rdzTTGOsonde
LETO2-14U02301022022-12-06 00:17:2240.5887-3.40821191915030Clb=4.7m/s p=121.6hPa t=-59.7C h=10.9% 403.00MHz Type=RS41-SGP TxPastBurst=8h30m batt=2.6V Radiosonde Tracker +Info: 403MHz@gmail.com
LETO2-14U02301022022-12-06 00:17:1040.5888-3.408551112215005Clb=4.1m/s p=122.1hPa t=-59.5C h=10.7% 403.00MHz Type=RS41-SGP Radiosonde Tracker +Info: 403MHz@gmail.com
EA4EKH-11U02301022022-12-06 00:17:0740.5888-3.408681152014997Clb=4.9m/s t=-59.5C h=5.9% p=122.3hPa 403.000 MHz Type=RS41-SGP ser=U0230102 Radiosonde
LETO2-14U02301022022-12-06 00:16:5940.5889-3.408941212214980Clb=3.7m/s p=122.6hPa t=-59.6C h=10.8% 403.00MHz Type=RS41-SGP Radiosonde Tracker +Info: 403MHz@gmail.com
EA4EKH-12U02301022022-12-06 00:16:5640.589-3.409011232414977Clb=4.0m/s p=122.7hPa t=-59.6C h=6.1% 403.000MHz Type=RS41-SGP rdzTTGOsonde
LETO2-14U02301022022-12-06 00:16:4840.5891-3.409311232214957Clb=3.5m/s p=123.0hPa t=-59.4C h=11.0% 403.00MHz Type=RS41-SGP batt=2.7V Radiosonde Tracker +Info: 403MHz@gmail.com
EA4GBR-10U02301022022-12-06 00:16:4140.5892-3.409481342014945Clb=3.3m/s p=123.3hPa t=-59.4C h=6.2% 403.000MHz Type=RS41-SGP rdzTTGOsonde
LETO2-14U02301022022-12-06 00:16:3740.5893-3.409651222214933Clb=3.9m/s p=123.5hPa t=-59.3C h=11.1% 403.00MHz Type=RS41-SGP Radiosonde Tracker +Info: 403MHz@gmail.com
LETO2-14U02301022022-12-06 00:16:2540.5895-3.410021272214910Clb=4.8m/s p=123.9hPa t=-59.2C h=11.0% 403.00MHz Type=RS41-SGP Radiosonde Tracker +Info: 403MHz@gmail.com
LETO2-14U02301022022-12-06 00:16:1740.5897-3.410311272214890Clb=4.9m/s p=124.4hPa t=-59.1C h=11.2% 403.00MHz Type=RS41-SGP batt=2.7V Radiosonde Tracker +Info: 403MHz@gmail.com
EA4EKH-12U02301022022-12-06 00:16:1040.5898-3.410491152414877Clb=3.9m/s p=124.6hPa t=-59.1C h=6.4% 403.000MHz Type=RS41-SGP rdzTTGOsonde
LETO2-14U02301022022-12-06 00:16:0540.5898-3.410691122214865Clb=3.7m/s p=124.8hPa t=-59.0C h=11.4% 403.00MHz Type=RS41-SGP Radiosonde Tracker +Info: 403MHz@gmail.com
EA4GBR-10U02301022022-12-06 00:16:0040.5899-3.41091102414853Clb=3.7m/s p=125.1hPa t=-59.0C h=6.6% 403.000MHz Type=RS41-SGP rdzTTGOsonde
LETO2-14U02301022022-12-06 00:15:5840.5899-3.411121162414842Clb=4.1m/s p=125.3hPa t=-58.9C h=11.8% 403.00MHz Type=RS41-SGP Radiosonde Tracker +Info: 403MHz@gmail.com
LETO2-14U02301022022-12-06 00:15:5240.5901-3.411581162214821Clb=4.2m/s p=125.8hPa t=-59.0C h=12.1% 403.00MHz Type=RS41-SGP TxPastBurst=8h30m batt=2.6V Radiosonde Tracker +Info: 403MHz@gmail.com
EA4EKH-12U02301022022-12-06 00:15:4640.5902-3.411911242014800Clb=5.2m/s p=126.2hPa t=-59.1C h=7.2% 403.000MHz Type=RS41-SGP rdzTTGOsonde
EA4GBR-10U02301022022-12-06 00:15:3840.5905-3.412411092614761Clb=3.7m/s p=126.9hPa t=-59.0C h=7.0% 403.000MHz Type=RS41-SGP rdzTTGOsonde
LETO2-14U02301022022-12-06 00:15:3240.5908-3.413141363314722Clb=4.8m/s p=127.6hPa t=-59.3C h=11.8% 403.00MHz Type=RS41-SGP batt=2.6V Radiosonde Tracker +Info: 403MHz@gmail.com
EA4EKH-12U02301022022-12-06 00:15:2540.5912-3.413631303714697Clb=4.1m/s p=128.2hPa t=-59.4C h=6.9% 403.000MHz Type=RS41-SGP rdzTTGOsonde
LETO2-14U02301022022-12-06 00:15:2440.5913-3.413821273514689Clb=4.7m/s p=128.3hPa t=-59.4C h=11.6% 403.00MHz Type=RS41-SGP Radiosonde Tracker +Info: 403MHz@gmail.com
EA4GBR-10U02301022022-12-06 00:15:2040.5915-3.41421253714672Clb=3.4m/s p=128.7hPa t=-59.5C h=6.8% 403.000MHz Type=RS41-SGP rdzTTGOsonde
LETO2-14U02301022022-12-06 00:15:1640.5917-3.414581213514656Clb=4.7m/s p=129.0hPa t=-59.5C h=11.3% 403.00MHz Type=RS41-SGP Radiosonde Tracker +Info: 403MHz@gmail.com
LETO2-14U02301022022-12-06 00:15:0640.592-3.415251303114627Clb=2.6m/s p=129.6hPa t=-59.9C h=11.6% 403.00MHz Type=RS41-SGP batt=2.7V Radiosonde Tracker +Info: 403MHz@gmail.com
LETO2-14U02301022022-12-06 00:14:5940.5923-3.415721253114604Clb=4.3m/s p=130.0hPa t=-59.9C h=11.6% 403.00MHz Type=RS41-SGP Radiosonde Tracker +Info: 403MHz@gmail.com
EA4EKH-12U02301022022-12-06 00:14:5740.5923-3.41581213014600Clb=4.4m/s p=130.2hPa t=-60.1C h=6.6% 403.000MHz Type=RS41-SGP rdzTTGOsonde
LETO2-14U02301022022-12-06 00:14:5340.5925-3.416251183014582Clb=4.1m/s p=130.5hPa t=-60.0C h=11.7% 403.00MHz Type=RS41-SGP Radiosonde Tracker +Info: 403MHz@gmail.com
EA4GBR-10U02301022022-12-06 00:14:5240.5925-3.416251183114582Clb=4.2m/s p=130.6hPa t=-60.0C h=6.7% 403.000MHz Type=RS41-SGP rdzTTGOsonde
LETO2-14U02301022022-12-06 00:14:4740.5928-3.416741302414558Clb=3.8m/s p=131.0hPa t=-59.7C h=11.9% 403.00MHz Type=RS41-SGP TxPastBurst=8h30m batt=2.6V Radiosonde Tracker +Info: 403MHz@gmail.com
LETO2-14U02301022022-12-06 00:14:4440.593-3.417121222214534Clb=4.3m/s p=131.5hPa t=-59.6C h=11.9% 403.00MHz Type=RS41-SGP Radiosonde Tracker +Info: 403MHz@gmail.com
LETO2-14U02301022022-12-06 00:14:4340.5932-3.417491342814511Clb=3.8m/s p=132.0hPa t=-59.4C h=12.0% 403.00MHz Type=RS41-SGP Radiosonde Tracker +Info: 403MHz@gmail.com
EA4GBR-10U02301022022-12-06 00:14:4240.5934-3.417761331914491Clb=3.5m/s p=132.5hPa t=-59.3C h=6.6% 403.000MHz Type=RS41-SGP rdzTTGOsonde
LETO2-14U02301022022-12-06 00:14:4040.5936-3.418011253014472Clb=3.7m/s p=132.9hPa t=-59.3C h=11.4% 403.00MHz Type=RS41-SGP batt=2.7V Radiosonde Tracker +Info: 403MHz@gmail.com
LETO2-14U02301022022-12-06 00:14:3740.5941-3.418831283514430Clb=4.7m/s p=133.7hPa t=-59.4C h=11.1% 403.00MHz Type=RS41-SGP Radiosonde Tracker +Info: 403MHz@gmail.com
EA4EKH-12U02301022022-12-06 00:14:3640.5943-3.419181353514414Clb=4.4m/s p=134.2hPa t=-59.5C h=6.3% 403.000MHz Type=RS41-SGP rdzTTGOsonde
LETO2-14U02301022022-12-06 00:14:3540.5944-3.419341353514406Clb=3.7m/s p=134.3hPa t=-59.4C h=11.1% 403.00MHz Type=RS41-SGP Radiosonde Tracker +Info: 403MHz@gmail.com
EA4GBR-10U02301022022-12-06 00:14:3140.5946-3.41951323314398Clb=3.5m/s p=134.5hPa t=-59.5C h=6.4% 403.000MHz Type=RS41-SGP rdzTTGOsonde
LETO2-14U02301022022-12-06 00:14:2740.5948-3.419851344114382Clb=4.2m/s p=134.7hPa t=-59.5C h=11.3% 403.00MHz Type=RS41-SGP batt=2.7V Radiosonde Tracker +Info: 403MHz@gmail.com
EA4EKH-11U02301022022-12-06 00:14:2640.5949-3.419951344314378Clb=3.0m/s t=-59.6C h=6.5% p=134.9hPa 403.000 MHz Type=RS41-SGP ser=U0230102 Radiosonde
LETO2-14U02301022022-12-06 00:14:2040.5952-3.420391373514359Clb=3.1m/s p=135.2hPa t=-60.0C h=11.5% 403.00MHz Type=RS41-SGP Radiosonde Tracker +Info: 403MHz@gmail.com
EA4EKH-12U02301022022-12-06 00:14:1240.5957-3.420911414114334Clb=4.5m/s p=135.8hPa t=-60.0C h=6.5% 403.000MHz Type=RS41-SGP rdzTTGOsonde
EA4GBR-10U02301022022-12-06 00:14:0740.5962-3.421511404414310Clb=3.1m/s p=136.4hPa t=-60.1C h=6.4% 403.000MHz Type=RS41-SGP rdzTTGOsonde
LETO2-14U02301022022-12-06 00:14:0640.5963-3.42161393714306Clb=4.6m/s p=136.4hPa t=-60.1C h=11.3% 403.00MHz Type=RS41-SGP TxPastBurst=8h30m batt=2.7V Radiosonde Tracker +Info: 403MHz@gmail.com
LETO2-14U02301022022-12-06 00:14:0140.5967-3.422061373714284Clb=4.1m/s p=136.9hPa t=-60.1C h=11.6% 403.00MHz Type=RS41-SGP Radiosonde Tracker +Info: 403MHz@gmail.com
EA4EKH-11U02301022022-12-06 00:13:5940.5971-3.422631284114262Clb=3.1m/s t=-60.1C h=6.6% p=137.4hPa 403.000 MHz Type=RS41-SGP ser=U0230102 Radiosonde
EA4EKH-12U02301022022-12-06 00:13:5840.5972-3.422831333914255Clb=3.2m/s p=137.6hPa t=-60.1C h=6.7% 403.000MHz Type=RS41-SGP rdzTTGOsonde
LETO2-14U02301022022-12-06 00:13:5740.5975-3.423181353514238Clb=4.1m/s p=137.9hPa t=-60.0C h=11.7% 403.00MHz Type=RS41-SGP batt=2.7V Radiosonde Tracker +Info: 403MHz@gmail.com
EA4GBR-10U02301022022-12-06 00:13:5640.5977-3.423511333714224Clb=3.5m/s p=138.2hPa t=-60.0C h=6.9% 403.000MHz Type=RS41-SGP rdzTTGOsonde
LETO2-14U02301022022-12-06 00:13:5340.5983-3.424421283514186Clb=3.3m/s p=139.0hPa t=-59.8C h=11.7% 403.00MHz Type=RS41-SGP Radiosonde Tracker +Info: 403MHz@gmail.com
EA4EKH-12U02301022022-12-06 00:13:5240.5985-3.424691343514177Clb=2.8m/s p=139.3hPa t=-59.8C h=6.9% 403.000MHz Type=RS41-SGP rdzTTGOsonde
LETO2-14U02301022022-12-06 00:13:5040.5988-3.425341253314150Clb=3.9m/s p=139.8hPa t=-59.8C h=11.3% 403.00MHz Type=RS41-SGP batt=2.7V Radiosonde Tracker +Info: 403MHz@gmail.com
LETO2-14U02301022022-12-06 00:13:4940.5991-3.425741303114131Clb=4.6m/s p=140.2hPa t=-59.7C h=11.3% 403.00MHz Type=RS41-SGP Radiosonde Tracker +Info: 403MHz@gmail.com
EA4EKH-12U02301022022-12-06 00:13:4540.5995-3.426491273314100Clb=3.7m/s p=141.0hPa t=-59.8C h=6.7% 403.000MHz Type=RS41-SGP rdzTTGOsonde
LETO2-14U02301022022-12-06 00:13:4440.6001-3.427291353314060Clb=3.8m/s p=141.9hPa t=-59.6C h=12.3% 403.00MHz Type=RS41-SGP TxPastBurst=8h30m batt=2.7V Radiosonde Tracker +Info: 403MHz@gmail.com
LETO2-14U02301022022-12-06 00:13:4340.6004-3.427761343114039Clb=3.3m/s p=142.3hPa t=-59.6C h=12.3% 403.00MHz Type=RS41-SGP Radiosonde Tracker +Info: 403MHz@gmail.com
EA4EKH-12U02301022022-12-06 00:13:4240.6006-3.4281293314028Clb=3.0m/s p=142.6hPa t=-59.6C h=7.2% 403.000MHz Type=RS41-SGP rdzTTGOsonde
LETO2-14U02301022022-12-06 00:13:4040.6013-3.428651413713992Clb=2.9m/s p=143.4hPa t=-59.3C h=12.6% 403.00MHz Type=RS41-SGP batt=2.7V Radiosonde Tracker +Info: 403MHz@gmail.com
EA4EKH-12U02301022022-12-06 00:13:3940.602-3.429471463913953Clb=3.2m/s p=144.3hPa t=-59.1C h=7.0% 403.000MHz Type=RS41-SGP rdzTTGOsonde
LETO2-14U02301022022-12-06 00:13:3840.6033-3.430531484613899Clb=4.3m/s p=145.5hPa t=-58.9C h=11.5% 403.00MHz Type=RS41-SGP Radiosonde Tracker +Info: 403MHz@gmail.com
EA4GBR-10U02301022022-12-06 00:13:3740.6034-3.430621464413896Clb=3.5m/s p=145.7hPa t=-58.9C h=6.9% 403.000MHz Type=RS41-SGP rdzTTGOsonde
LETO2-14U02301022022-12-06 00:13:3640.6052-3.432451425213823Clb=4.1m/s p=147.3hPa t=-58.9C h=12.0% 403.00MHz Type=RS41-SGP Radiosonde Tracker +Info: 403MHz@gmail.com
LETO2-14U02301022022-12-06 00:13:3540.606-3.433331395613793Clb=4.5m/s p=148.0hPa t=-58.7C h=12.1% 403.00MHz Type=RS41-SGP Radiosonde Tracker +Info: 403MHz@gmail.com
EA4GBR-10U02301022022-12-06 00:13:3440.6073-3.43491335713747Clb=3.5m/s p=149.1hPa t=-58.5C h=6.9% 403.000MHz Type=RS41-SGP rdzTTGOsonde
LETO2-14U02301022022-12-06 00:13:3340.6075-3.435181345613740Clb=3.6m/s p=149.2hPa t=-58.4C h=11.5% 403.00MHz Type=RS41-SGP batt=2.6V Radiosonde Tracker +Info: 403MHz@gmail.com
EA4EKH-12U02301022022-12-06 00:13:2640.6081-3.435951365413718Clb=3.5m/s p=149.8hPa t=-58.3C h=7.0% 403.000MHz Type=RS41-SGP rdzTTGOsonde
LETO2-14U02301022022-12-06 00:13:2540.6083-3.43621325213712Clb=2.7m/s p=149.9hPa t=-58.2C h=11.7% 403.00MHz Type=RS41-SGP Radiosonde Tracker +Info: 403MHz@gmail.com
EA4GSU-11U02301022022-12-06 00:13:2340.6087-3.436711335413696Clb=3.6m/s t=-58.2C h=7.0% p=150.4hPa 403.000 MHz Type=RS41-SGP Radiosonde auto_rx v1.5.3
EA4EKH-11U02301022022-12-06 00:13:1940.6087-3.436711335413696Clb=3.6m/s t=-58.2C h=7.0% p=150.4hPa 403.000 MHz Type=RS41-SGP ser=U0230102 Radiosonde
LETO2-14U02301022022-12-06 00:13:1740.6088-3.436971355213690Clb=4.3m/s p=150.5hPa t=-58.1C h=11.7% 403.00MHz Type=RS41-SGP Radiosonde Tracker +Info: 403MHz@gmail.com
EA4GBR-10U02301022022-12-06 00:13:1140.6093-3.437591355213671Clb=4.5m/s p=151.0hPa t=-58.0C h=7.1% 403.000MHz Type=RS41-SGP rdzTTGOsonde
LETO2-14U02301022022-12-06 00:13:0840.6096-3.437961295013660Clb=3.7m/s p=151.2hPa t=-57.9C h=11.7% 403.00MHz Type=RS41-SGP batt=2.6V Radiosonde Tracker +Info: 403MHz@gmail.com
EA4EKH-12U02301022022-12-06 00:13:0440.6099-3.438471305013645Clb=3.7m/s p=151.6hPa t=-57.8C h=7.1% 403.000MHz Type=RS41-SGP rdzTTGOsonde
LETO2-14U02301022022-12-06 00:13:0340.61-3.438731315413638Clb=3.4m/s p=151.7hPa t=-57.6C h=11.5% 403.00MHz Type=RS41-SGP Radiosonde Tracker +Info: 403MHz@gmail.com
EA4EKH-11U02301022022-12-06 00:13:0040.6113-3.440641305013584Clb=3.0m/s t=-57.3C h=6.9% p=153.0hPa 403.000 MHz Type=RS41-SGP ser=U0230102 Radiosonde
LETO2-14U02301022022-12-06 00:12:5940.6134-3.443771345613497Clb=2.8m/s p=155.1hPa t=-57.0C h=11.7% 403.00MHz Type=RS41-SGP Radiosonde Tracker +Info: 403MHz@gmail.com
EA4EKH-12U02301022022-12-06 00:12:5840.6139-3.444631285713475Clb=4.3m/s p=155.7hPa t=-57.0C h=7.2% 403.000MHz Type=RS41-SGP rdzTTGOsonde
EA4GBR-10U02301022022-12-06 00:12:5740.6154-3.447231296313411Clb=3.7m/s p=157.2hPa t=-56.9C h=6.7% 403.000MHz Type=RS41-SGP rdzTTGOsonde
EA4EKH-11U02301022022-12-06 00:12:5640.6169-3.449631276113355Clb=3.8m/s t=-56.7C h=7.5% p=158.6hPa 403.000 MHz Type=RS41-SGP ser=U0230102 Radiosonde
EA4GBR-10U02301022022-12-06 00:12:5540.6182-3.451841305713301Clb=3.6m/s p=159.9hPa t=-56.4C h=8.0% 403.000MHz Type=RS41-SGP rdzTTGOsonde
LETO2-14U02301022022-12-06 00:12:5240.619-3.453411225613263Clb=4.8m/s p=160.9hPa t=-56.4C h=12.2% 403.00MHz Type=RS41-SGP Radiosonde Tracker +Info: 403MHz@gmail.com
LETO2-14U02301022022-12-06 00:12:4640.6195-3.45431285213239Clb=3.5m/s p=161.5hPa t=-56.4C h=12.3% 403.00MHz Type=RS41-SGP batt=2.7V Radiosonde Tracker +Info: 403MHz@gmail.com
EA4EKH-11U02301022022-12-06 00:12:4540.6196-3.454441265213234Clb=4.6m/s t=-56.4C h=7.8% p=161.6hPa 403.000 MHz Type=RS41-SGP ser=U0230102 Radiosonde
LETO2-14U02301022022-12-06 00:12:3940.6199-3.455161215213215Clb=4.4m/s p=162.1hPa t=-56.3C h=12.1% 403.00MHz Type=RS41-SGP Radiosonde Tracker +Info: 403MHz@gmail.com
EA4EKH-12U02301022022-12-06 00:12:3340.6201-3.455461225213208Clb=3.7m/s p=162.3hPa t=-56.4C h=7.6% 403.000MHz Type=RS41-SGP rdzTTGOsonde
LETO2-14U02301022022-12-06 00:12:2840.6203-3.455991264613192Clb=3.7m/s p=162.7hPa t=-56.4C h=12.0% 403.00MHz Type=RS41-SGP Radiosonde Tracker +Info: 403MHz@gmail.com
EA4GBR-10U02301022022-12-06 00:12:2740.6203-3.455991274613192Clb=3.8m/s p=162.7hPa t=-56.5C h=7.6% 403.000MHz Type=RS41-SGP rdzTTGOsonde
LETO2-14U02301022022-12-06 00:12:1840.6207-3.456761174613169Clb=3.0m/s p=163.3hPa t=-56.4C h=12.1% 403.00MHz Type=RS41-SGP TxPastBurst=8h30m batt=2.7V Radiosonde Tracker +Info: 403MHz@gmail.com
EA4GSU-11U02301022022-12-06 00:12:0740.6211-3.457521254413147Clb=4.5m/s t=-56.3C h=7.2% p=163.9hPa 403.000 MHz Type=RS41-SGP Radiosonde auto_rx v1.5.3
LETO2-14U02301022022-12-06 00:12:0540.6211-3.457511264613147Clb=4.4m/s p=163.8hPa t=-56.2C h=11.5% 403.00MHz Type=RS41-SGP Radiosonde Tracker +Info: 403MHz@gmail.com
EA4EKH-12U02301022022-12-06 00:11:5540.6213-3.458031184413132Clb=3.0m/s p=164.2hPa t=-56.3C h=7.3% 403.000MHz Type=RS41-SGP rdzTTGOsonde
LETO2-14U02301022022-12-06 00:11:5340.6214-3.458291164113125Clb=4.0m/s p=164.4hPa t=-56.3C h=11.4% 403.00MHz Type=RS41-SGP Radiosonde Tracker +Info: 403MHz@gmail.com
EA4EKH-11U02301022022-12-06 00:11:5040.6215-3.458541153913118Clb=3.7m/s t=-56.4C h=7.0% p=164.7hPa 403.000 MHz Type=RS41-SGP ser=U0230102 Radiosonde
LETO2-14U02301022022-12-06 00:11:4440.6217-3.458971273913103Clb=3.4m/s p=165.0hPa t=-56.3C h=11.3% 403.00MHz Type=RS41-SGP batt=2.7V Radiosonde Tracker +Info: 403MHz@gmail.com
EA4GBR-10U02301022022-12-06 00:11:3440.622-3.459471304113085Clb=4.2m/s p=165.4hPa t=-56.5C h=7.2% 403.000MHz Type=RS41-SGP rdzTTGOsonde
LETO2-14U02301022022-12-06 00:11:3340.6221-3.459581263913081Clb=3.6m/s p=165.5hPa t=-56.4C h=11.8% 403.00MHz Type=RS41-SGP Radiosonde Tracker +Info: 403MHz@gmail.com
LETO2-14U02301022022-12-06 00:11:2340.6223-3.460251173913059Clb=4.2m/s p=166.1hPa t=-56.2C h=11.8% 403.00MHz Type=RS41-SGP Radiosonde Tracker +Info: 403MHz@gmail.com
EA4EKH-12U02301022022-12-06 00:11:2140.6224-3.460361183713056Clb=3.9m/s p=166.3hPa t=-56.3C h=7.4% 403.000MHz Type=RS41-SGP rdzTTGOsonde
EA4GSU-11U02301022022-12-06 00:11:1340.6226-3.460911253713037Clb=4.2m/s t=-56.1C h=7.4% p=166.7hPa 403.000 MHz Type=RS41-SGP Radiosonde auto_rx v1.5.3
LETO2-14U02301022022-12-06 00:11:1140.6226-3.46091263913037Clb=4.1m/s p=166.7hPa t=-56.0C h=11.8% 403.00MHz Type=RS41-SGP batt=2.7V Radiosonde Tracker +Info: 403MHz@gmail.com
LETO2-14U02301022022-12-06 00:11:0040.6229-3.461511223713015Clb=3.1m/s p=167.3hPa t=-55.9C h=12.0% 403.00MHz Type=RS41-SGP Radiosonde Tracker +Info: 403MHz@gmail.com
EA4GBR-10U02301022022-12-06 00:10:5640.623-3.461721213713007Clb=3.5m/s p=167.6hPa t=-55.9C h=7.6% 403.000MHz Type=RS41-SGP rdzTTGOsonde
EA4EKH-11U02301022022-12-06 00:10:5540.6231-3.461941203713000Clb=3.5m/s t=-55.9C h=7.4% p=167.7hPa 403.000 MHz Type=RS41-SGP ser=U0230102 Radiosonde
LETO2-14U02301022022-12-06 00:10:4940.6232-3.462161213712992Clb=3.7m/s p=167.9hPa t=-55.9C h=11.4% 403.00MHz Type=RS41-SGP Radiosonde Tracker +Info: 403MHz@gmail.com
EA4EKH-12U02301022022-12-06 00:10:4340.6234-3.462471233512982Clb=3.1m/s p=168.3hPa t=-55.9C h=7.0% 403.000MHz Type=RS41-SGP rdzTTGOsonde
LETO2-14U02301022022-12-06 00:10:3940.6235-3.462771193712972Clb=3.3m/s p=168.5hPa t=-55.8C h=11.3% 403.00MHz Type=RS41-SGP TxPastBurst=8h30m batt=2.7V Radiosonde Tracker +Info: 403MHz@gmail.com
LETO2-14U02301022022-12-06 00:10:2640.6238-3.463421174112945Clb=4.1m/s p=169.1hPa t=-55.8C h=11.4% 403.00MHz Type=RS41-SGP Radiosonde Tracker +Info: 403MHz@gmail.com
LETO2-14U02301022022-12-06 00:10:1540.6241-3.46411274112922Clb=3.2m/s p=169.7hPa t=-55.8C h=11.5% 403.00MHz Type=RS41-SGP Radiosonde Tracker +Info: 403MHz@gmail.com
EA4EKH-12U02301022022-12-06 00:10:0040.6244-3.464771204112898Clb=4.0m/s p=170.4hPa t=-55.9C h=7.1% 403.000MHz Type=RS41-SGP rdzTTGOsonde
EA4GBR-10U02301022022-12-06 00:09:5940.6244-3.464891194312894Clb=4.3m/s p=170.5hPa t=-55.9C h=7.3% 403.000MHz Type=RS41-SGP rdzTTGOsonde
LETO2-14U02301022022-12-06 00:09:5840.6245-3.465011184312890Clb=3.0m/s p=170.6hPa t=-55.9C h=11.3% 403.00MHz Type=RS41-SGP batt=2.6V Radiosonde Tracker +Info: 403MHz@gmail.com
EA4EKH-11U02301022022-12-06 00:09:5340.6246-3.465381204112879Clb=3.1m/s t=-55.9C h=7.1% p=170.9hPa 403.000 MHz Type=RS41-SGP ser=U0230102 Radiosonde
LETO2-14U02301022022-12-06 00:09:4740.6248-3.465751224412868Clb=3.1m/s p=171.2hPa t=-55.9C h=11.6% 403.00MHz Type=RS41-SGP Radiosonde Tracker +Info: 403MHz@gmail.com
LETO2-14U02301022022-12-06 00:09:3640.6252-3.466451253912845Clb=4.3m/s p=171.8hPa t=-56.0C h=12.0% 403.00MHz Type=RS41-SGP Radiosonde Tracker +Info: 403MHz@gmail.com
LETO2-14U02301022022-12-06 00:09:2640.6255-3.467061274312822Clb=3.7m/s p=172.3hPa t=-55.9C h=12.4% 403.00MHz Type=RS41-SGP batt=2.6V Radiosonde Tracker +Info: 403MHz@gmail.com
EA4EKH-12U02301022022-12-06 00:09:2440.6255-3.467171284112819Clb=3.5m/s p=172.5hPa t=-56.0C h=8.2% 403.000MHz Type=RS41-SGP rdzTTGOsonde
EA4GBR-10U02301022022-12-06 00:09:1440.6259-3.467751254412799Clb=4.5m/s p=173.1hPa t=-55.9C h=8.3% 403.000MHz Type=RS41-SGP rdzTTGOsonde
LETO2-14U02301022022-12-06 00:09:1140.626-3.4681224312792Clb=3.6m/s p=173.2hPa t=-55.8C h=12.7% 403.00MHz Type=RS41-SGP Radiosonde Tracker +Info: 403MHz@gmail.com
LETO2-14U02301022022-12-06 00:08:5940.6263-3.468681274312768Clb=4.3m/s p=173.8hPa t=-55.6C h=11.8% 403.00MHz Type=RS41-SGP Radiosonde Tracker +Info: 403MHz@gmail.com
EA4EKH-11U02301022022-12-06 00:08:5640.6264-3.468891254112761Clb=4.2m/s t=-55.6C h=7.5% p=174.1hPa 403.000 MHz Type=RS41-SGP ser=U0230102 Radiosonde
LETO2-14U02301022022-12-06 00:08:4640.6268-3.46961203912738Clb=2.9m/s p=174.6hPa t=-55.4C h=11.7% 403.00MHz Type=RS41-SGP TxPastBurst=8h30m batt=2.7V Radiosonde Tracker +Info: 403MHz@gmail.com
EA4GBR-10U02301022022-12-06 00:08:3740.627-3.470051183512722Clb=3.6m/s p=175.1hPa t=-55.3C h=7.8% 403.000MHz Type=RS41-SGP rdzTTGOsonde
LETO2-14U02301022022-12-06 00:08:3140.6272-3.470481264312707Clb=3.4m/s p=175.5hPa t=-55.2C h=12.0% 403.00MHz Type=RS41-SGP Radiosonde Tracker +Info: 403MHz@gmail.com
LETO2-14U02301022022-12-06 00:08:2040.6275-3.471191204112685Clb=4.4m/s p=176.2hPa t=-55.1C h=11.9% 403.00MHz Type=RS41-SGP Radiosonde Tracker +Info: 403MHz@gmail.com
LETO2-14U02301022022-12-06 00:08:0740.6278-3.471881204312661Clb=3.4m/s p=176.8hPa t=-55.0C h=12.1% 403.00MHz Type=RS41-SGP batt=2.6V Radiosonde Tracker +Info: 403MHz@gmail.com
EA4EKH-12U02301022022-12-06 00:08:0640.6278-3.471881213912661Clb=3.4m/s p=176.8hPa t=-55.1C h=7.9% 403.000MHz Type=RS41-SGP rdzTTGOsonde
EA4EKH-11U02301022022-12-06 00:07:5940.6281-3.472431214312642Clb=3.7m/s t=-55.0C h=7.6% p=177.3hPa 403.000 MHz Type=RS41-SGP ser=U0230102 Radiosonde
EA4GBR-10U02301022022-12-06 00:07:5740.6281-3.472431224412642Clb=3.7m/s p=177.3hPa t=-55.0C h=7.6% 403.000MHz Type=RS41-SGP rdzTTGOsonde
LETO2-14U02301022022-12-06 00:07:5340.6283-3.47281194312632Clb=3.3m/s p=177.6hPa t=-54.9C h=11.7% 403.00MHz Type=RS41-SGP Radiosonde Tracker +Info: 403MHz@gmail.com
LETO2-14U02301022022-12-06 00:07:4240.6286-3.473531194612610Clb=3.2m/s p=178.2hPa t=-54.9C h=12.1% 403.00MHz Type=RS41-SGP Radiosonde Tracker +Info: 403MHz@gmail.com
EA4EKH-12U02301022022-12-06 00:07:3240.6289-3.474371184812588Clb=4.3m/s p=178.9hPa t=-55.1C h=8.0% 403.000MHz Type=RS41-SGP rdzTTGOsonde
LETO2-14U02301022022-12-06 00:07:3140.629-3.474511204612583Clb=3.6m/s p=179.0hPa t=-55.1C h=12.3% 403.00MHz Type=RS41-SGP batt=2.7V Radiosonde Tracker +Info: 403MHz@gmail.com
EA4GSU-11U02301022022-12-06 00:07:3040.6292-3.47491204312573Clb=3.2m/s t=-55.3C h=8.0% p=179.4hPa 403.000 MHz Type=RS41-SGP Radiosonde auto_rx v1.5.3
EA4GBR-10U02301022022-12-06 00:07:2240.6292-3.475021244412569Clb=4.0m/s p=179.5hPa t=-55.4C h=7.9% 403.000MHz Type=RS41-SGP rdzTTGOsonde
LETO2-14U02301022022-12-06 00:07:1940.6293-3.475271234812563Clb=3.3m/s p=179.6hPa t=-55.4C h=12.1% 403.00MHz Type=RS41-SGP Radiosonde Tracker +Info: 403MHz@gmail.com
LETO2-14U02301022022-12-06 00:07:0840.6297-3.476141145012541Clb=3.7m/s p=180.2hPa t=-55.7C h=12.1% 403.00MHz Type=RS41-SGP Radiosonde Tracker +Info: 403MHz@gmail.com
EA4EKH-11U02301022022-12-06 00:07:0440.6298-3.476591185012531Clb=3.5m/s t=-55.7C h=8.1% p=180.6hPa 403.000 MHz Type=RS41-SGP ser=U0230102 Radiosonde
LETO2-14U02301022022-12-06 00:06:5940.63-3.477061195612521Clb=3.7m/s p=180.9hPa t=-55.6C h=12.2% 403.00MHz Type=RS41-SGP TxPastBurst=8h30m batt=2.7V Radiosonde Tracker +Info: 403MHz@gmail.com
EA4EKH-12U02301022022-12-06 00:06:5440.6302-3.47741205912515Clb=3.7m/s p=181.2hPa t=-55.7C h=8.0% 403.000MHz Type=RS41-SGP rdzTTGOsonde
LETO2-14U02301022022-12-06 00:06:4840.6304-3.47811135712504Clb=3.4m/s p=181.5hPa t=-56.0C h=12.6% 403.00MHz Type=RS41-SGP Radiosonde Tracker +Info: 403MHz@gmail.com
EA4GBR-10U02301022022-12-06 00:06:4540.6305-3.478291155712501Clb=3.7m/s p=181.6hPa t=-56.1C h=8.3% 403.000MHz Type=RS41-SGP rdzTTGOsonde
LETO2-14U02301022022-12-06 00:06:3440.6309-3.479511175212487Clb=4.2m/s p=182.3hPa t=-56.2C h=12.9% 403.00MHz Type=RS41-SGP Radiosonde Tracker +Info: 403MHz@gmail.com
LETO2-14U02301022022-12-06 00:06:2140.6314-3.480711155612432Clb=4.1m/s p=183.2hPa t=-56.1C h=13.0% 403.00MHz Type=RS41-SGP batt=2.6V Radiosonde Tracker +Info: 403MHz@gmail.com
EA4EKH-12U02301022022-12-06 00:06:1940.6315-3.480881165712429Clb=3.4m/s p=183.3hPa t=-56.2C h=8.8% 403.000MHz Type=RS41-SGP rdzTTGOsonde
EA4EKH-11U02301022022-12-06 00:06:1140.6318-3.481661195012410Clb=3.6m/s t=-56.0C h=8.7% p=183.9hPa 403.000 MHz Type=RS41-SGP ser=U0230102 Radiosonde
EA4GBR-10U02301022022-12-06 00:06:1040.6318-3.481661205012410Clb=3.6m/s p=183.9hPa t=-56.0C h=8.7% 403.000MHz Type=RS41-SGP rdzTTGOsonde
LETO2-14U02301022022-12-06 00:05:5940.6322-3.482551195412387Clb=3.3m/s p=184.5hPa t=-55.8C h=12.9% 403.00MHz Type=RS41-SGP Radiosonde Tracker +Info: 403MHz@gmail.com
LETO2-14U02301022022-12-06 00:05:4740.6325-3.483441225212365Clb=4.1m/s p=185.1hPa t=-55.7C h=13.0% 403.00MHz Type=RS41-SGP batt=2.6V Radiosonde Tracker +Info: 403MHz@gmail.com
EA4EKH-12U02301022022-12-06 00:05:3840.6328-3.483961244812350Clb=2.9m/s p=185.6hPa t=-55.6C h=8.5% 403.000MHz Type=RS41-SGP rdzTTGOsonde
LETO2-14U02301022022-12-06 00:05:2940.6332-3.484851205012328Clb=3.8m/s p=186.2hPa t=-55.5C h=13.4% 403.00MHz Type=RS41-SGP Radiosonde Tracker +Info: 403MHz@gmail.com
EA4GBR-10U02301022022-12-06 00:05:2540.6333-3.4851215212324Clb=3.2m/s p=186.3hPa t=-55.5C h=9.1% 403.000MHz Type=RS41-SGP rdzTTGOsonde
LETO2-14U02301022022-12-06 00:05:1640.6336-3.485811234812303Clb=3.0m/s p=186.9hPa t=-55.3C h=13.8% 403.00MHz Type=RS41-SGP Radiosonde Tracker +Info: 403MHz@gmail.com
EA4EKH-11U02301022022-12-06 00:05:1340.6338-3.486081244612295Clb=3.7m/s t=-55.3C h=9.2% p=187.2hPa 403.000 MHz Type=RS41-SGP ser=U0230102 Radiosonde
LETO2-14U02301022022-12-06 00:05:0540.6341-3.486621254812282Clb=3.2m/s p=187.6hPa t=-55.1C h=14.1% 403.00MHz Type=RS41-SGP TxPastBurst=8h30m batt=2.6V Radiosonde Tracker +Info: 403MHz@gmail.com
EA4EKH-12U02301022022-12-06 00:05:0240.6341-3.486751275012278Clb=3.7m/s p=187.7hPa t=-55.2C h=9.4% 403.000MHz Type=RS41-SGP rdzTTGOsonde
LETO2-14U02301022022-12-06 00:04:5440.6345-3.487511294612258Clb=3.1m/s p=188.3hPa t=-55.0C h=13.7% 403.00MHz Type=RS41-SGP Radiosonde Tracker +Info: 403MHz@gmail.com
EA4GSU-11U02301022022-12-06 00:04:5040.6348-3.4881274612244Clb=3.9m/s t=-54.9C h=9.3% p=188.7hPa 403.000 MHz Type=RS41-SGP Radiosonde auto_rx v1.5.3
EA4GBR-10U02301022022-12-06 00:04:4540.6348-3.4881284612244Clb=3.9m/s p=188.7hPa t=-54.9C h=9.3% 403.000MHz Type=RS41-SGP rdzTTGOsonde
LETO2-14U02301022022-12-06 00:04:4340.635-3.488251264612238Clb=3.1m/s p=188.9hPa t=-54.9C h=13.9% 403.00MHz Type=RS41-SGP Radiosonde Tracker +Info: 403MHz@gmail.com
LETO2-14U02301022022-12-06 00:04:3340.6353-3.489011254412215Clb=3.1m/s p=189.5hPa t=-54.7C h=13.4% 403.00MHz Type=RS41-SGP batt=2.6V Radiosonde Tracker +Info: 403MHz@gmail.com
EA4EKH-12U02301022022-12-06 00:04:2740.6355-3.489251304412209Clb=4.1m/s p=189.8hPa t=-54.7C h=9.1% 403.000MHz Type=RS41-SGP rdzTTGOsonde
LETO2-14U02301022022-12-06 00:04:2140.6357-3.48971264312196Clb=3.8m/s p=190.1hPa t=-54.6C h=13.1% 403.00MHz Type=RS41-SGP Radiosonde Tracker +Info: 403MHz@gmail.com
EA4EKH-11U02301022022-12-06 00:04:1840.6359-3.489921234112189Clb=2.9m/s t=-54.7C h=9.0% p=190.4hPa 403.000 MHz Type=RS41-SGP ser=U0230102 Radiosonde
LETO2-14U02301022022-12-06 00:04:1140.6361-3.49041264412175Clb=3.1m/s p=190.7hPa t=-54.6C h=13.3% 403.00MHz Type=RS41-SGP Radiosonde Tracker +Info: 403MHz@gmail.com
EA4GBR-10U02301022022-12-06 00:04:0440.6364-3.490871294412163Clb=3.1m/s p=191.2hPa t=-54.6C h=9.5% 403.000MHz Type=RS41-SGP rdzTTGOsonde
LETO2-14U02301022022-12-06 00:04:0240.6365-3.491081263912156Clb=3.2m/s p=191.3hPa t=-54.6C h=14.4% 403.00MHz Type=RS41-SGP batt=2.6V Radiosonde Tracker +Info: 403MHz@gmail.com
EA4GSU-11U02301022022-12-06 00:04:0040.6367-3.491381283712146Clb=3.2m/s t=-54.7C h=9.7% p=191.6hPa 403.000 MHz Type=RS41-SGP Radiosonde auto_rx v1.5.3
EA4EKH-12U02301022022-12-06 00:03:5740.6367-3.491481294112143Clb=3.1m/s p=191.8hPa t=-54.7C h=9.7% 403.000MHz Type=RS41-SGP rdzTTGOsonde
LETO2-14U02301022022-12-06 00:03:5640.6369-3.491691274312137Clb=2.5m/s p=191.9hPa t=-54.6C h=13.9% 403.00MHz Type=RS41-SGP Radiosonde Tracker +Info: 403MHz@gmail.com
LETO2-14U02301022022-12-06 00:03:5040.6372-3.492341283712117Clb=3.6m/s p=192.4hPa t=-54.6C h=14.2% 403.00MHz Type=RS41-SGP Radiosonde Tracker +Info: 403MHz@gmail.com
LETO2-14U02301022022-12-06 00:03:4440.6376-3.492881373512097Clb=3.1m/s p=193.1hPa t=-54.7C h=14.1% 403.00MHz Type=RS41-SGP TxPastBurst=8h30m batt=2.6V Radiosonde Tracker +Info: 403MHz@gmail.com
EA4EKH-11U02301022022-12-06 00:03:4140.6378-3.493131323512087Clb=2.4m/s t=-54.9C h=9.7% p=193.4hPa 403.000 MHz Type=RS41-SGP ser=U0230102 Radiosonde
EA4GBR-10U02301022022-12-06 00:03:4040.6378-3.493121333512087Clb=2.4m/s p=193.4hPa t=-54.9C h=9.8% 403.000MHz Type=RS41-SGP rdzTTGOsonde
LETO2-14U02301022022-12-06 00:03:3840.638-3.493381323512078Clb=2.8m/s p=193.6hPa t=-55.0C h=14.2% 403.00MHz Type=RS41-SGP Radiosonde Tracker +Info: 403MHz@gmail.com
EA4EKH-12U02301022022-12-06 00:03:3640.638-3.493471313512075Clb=3.4m/s p=193.8hPa t=-55.1C h=9.6% 403.000MHz Type=RS41-SGP rdzTTGOsonde
LETO2-14U02301022022-12-06 00:03:3340.6383-3.493881333312057Clb=3.0m/s p=194.2hPa t=-55.2C h=13.7% 403.00MHz Type=RS41-SGP Radiosonde Tracker +Info: 403MHz@gmail.com
LETO2-14U02301022022-12-06 00:03:2940.6386-3.494341313012038Clb=3.2m/s p=194.8hPa t=-55.3C h=13.7% 403.00MHz Type=RS41-SGP batt=2.6V Radiosonde Tracker +Info: 403MHz@gmail.com
LETO2-14U02301022022-12-06 00:03:2340.6389-3.494831213112018Clb=4.0m/s p=195.4hPa t=-55.3C h=13.9% 403.00MHz Type=RS41-SGP Radiosonde Tracker +Info: 403MHz@gmail.com
EA4GBR-10U02301022022-12-06 00:03:2040.639-3.495011213112011Clb=3.1m/s p=195.7hPa t=-55.3C h=9.4% 403.000MHz Type=RS41-SGP rdzTTGOsonde
EA4EKH-12U02301022022-12-06 00:03:1940.639-3.495191233512004Clb=3.0m/s p=195.9hPa t=-55.3C h=9.5% 403.000MHz Type=RS41-SGP rdzTTGOsonde
LETO2-14U02301022022-12-06 00:03:1740.6391-3.495391213511998Clb=3.8m/s p=196.1hPa t=-55.2C h=14.2% 403.00MHz Type=RS41-SGP Radiosonde Tracker +Info: 403MHz@gmail.com
EA4EKH-11U02301022022-12-06 00:03:1440.6393-3.495781163511983Clb=3.2m/s t=-55.4C h=9.8% p=196.5hPa 403.000 MHz Type=RS41-SGP ser=U0230102 Radiosonde
LETO2-14U02301022022-12-06 00:03:1140.6394-3.495991163711977Clb=3.3m/s p=196.7hPa t=-55.3C h=14.4% 403.00MHz Type=RS41-SGP batt=2.6V Radiosonde Tracker +Info: 403MHz@gmail.com
LETO2-14U02301022022-12-06 00:03:0240.6396-3.496661113711958Clb=3.4m/s p=197.2hPa t=-55.3C h=15.0% 403.00MHz Type=RS41-SGP Radiosonde Tracker +Info: 403MHz@gmail.com
LETO2-14U02301022022-12-06 00:02:5640.6398-3.497341053511939Clb=2.9m/s p=197.9hPa t=-55.4C h=14.8% 403.00MHz Type=RS41-SGP Radiosonde Tracker +Info: 403MHz@gmail.com
EA4EKH-12U02301022022-12-06 00:02:5540.6398-3.497341053511939Clb=3.0m/s p=197.9hPa t=-55.4C h=10.2% 403.000MHz Type=RS41-SGP rdzTTGOsonde
EA4GBR-10U02301022022-12-06 00:02:5340.6398-3.497591064111933Clb=3.1m/s p=198.1hPa t=-55.4C h=10.1% 403.000MHz Type=RS41-SGP rdzTTGOsonde
LETO2-14U02301022022-12-06 00:02:4840.64-3.498381023911914Clb=3.1m/s p=198.7hPa t=-55.2C h=15.2% 403.00MHz Type=RS41-SGP TxPastBurst=8h30m batt=2.6V Radiosonde Tracker +Info: 403MHz@gmail.com
LETO2-14U02301022022-12-06 00:02:4240.6401-3.49911973511894Clb=2.8m/s p=199.3hPa t=-55.1C h=15.4% 403.00MHz Type=RS41-SGP Radiosonde Tracker +Info: 403MHz@gmail.com
EA4EKH-11U02301022022-12-06 00:02:4040.6401-3.49945893311884Clb=2.9m/s t=-55.2C h=10.9% p=199.6hPa 403.000 MHz Type=RS41-SGP ser=U0230102 Radiosonde
LETO2-14U02301022022-12-06 00:02:3640.6401-3.49979893311873Clb=3.4m/s p=199.9hPa t=-55.1C h=15.5% 403.00MHz Type=RS41-SGP Radiosonde Tracker +Info: 403MHz@gmail.com
EA4EKH-12U02301022022-12-06 00:02:3440.6401-3.4999913111870Clb=3.1m/s p=200.1hPa t=-55.2C h=10.9% 403.000MHz Type=RS41-SGP rdzTTGOsonde
EA4GBR-10U02301022022-12-06 00:02:3140.6401-3.50033883511857Clb=2.7m/s p=200.5hPa t=-55.4C h=10.9% 403.000MHz Type=RS41-SGP rdzTTGOsonde
LETO2-14U02301022022-12-06 00:02:2440.64-3.50112813111832Clb=3.5m/s p=201.2hPa t=-55.6C h=16.2% 403.00MHz Type=RS41-SGP Radiosonde Tracker +Info: 403MHz@gmail.com
LETO2-14U02301022022-12-06 00:02:1840.64-3.50171863011810Clb=3.9m/s p=201.9hPa t=-55.7C h=16.2% 403.00MHz Type=RS41-SGP Radiosonde Tracker +Info: 403MHz@gmail.com
EA4EKH-12U02301022022-12-06 00:02:1540.64-3.5021883011795Clb=2.8m/s p=202.5hPa t=-55.9C h=11.7% 403.000MHz Type=RS41-SGP rdzTTGOsonde
LETO2-14U02301022022-12-06 00:02:1340.6399-3.5023853011789Clb=2.6m/s p=202.6hPa t=-56.1C h=16.8% 403.00MHz Type=RS41-SGP batt=2.6V Radiosonde Tracker +Info: 403MHz@gmail.com
EA4GBR-10U02301022022-12-06 00:02:0940.6399-3.50268853011775Clb=4.0m/s p=203.1hPa t=-56.4C h=12.0% 403.000MHz Type=RS41-SGP rdzTTGOsonde
LETO2-14U02301022022-12-06 00:02:0740.6399-3.50288913011767Clb=2.8m/s p=203.3hPa t=-56.5C h=17.1% 403.00MHz Type=RS41-SGP Radiosonde Tracker +Info: 403MHz@gmail.com
LETO2-14U02301022022-12-06 00:02:0040.6399-3.50344882611747Clb=3.3m/s p=203.9hPa t=-56.7C h=17.6% 403.00MHz Type=RS41-SGP Radiosonde Tracker +Info: 403MHz@gmail.com
LETO2-14U02301022022-12-06 00:01:5440.6399-3.50394822411725Clb=3.9m/s p=204.6hPa t=-56.6C h=17.6% 403.00MHz Type=RS41-SGP TxPastBurst=8h30m batt=2.7V Radiosonde Tracker +Info: 403MHz@gmail.com
EA4EKH-12U02301022022-12-06 00:01:5340.6399-3.50394832411725Clb=4.0m/s p=204.7hPa t=-56.7C h=12.4% 403.000MHz Type=RS41-SGP rdzTTGOsonde
LETO2-14U02301022022-12-06 00:01:4840.6398-3.50439852211705Clb=3.3m/s p=205.3hPa t=-56.5C h=17.7% 403.00MHz Type=RS41-SGP Radiosonde Tracker +Info: 403MHz@gmail.com
EA4GBR-10U02301022022-12-06 00:01:4440.6398-3.5046872411694Clb=3.0m/s p=205.6hPa t=-56.5C h=12.5% 403.000MHz Type=RS41-SGP rdzTTGOsonde
LETO2-14U02301022022-12-06 00:01:4140.6398-3.50491892211680Clb=3.8m/s p=206.0hPa t=-56.4C h=17.8% 403.00MHz Type=RS41-SGP Radiosonde Tracker +Info: 403MHz@gmail.com
EA4EKH-11U02301022022-12-06 00:01:3740.6398-3.5052901911667Clb=2.7m/s t=-56.4C h=12.8% p=206.6hPa 403.000 MHz Type=RS41-SGP ser=U0230102 Radiosonde
LETO2-14U02301022022-12-06 00:01:3540.6398-3.50533961911660Clb=3.1m/s p=206.7hPa t=-56.3C h=18.0% 403.00MHz Type=RS41-SGP batt=2.6V Radiosonde Tracker +Info: 403MHz@gmail.com
EA4EKH-12U02301022022-12-06 00:01:3440.6398-3.50545971711653Clb=3.4m/s p=207.0hPa t=-56.3C h=12.7% 403.000MHz Type=RS41-SGP rdzTTGOsonde
LETO2-14U02301022022-12-06 00:01:3140.6398-3.50571972411638Clb=3.9m/s p=207.5hPa t=-56.2C h=18.1% 403.00MHz Type=RS41-SGP Radiosonde Tracker +Info: 403MHz@gmail.com
LETO2-14U02301022022-12-06 00:01:2540.6399-3.50618922411617Clb=3.0m/s p=208.1hPa t=-56.2C h=18.5% 403.00MHz Type=RS41-SGP Radiosonde Tracker +Info: 403MHz@gmail.com
EA4GBR-10U02301022022-12-06 00:01:2340.6399-3.50634972411610Clb=4.0m/s p=208.5hPa t=-56.2C h=13.2% 403.000MHz Type=RS41-SGP rdzTTGOsonde
LETO2-14U02301022022-12-06 00:01:1940.6399-3.50665992411596Clb=3.2m/s p=208.8hPa t=-56.1C h=18.6% 403.00MHz Type=RS41-SGP batt=2.7V Radiosonde Tracker +Info: 403MHz@gmail.com
EA4EKH-12U02301022022-12-06 00:01:1240.64-3.507041002411578Clb=3.2m/s p=209.5hPa t=-56.1C h=13.0% 403.000MHz Type=RS41-SGP rdzTTGOsonde
EA4EKH-11U02301022022-12-06 00:01:0740.64-3.507481102211556Clb=3.7m/s t=-56.0C h=12.5% p=210.2hPa 403.000 MHz Type=RS41-SGP ser=U0230102 Radiosonde
LETO2-14U02301022022-12-06 00:01:0640.6401-3.507551142811552Clb=3.4m/s p=210.2hPa t=-55.9C h=17.5% 403.00MHz Type=RS41-SGP Radiosonde Tracker +Info: 403MHz@gmail.com
LETO2-14U02301022022-12-06 00:00:5940.6402-3.508081063111531Clb=3.5m/s p=211.0hPa t=-55.7C h=16.9% 403.00MHz Type=RS41-SGP TxPastBurst=8h30m batt=2.6V Radiosonde Tracker +Info: 403MHz@gmail.com
EA4GBR-10U02301022022-12-06 00:00:5740.6402-3.508181053111527Clb=3.2m/s p=211.2hPa t=-55.7C h=11.9% 403.000MHz Type=RS41-SGP rdzTTGOsonde
LETO2-14U02301022022-12-06 00:00:5440.6412-3.512521003011364Clb=2.8m/s p=216.5hPa t=-54.8C h=17.0% 403.00MHz Type=RS41-SGP Radiosonde Tracker +Info: 403MHz@gmail.com
EA4EKH-12U02301022022-12-06 00:00:5340.6412-3.51281973011354Clb=3.4m/s p=216.9hPa t=-54.7C h=12.1% 403.000MHz Type=RS41-SGP rdzTTGOsonde
EA4EKH-11U02301022022-12-06 00:00:5240.6413-3.513381023011333Clb=3.7m/s t=-54.6C h=12.3% p=217.6hPa 403.000 MHz Type=RS41-SGP ser=U0230102 Radiosonde
LETO2-14U02301022022-12-06 00:00:5040.6414-3.514621043011286Clb=3.3m/s p=219.2hPa t=-54.4C h=16.9% 403.00MHz Type=RS41-SGP TxPastBurst=8h30m batt=2.7V Radiosonde Tracker +Info: 403MHz@gmail.com
EA4GBR-10U02301022022-12-06 00:00:4940.6415-3.51491033011276Clb=3.6m/s p=219.6hPa t=-54.4C h=12.4% 403.000MHz Type=RS41-SGP rdzTTGOsonde
LETO2-14U02301022022-12-06 00:00:4640.6415-3.515991003111236Clb=3.1m/s p=220.9hPa t=-54.5C h=16.5% 403.00MHz Type=RS41-SGP Radiosonde Tracker +Info: 403MHz@gmail.com
EA4EKH-11U02301022022-12-06 00:00:4540.6416-3.516391003011222Clb=3.9m/s t=-54.5C h=11.6% p=221.4hPa 403.000 MHz Type=RS41-SGP ser=U0230102 Radiosonde
EA4EKH-12U02301022022-12-06 00:00:4440.6416-3.51679943111207Clb=4.1m/s p=221.9hPa t=-54.5C h=11.3% 403.000MHz Type=RS41-SGP rdzTTGOsonde
LETO2-14U02301022022-12-06 00:00:4340.6416-3.51718932811192Clb=3.0m/s p=222.4hPa t=-54.6C h=16.0% 403.00MHz Type=RS41-SGP Radiosonde Tracker +Info: 403MHz@gmail.com
LETO2-14U02301022022-12-06 00:00:4240.6416-3.51771812411171Clb=3.9m/s p=223.1hPa t=-54.7C h=15.7% 403.00MHz Type=RS41-SGP Radiosonde Tracker +Info: 403MHz@gmail.com
LETO2-14U02301022022-12-06 00:00:3840.6416-3.51833882411141Clb=2.9m/s p=224.2hPa t=-54.9C h=15.6% 403.00MHz Type=RS41-SGP batt=2.7V Radiosonde Tracker +Info: 403MHz@gmail.com
LETO2-14U02301022022-12-06 00:00:3740.6416-3.51886982211116Clb=2.6m/s p=225.1hPa t=-54.9C h=15.5% 403.00MHz Type=RS41-SGP Radiosonde Tracker +Info: 403MHz@gmail.com
LETO2-14U02301022022-12-06 00:00:3640.6416-3.51946902011086Clb=3.9m/s p=226.0hPa t=-54.9C h=16.1% 403.00MHz Type=RS41-SGP Radiosonde Tracker +Info: 403MHz@gmail.com
EA4EKH-12U02301022022-12-06 00:00:3540.6417-3.519981012211059Clb=3.8m/s p=227.1hPa t=-54.8C h=11.6% 403.000MHz Type=RS41-SGP rdzTTGOsonde
LETO2-14U02301022022-12-06 00:00:3340.6416-3.52038781911039Clb=3.5m/s p=227.7hPa t=-54.6C h=16.9% 403.00MHz Type=RS41-SGP Radiosonde Tracker +Info: 403MHz@gmail.com
EA4EKH-11U02301022022-12-06 00:00:3240.6416-3.52127761710987Clb=3.0m/s t=-54.6C h=13.6% p=229.6hPa 403.000 MHz Type=RS41-SGP ser=U0230102 Radiosonde
EA4GBR-10U02301022022-12-06 00:00:3140.6415-3.52186801310948Clb=3.5m/s p=231.1hPa t=-54.8C h=16.0% 403.000MHz Type=RS41-SGP rdzTTGOsonde
EA4EKH-12U02301022022-12-06 00:00:3040.6414-3.52223601510923Clb=3.5m/s p=232.0hPa t=-56.3C h=20.8% 403.000MHz Type=RS41-SGP rdzTTGOsonde
EA4EKH-11U02301022022-12-06 00:00:2940.6413-3.5224528410894Clb=4.1m/s t=-57.3C h=24.9% p=233.0hPa 403.000 MHz Type=RS41-SGP ser=U0230102 Radiosonde
EA4GSU-11U02301022022-12-06 00:00:2840.6412-3.5224956410883Clb=2.5m/s t=-57.3C h=26.4% p=233.4hPa 403.000 MHz Type=RS41-SGP Radiosonde auto_rx v1.5.3
LETO2-14U02301022022-12-06 00:00:2340.6412-3.5225275710878Clb=3.9m/s p=233.6hPa t=-57.4C h=35.0% 403.00MHz Type=RS41-SGP Radiosonde Tracker +Info: 403MHz@gmail.com
EA4GBR-10U02301022022-12-06 00:00:2040.6412-3.5225989610867Clb=2.8m/s p=234.0hPa t=-57.8C h=29.3% 403.000MHz Type=RS41-SGP rdzTTGOsonde
EA4EKH-12U02301022022-12-06 00:00:1640.6412-3.52271111110854Clb=3.2m/s p=234.5hPa t=-58.0C h=30.5% 403.000MHz Type=RS41-SGP rdzTTGOsonde
LETO2-14U02301022022-12-05 23:59:5940.6413-3.522881491110832Clb=3.3m/s p=235.3hPa t=-58.4C h=40.8% 403.00MHz Type=RS41-SGP TxPastBurst=8h30m batt=2.7V Radiosonde Tracker +Info: 403MHz@gmail.com
LETO2-14U02301022022-12-05 23:59:4940.6415-3.523011541910812Clb=3.2m/s p=236.0hPa t=-58.4C h=42.4% 403.00MHz Type=RS41-SGP Radiosonde Tracker +Info: 403MHz@gmail.com
EA4EKH-11U02301022022-12-05 23:59:3840.6418-3.52311651910793Clb=3.1m/s t=-58.5C h=33.9% p=236.8hPa 403.000 MHz Type=RS41-SGP ser=U0230102 Radiosonde
EA4EKH-12U02301022022-12-05 23:59:3540.6418-3.523121682010790Clb=3.7m/s p=236.9hPa t=-58.5C h=33.9% 403.000MHz Type=RS41-SGP rdzTTGOsonde
LETO2-14U02301022022-12-05 23:59:3440.6419-3.523141672210787Clb=2.8m/s p=236.9hPa t=-58.4C h=43.2% 403.00MHz Type=RS41-SGP Radiosonde Tracker +Info: 403MHz@gmail.com
LETO2-14U02301022022-12-05 23:59:2340.6422-3.523271562210768Clb=3.2m/s p=237.7hPa t=-58.4C h=43.9% 403.00MHz Type=RS41-SGP batt=2.7V Radiosonde Tracker +Info: 403MHz@gmail.com
LETO2-14U02301022022-12-05 23:59:1440.6425-3.523461502410749Clb=2.9m/s p=238.4hPa t=-58.3C h=44.9% 403.00MHz Type=RS41-SGP Radiosonde Tracker +Info: 403MHz@gmail.com
EA4EKH-12U02301022022-12-05 23:58:5840.6429-3.523781503010724Clb=3.5m/s p=239.4hPa t=-58.2C h=35.0% 403.000MHz Type=RS41-SGP rdzTTGOsonde
EA4GBR-10U02301022022-12-05 23:58:5540.6431-3.523881483010718Clb=3.5m/s p=239.6hPa t=-58.1C h=35.0% 403.000MHz Type=RS41-SGP rdzTTGOsonde
EA4GSU-11U02301022022-12-05 23:58:4840.6433-3.52411512210700Clb=3.2m/s t=-58.0C h=34.8% p=240.3hPa 403.000 MHz Type=RS41-SGP Radiosonde auto_rx v1.5.3
EA4EKH-11U02301022022-12-05 23:58:4440.6434-3.524171512210694Clb=3.4m/s t=-57.9C h=34.6% p=240.5hPa 403.000 MHz Type=RS41-SGP ser=U0230102 Radiosonde
LETO2-14U02301022022-12-05 23:58:4340.6435-3.524211472610691Clb=3.5m/s p=240.6hPa t=-57.9C h=44.1% 403.00MHz Type=RS41-SGP Radiosonde Tracker +Info: 403MHz@gmail.com
LETO2-14U02301022022-12-05 23:58:3240.6438-3.52461292610668Clb=3.1m/s p=241.5hPa t=-57.8C h=44.3% 403.00MHz Type=RS41-SGP batt=2.7V Radiosonde Tracker +Info: 403MHz@gmail.com
EA4EKH-12U02301022022-12-05 23:58:2440.644-3.524851372610655Clb=2.6m/s p=242.1hPa t=-57.8C h=35.4% 403.000MHz Type=RS41-SGP rdzTTGOsonde
EA4GBR-10U02301022022-12-05 23:58:1440.6442-3.525231392610634Clb=3.2m/s p=242.8hPa t=-57.6C h=34.8% 403.000MHz Type=RS41-SGP rdzTTGOsonde
EA4EKH-11U02301022022-12-05 23:57:5140.6447-3.526211283110583Clb=4.7m/s t=-57.1C h=35.6% p=244.8hPa 403.000 MHz Type=RS41-SGP ser=U0230102 Radiosonde
EA4EKH-12U02301022022-12-05 23:57:4740.6448-3.526291283010579Clb=3.6m/s p=244.9hPa t=-57.1C h=36.2% 403.000MHz Type=RS41-SGP rdzTTGOsonde
EA4GBR-10U02301022022-12-05 23:57:3140.6451-3.52681102810541Clb=5.2m/s p=246.4hPa t=-56.8C h=36.8% 403.000MHz Type=RS41-SGP rdzTTGOsonde
LETO2-14U02301022022-12-05 23:57:1940.6453-3.527561223010502Clb=7.5m/s p=247.9hPa t=-56.6C h=44.8% 403.00MHz Type=RS41-SGP Radiosonde Tracker +Info: 403MHz@gmail.com
EA4EKH-12U02301022022-12-05 23:57:1340.6454-3.527861293110483Clb=4.1m/s p=248.6hPa t=-56.8C h=39.2% 403.000MHz Type=RS41-SGP rdzTTGOsonde
LETO2-14U02301022022-12-05 23:56:5840.6454-3.52821682010452Clb=4.0m/s p=249.9hPa t=-56.6C h=53.4% 403.00MHz Type=RS41-SGP Radiosonde Tracker +Info: 403MHz@gmail.com
EA4EKH-11U02301022022-12-05 23:56:5440.6454-3.528421002210436Clb=6.5m/s t=-56.6C h=43.0% p=250.6hPa 403.000 MHz Type=RS41-SGP ser=U0230102 Radiosonde
EA4GBR-10U02301022022-12-05 23:56:4840.6455-3.528551302410425Clb=4.1m/s p=250.8hPa t=-56.6C h=43.5% 403.000MHz Type=RS41-SGP rdzTTGOsonde
LETO2-14U02301022022-12-05 23:56:4240.6456-3.528681782010406Clb=6.4m/s p=251.5hPa t=-56.5C h=56.7% 403.00MHz Type=RS41-SGP TxPastBurst=8h30m batt=2.7V Radiosonde Tracker +Info: 403MHz@gmail.com
EA4EKH-12U02301022022-12-05 23:56:3540.6456-3.52873472410378Clb=5.7m/s p=252.7hPa t=-57.0C h=51.4% 403.000MHz Type=RS41-SGP rdzTTGOsonde
LETO2-14U02301022022-12-05 23:56:2640.6454-3.52929911510344Clb=4.3m/s p=254.0hPa t=-57.3C h=61.9% 403.00MHz Type=RS41-SGP Radiosonde Tracker +Info: 403MHz@gmail.com
LETO2-14U02301022022-12-05 23:56:1540.6453-3.52945212210308Clb=6.0m/s p=255.6hPa t=-57.3C h=66.7% 403.00MHz Type=RS41-SGP Radiosonde Tracker +Info: 403MHz@gmail.com
EA4GBR-10U02301022022-12-05 23:56:0740.6451-3.52955282210296Clb=2.7m/s p=256.0hPa t=-57.3C h=56.9% 403.000MHz Type=RS41-SGP rdzTTGOsonde
LETO2-14U02301022022-12-05 23:56:0440.645-3.52962192010284Clb=4.0m/s p=256.5hPa t=-57.2C h=68.6% 403.00MHz Type=RS41-SGP batt=2.7V Radiosonde Tracker +Info: 403MHz@gmail.com
EA4EKH-11U02301022022-12-05 23:56:0240.6448-3.52971171910267Clb=3.6m/s t=-57.1C h=57.3% p=257.2hPa 403.000 MHz Type=RS41-SGP ser=U0230102 Radiosonde
EA4GBR-10U02301022022-12-05 23:56:0140.6439-3.53001192210197Clb=3.5m/s p=260.1hPa t=-56.5C h=58.4% 403.000MHz Type=RS41-SGP rdzTTGOsonde
EA4GSU-11U02301022022-12-05 23:56:0040.6432-3.530193592410150Clb=3.5m/s t=-56.2C h=61.4% p=262.0hPa 403.000 MHz Type=RS41-SGP Radiosonde auto_rx v1.5.3
LETO2-14U02301022022-12-05 23:55:5940.6422-3.5303792410089Clb=3.3m/s p=264.5hPa t=-55.7C h=78.6% calibration 98% 403.00MHz Type=RS41-SGP Radiosonde Tracker +Info: 403MHz@gmail.com
LETO2-14U02301022022-12-05 23:55:5640.6417-3.53053122610060Clb=3.0m/s p=265.7hPa t=-55.5C h=81.4% calibration 98% 403.00MHz Type=RS41-SGP batt=2.7V Radiosonde Tracker +Info: 403MHz@gmail.com
EA4EKH-12U02301022022-12-05 23:55:4940.6413-3.53063192610034Clb=4.2m/s p=266.8hPa t=-55.3C h=69.5% 403.000MHz Type=RS41-SGP rdzTTGOsonde
LETO2-14U02301022022-12-05 23:55:4740.6411-3.5307142410023Clb=4.4m/s p=267.2hPa t=-55.2C h=82.2% calibration 98% 403.00MHz Type=RS41-SGP Radiosonde Tracker +Info: 403MHz@gmail.com
EA4GBR-10U02301022022-12-05 23:55:4540.6411-3.53072122410019Clb=3.5m/s p=267.4hPa t=-55.2C h=70.2% 403.000MHz Type=RS41-SGP rdzTTGOsonde
LETO2-14U02301022022-12-05 23:55:3840.6408-3.5308142010000Clb=3.0m/s p=268.1hPa t=-55.0C h=83.0% calibration 98% 403.00MHz Type=RS41-SGP Radiosonde Tracker +Info: 403MHz@gmail.com
LETO2-14U02301022022-12-05 23:55:2740.6405-3.5309314269977Clb=3.8m/s p=269.1hPa t=-54.8C h=83.3% calibration 98% 403.00MHz Type=RS41-SGP batt=2.7V Radiosonde Tracker +Info: 403MHz@gmail.com
LETO2-14U02301022022-12-05 23:55:1840.6401-3.5310318249956Clb=2.7m/s p=270.0hPa t=-54.6C h=83.0% calibration 98% 403.00MHz Type=RS41-SGP Radiosonde Tracker +Info: 403MHz@gmail.com
EA4EKH-12U02301022022-12-05 23:55:1740.6401-3.5310318249956Clb=2.8m/s p=270.1hPa t=-54.6C h=70.7% 403.000MHz Type=RS41-SGP rdzTTGOsonde
LETO2-14U02301022022-12-05 23:55:0540.6397-3.5312119269930Clb=3.3m/s p=271.2hPa t=-54.3C h=81.8% calibration 98% 403.00MHz Type=RS41-SGP Radiosonde Tracker +Info: 403MHz@gmail.com
EA4GBR-10U02301022022-12-05 23:55:0440.6397-3.5312120269930Clb=3.4m/s p=271.2hPa t=-54.4C h=69.7% 403.000MHz Type=RS41-SGP rdzTTGOsonde
EA4EKH-11U02301022022-12-05 23:55:0140.6395-3.531320289919Clb=3.0m/s t=-54.3C h=69.1% p=271.6hPa 403.000 MHz Type=RS41-SGP ser=U0230102 Radiosonde
LETO2-14U02301022022-12-05 23:54:5240.6392-3.5314623229901Clb=3.5m/s p=272.4hPa t=-54.0C h=80.7% calibration 98% 403.00MHz Type=RS41-SGP TxPastBurst=8h30m batt=2.7V Radiosonde Tracker +Info: 403MHz@gmail.com
LETO2-14U02301022022-12-05 23:54:4440.6389-3.5315915249878Clb=4.3m/s p=273.3hPa t=-53.8C h=80.2% calibration 98% 403.00MHz Type=RS41-SGP Radiosonde Tracker +Info: 403MHz@gmail.com
EA4EKH-12U02301022022-12-05 23:54:4340.6389-3.5315915249878Clb=4.3m/s p=273.4hPa t=-53.9C h=68.4% 403.000MHz Type=RS41-SGP rdzTTGOsonde
LETO2-14U02301022022-12-05 23:54:3540.6385-3.5317721229854Clb=3.9m/s p=274.3hPa t=-53.6C h=79.4% calibration 98% 403.00MHz Type=RS41-SGP Radiosonde Tracker +Info: 403MHz@gmail.com
EA4GBR-10U02301022022-12-05 23:54:2740.6384-3.5318621209841Clb=3.3m/s p=275.0hPa t=-53.5C h=67.4% 403.000MHz Type=RS41-SGP rdzTTGOsonde
LETO2-14U02301022022-12-05 23:54:2540.6382-3.5319123309833Clb=3.2m/s p=275.2hPa t=-53.4C h=79.3% calibration 98% 403.00MHz Type=RS41-SGP batt=2.7V Radiosonde Tracker +Info: 403MHz@gmail.com
LETO2-14U02301022022-12-05 23:54:1540.6378-3.5321322309810Clb=3.7m/s p=276.3hPa t=-53.2C h=78.4% calibration 98% 403.00MHz Type=RS41-SGP Radiosonde Tracker +Info: 403MHz@gmail.com
EA4EKH-11U02301022022-12-05 23:54:1240.6376-3.532217289799Clb=4.6m/s t=-53.2C h=65.7% p=276.7hPa 403.000 MHz Type=RS41-SGP ser=U0230102 Radiosonde
EA4EKH-12U02301022022-12-05 23:54:0940.6376-3.532218289799Clb=4.6m/s p=276.7hPa t=-53.2C h=65.7% 403.000MHz Type=RS41-SGP rdzTTGOsonde
LETO2-14U02301022022-12-05 23:54:0540.6374-3.532222269788Clb=3.6m/s p=277.1hPa t=-53.0C h=76.2% calibration 98% 403.00MHz Type=RS41-SGP Radiosonde Tracker +Info: 403MHz@gmail.com
LETO2-14U02301022022-12-05 23:53:4940.6368-3.5324420289751Clb=2.9m/s p=278.7hPa t=-52.7C h=74.6% calibration 98% 403.00MHz Type=RS41-SGP batt=2.7V Radiosonde Tracker +Info: 403MHz@gmail.com
EA4GBR-10U02301022022-12-05 23:53:4840.6368-3.5324421289751Clb=3.0m/s p=278.8hPa t=-52.7C h=63.7% 403.000MHz Type=RS41-SGP rdzTTGOsonde
LETO2-14U02301022022-12-05 23:53:4140.6364-3.5325611319730Clb=3.3m/s p=279.7hPa t=-52.5C h=77.3% calibration 98% 403.00MHz Type=RS41-SGP Radiosonde Tracker +Info: 403MHz@gmail.com
EA4EKH-12U02301022022-12-05 23:53:3740.6363-3.5325813309726Clb=4.0m/s p=279.9hPa t=-52.5C h=66.6% 403.000MHz Type=RS41-SGP rdzTTGOsonde
LETO2-14U02301022022-12-05 23:53:2940.6359-3.5326812309708Clb=4.1m/s p=280.6hPa t=-52.3C h=78.2% calibration 98% 403.00MHz Type=RS41-SGP Radiosonde Tracker +Info: 403MHz@gmail.com
EA4EKH-11U02301022022-12-05 23:53:2240.6356-3.5327610249690Clb=4.0m/s t=-52.2C h=68.7% p=281.4hPa 403.000 MHz Type=RS41-SGP ser=U0230102 Radiosonde
LETO2-14U02301022022-12-05 23:53:1640.6354-3.5328114289679Clb=3.4m/s p=281.9hPa t=-52.0C h=80.4% calibration 98% 403.00MHz Type=RS41-SGP TxPastBurst=8h30m batt=2.7V Radiosonde Tracker +Info: 403MHz@gmail.com
EA4EKH-12U02301022022-12-05 23:53:0340.6348-3.5330114289650Clb=3.7m/s p=283.2hPa t=-51.8C h=68.4% 403.000MHz Type=RS41-SGP rdzTTGOsonde
EA4GBR-10U02301022022-12-05 23:52:5840.6346-3.533059269639Clb=3.9m/s p=283.7hPa t=-51.7C h=68.7% 403.000MHz Type=RS41-SGP rdzTTGOsonde
EA4EKH-12U02301022022-12-05 23:52:3040.6335-3.5334721289577Clb=3.0m/s p=286.4hPa t=-51.2C h=69.4% 403.000MHz Type=RS41-SGP rdzTTGOsonde
LETO2-14U02301022022-12-05 23:52:2140.6332-3.533617309558Clb=3.7m/s p=287.1hPa t=-50.9C h=80.9% calibration 98% 403.00MHz Type=RS41-SGP Radiosonde Tracker +Info: 403MHz@gmail.com
EA4GBR-10U02301022022-12-05 23:52:2040.6332-3.533617309558Clb=3.7m/s p=287.2hPa t=-51.0C h=69.9% 403.000MHz Type=RS41-SGP rdzTTGOsonde
LETO2-14U02301022022-12-05 23:52:0540.6325-3.533816289527Clb=3.4m/s p=288.5hPa t=-50.6C h=80.1% calibration 98% 403.00MHz Type=RS41-SGP Radiosonde Tracker +Info: 403MHz@gmail.com
EA4EKH-12U02301022022-12-05 23:51:5640.6321-3.5340726289501Clb=2.9m/s p=289.7hPa t=-50.5C h=68.8% 403.000MHz Type=RS41-SGP rdzTTGOsonde
EA4EKH-11U02301022022-12-05 23:51:4740.6314-3.5344519309461Clb=3.5m/s t=-50.1C h=68.0% p=291.4hPa 403.000 MHz Type=RS41-SGP ser=U0230102 Radiosonde
EA4GBR-10U02301022022-12-05 23:51:4340.6312-3.5345122309455Clb=3.9m/s p=291.7hPa t=-50.0C h=67.6% 403.000MHz Type=RS41-SGP rdzTTGOsonde
EA4EKH-12U02301022022-12-05 23:51:3540.6307-3.5348127289426Clb=3.3m/s p=293.0hPa t=-49.8C h=67.1% 403.000MHz Type=RS41-SGP rdzTTGOsonde
EA4GBR-10U02301022022-12-05 23:51:2240.6299-3.535327309382Clb=3.3m/s p=295.0hPa t=-49.3C h=66.7% 403.000MHz Type=RS41-SGP rdzTTGOsonde
EA4EKH-11U02301022022-12-05 23:51:1740.6293-3.5355823309354Clb=3.0m/s t=-49.1C h=64.7% p=296.3hPa 403.000 MHz Type=RS41-SGP ser=U0230102 Radiosonde
LETO2-14U02301022022-12-05 23:51:1640.6286-3.5360421289312Clb=3.3m/s p=298.1hPa t=-48.6C h=71.3% calibration 98% 403.00MHz Type=RS41-SGP Radiosonde Tracker +Info: 403MHz@gmail.com
EA4EKH-11U02301022022-12-05 23:51:1540.6275-3.5367330289248Clb=3.4m/s t=-48.1C h=65.5% p=301.1hPa 403.000 MHz Type=RS41-SGP ser=U0230102 Radiosonde
EA4GBR-10U02301022022-12-05 23:51:1440.6259-3.5377535289158Clb=3.2m/s p=305.2hPa t=-47.3C h=61.4% 403.000MHz Type=RS41-SGP rdzTTGOsonde
LETO2-14U02301022022-12-05 23:51:1040.625-3.5384333309101Clb=2.7m/s p=307.8hPa t=-46.8C h=69.2% calibration 98% 403.00MHz Type=RS41-SGP Radiosonde Tracker +Info: 403MHz@gmail.com
EA4GBR-10U02301022022-12-05 23:51:0440.6246-3.5386629309085Clb=3.5m/s p=308.5hPa t=-46.7C h=60.6% 403.000MHz Type=RS41-SGP rdzTTGOsonde
EA4EKH-12U02301022022-12-05 23:50:5840.6243-3.5389836309064Clb=4.0m/s p=309.5hPa t=-46.5C h=60.3% 403.000MHz Type=RS41-SGP rdzTTGOsonde
EA4EKH-11U02301022022-12-05 23:50:4340.6236-3.5394531269030Clb=3.8m/s t=-46.2C h=59.4% p=311.1hPa 403.000 MHz Type=RS41-SGP ser=U0230102 Radiosonde
EA4GBR-10U02301022022-12-05 23:50:3340.6233-3.5397132339009Clb=3.7m/s p=312.1hPa t=-46.0C h=60.4% 403.000MHz Type=RS41-SGP rdzTTGOsonde
LETO2-14U02301022022-12-05 23:50:2640.6229-3.5400134318993Clb=3.8m/s p=312.9hPa t=-45.8C h=69.0% calibration 98% 403.00MHz Type=RS41-SGP Radiosonde Tracker +Info: 403MHz@gmail.com
EA4EKH-12U02301022022-12-05 23:50:2540.6229-3.5400135318992Clb=3.8m/s p=312.9hPa t=-45.8C h=60.4% 403.000MHz Type=RS41-SGP rdzTTGOsonde
LETO2-14U02301022022-12-05 23:50:1340.6224-3.5404230318963Clb=3.6m/s p=314.2hPa t=-45.5C h=70.3% calibration 98% 403.00MHz Type=RS41-SGP Radiosonde Tracker +Info: 403MHz@gmail.com
EA4EKH-12U02301022022-12-05 23:49:5240.6217-3.5410436308921Clb=3.5m/s p=316.2hPa t=-45.1C h=62.0% 403.000MHz Type=RS41-SGP rdzTTGOsonde
EA4GBR-10U02301022022-12-05 23:49:4740.6214-3.5412834338908Clb=3.5m/s p=316.9hPa t=-45.0C h=62.8% 403.000MHz Type=RS41-SGP rdzTTGOsonde
EA4EKH-12U02301022022-12-05 23:49:2240.6203-3.542240318852Clb=2.8m/s p=319.4hPa t=-44.5C h=63.9% 403.000MHz Type=RS41-SGP rdzTTGOsonde
EA4GBR-10U02301022022-12-05 23:49:1240.6199-3.5425731358832Clb=4.0m/s p=320.4hPa t=-44.3C h=62.4% 403.000MHz Type=RS41-SGP rdzTTGOsonde
LETO2-14U02301022022-12-05 23:49:1140.6198-3.5426230338828Clb=3.0m/s p=320.6hPa t=-44.2C h=70.8% calibration 98% 403.00MHz Type=RS41-SGP batt=2.7V Radiosonde Tracker +Info: 403MHz@gmail.com
EA4EKH-11U02301022022-12-05 23:49:0440.6194-3.5429635338806Clb=3.2m/s t=-44.1C h=61.9% p=321.7hPa 403.000 MHz Type=RS41-SGP ser=U0230102 Radiosonde
EA4EKH-12U02301022022-12-05 23:48:4840.6189-3.5434331318777Clb=3.7m/s p=323.1hPa t=-43.8C h=60.6% 403.000MHz Type=RS41-SGP rdzTTGOsonde
EA4GBR-10U02301022022-12-05 23:48:3640.6184-3.5438635338751Clb=3.1m/s p=324.4hPa t=-43.5C h=60.4% 403.000MHz Type=RS41-SGP rdzTTGOsonde
EA4EKH-12U02301022022-12-05 23:48:1340.6174-3.5446840318702Clb=4.4m/s p=326.7hPa t=-43.1C h=59.2% 403.000MHz Type=RS41-SGP rdzTTGOsonde
EA4GBR-10U02301022022-12-05 23:47:5540.6165-3.5455840338649Clb=4.3m/s p=329.2hPa t=-42.6C h=59.8% 403.000MHz Type=RS41-SGP rdzTTGOsonde
EA4EKH-12U02301022022-12-05 23:47:5040.6161-3.54631398627Clb=4.2m/s p=330.3hPa t=-42.4C h=59.5% 403.000MHz Type=RS41-SGP rdzTTGOsonde
EA4EKH-11U02301022022-12-05 23:47:3940.6153-3.5467233358586Clb=3.5m/s t=-42.0C h=60.4% p=332.3hPa 403.000 MHz Type=RS41-SGP ser=U0230102 Radiosonde
EA4EKH-12U02301022022-12-05 23:47:2940.6147-3.5472940338555Clb=4.0m/s p=333.8hPa t=-41.7C h=60.3% 403.000MHz Type=RS41-SGP rdzTTGOsonde
EA4GBR-10U02301022022-12-05 23:47:2840.6146-3.5473638358552Clb=3.0m/s p=334.0hPa t=-41.7C h=60.6% 403.000MHz Type=RS41-SGP rdzTTGOsonde
LETO2-14U02301022022-12-05 23:47:1140.6134-3.5485331318489Clb=3.6m/s p=337.1hPa t=-41.1C calibration 98% 403.00MHz Type=RS41-SGP Radiosonde Tracker +Info: 403MHz@gmail.com
EA4EKH-12U02301022022-12-05 23:47:0740.6133-3.5486433338482Clb=3.8m/s p=337.4hPa t=-41.0C h=60.6% 403.000MHz Type=RS41-SGP rdzTTGOsonde
EA4GBR-10U02301022022-12-05 23:47:0540.6131-3.5487634358475Clb=3.0m/s p=337.8hPa t=-41.0C h=60.7% 403.000MHz Type=RS41-SGP rdzTTGOsonde
LETO2-14U02301022022-12-05 23:47:0040.6127-3.5491838378453Clb=4.1m/s p=338.8hPa t=-40.7C calibration 96% 403.00MHz Type=RS41-SGP Radiosonde Tracker +Info: 403MHz@gmail.com
EA4EKH-12U02301022022-12-05 23:46:5040.6117-3.5500335358407Clb=4.0m/s p=341.2hPa t=-40.4C h=57.3% 403.000MHz Type=RS41-SGP rdzTTGOsonde
EA4GBR-10U02301022022-12-05 23:46:4940.611-3.5507234398371Clb=4.2m/s p=343.0hPa t=-40.0C h=56.1% 403.000MHz Type=RS41-SGP rdzTTGOsonde
EA4GBR-10U02301022022-12-05 23:46:4840.6093-3.5520533378298Clb=4.4m/s p=346.7hPa t=-39.4C h=59.2% 403.000MHz Type=RS41-SGP rdzTTGOsonde
EA4GBR-10U02301022022-12-05 23:46:4640.6077-3.5535232418225Clb=3.2m/s p=350.4hPa t=-38.7C h=66.0% 403.000MHz Type=RS41-SGP rdzTTGOsonde
EA4EKH-12U02301022022-12-05 23:46:4040.6069-3.55432358198Clb=2.7m/s p=351.7hPa t=-38.5C h=64.9% 403.000MHz Type=RS41-SGP rdzTTGOsonde
EA4EKH-11U02301022022-12-05 23:46:2440.6058-3.554925358152Clb=2.7m/s t=-38.1C h=64.3% p=354.1hPa 403.000 MHz Type=RS41-SGP ser=U0230102 Radiosonde
EA4GBR-10U02301022022-12-05 23:46:2340.6058-3.554927378152Clb=2.7m/s p=354.1hPa t=-38.1C h=64.3% 403.000MHz Type=RS41-SGP rdzTTGOsonde
EA4EKH-12U02301022022-12-05 23:46:1040.6052-3.555432418124Clb=3.5m/s p=355.6hPa t=-37.8C h=63.2% 403.000MHz Type=RS41-SGP rdzTTGOsonde
EA4GBR-10U02301022022-12-05 23:45:5040.6041-3.5562129398079Clb=3.6m/s p=357.9hPa t=-37.4C h=65.4% 403.000MHz Type=RS41-SGP rdzTTGOsonde
EA4EKH-12U02301022022-12-05 23:45:3940.6034-3.556628398055Clb=2.9m/s p=359.1hPa t=-37.2C h=66.4% 403.000MHz Type=RS41-SGP rdzTTGOsonde
EA4EKH-11U02301022022-12-05 23:45:3640.6031-3.5567829398045Clb=3.5m/s t=-37.1C h=66.8% p=359.6hPa 403.000 MHz Type=RS41-SGP ser=U0230102 Radiosonde
LETO2-14U02301022022-12-05 23:45:3440.6031-3.5568532398042Clb=2.8m/s t=-37.0C calibration 96% 403.00MHz Type=RS41-SGP Radiosonde Tracker +Info: 403MHz@gmail.com
LETO2-14U02301022022-12-05 23:45:2440.6026-3.5572626438021Clb=3.9m/s t=-36.8C calibration 94% 403.00MHz Type=RS41-SGP Radiosonde Tracker +Info: 403MHz@gmail.com
EA4GBR-10U02301022022-12-05 23:45:1640.6021-3.5575430418004Clb=3.6m/s p=361.8hPa t=-36.7C h=65.3% 403.000MHz Type=RS41-SGP rdzTTGOsonde
EA4EKH-12U02301022022-12-05 23:45:0740.6017-3.5578428397984Clb=3.9m/s p=362.7hPa t=-36.6C h=66.6% 403.000MHz Type=RS41-SGP rdzTTGOsonde
EA4EKH-11U02301022022-12-05 23:44:4840.6003-3.558721417933Clb=3.2m/s t=-36.2C h=66.8% p=365.5hPa 403.000 MHz Type=RS41-SGP ser=U0230102 Radiosonde
EA4GBR-10U02301022022-12-05 23:44:4140.6001-3.558825437927Clb=3.8m/s p=365.8hPa t=-36.1C h=65.8% 403.000MHz Type=RS41-SGP rdzTTGOsonde
EA4EKH-12U02301022022-12-05 23:44:3540.5997-3.5590230377913Clb=4.1m/s p=366.5hPa t=-36.0C h=64.3% 403.000MHz Type=RS41-SGP rdzTTGOsonde
EA4GBR-10U02301022022-12-05 23:44:0840.598-3.5600124447851Clb=4.1m/s p=369.8hPa t=-35.5C h=61.7% 403.000MHz Type=RS41-SGP rdzTTGOsonde
EA4EKH-12U02301022022-12-05 23:44:0440.5977-3.5601620417842Clb=3.0m/s p=370.3hPa t=-35.4C h=67.3% 403.000MHz Type=RS41-SGP rdzTTGOsonde
EA4EKH-11U02301022022-12-05 23:44:0140.5974-3.560325397832Clb=2.9m/s t=-35.3C h=69.2% p=370.8hPa 403.000 MHz Type=RS41-SGP ser=U0230102 Radiosonde
EA4GSU-11U02301022022-12-05 23:44:0040.5971-3.5604822437822Clb=3.7m/s t=-35.2C h=70.0% p=371.3hPa 403.000 MHz Type=RS41-SGP Radiosonde auto_rx v1.5.3
EA4EKH-12U02301022022-12-05 23:43:4340.5957-3.5611925437776Clb=3.6m/s p=373.8hPa t=-34.8C h=74.4% 403.000MHz Type=RS41-SGP rdzTTGOsonde
EA4GBR-10U02301022022-12-05 23:43:3740.5951-3.5615523467756Clb=2.9m/s p=374.8hPa t=-34.7C h=76.6% 403.000MHz Type=RS41-SGP rdzTTGOsonde
EA4EKH-11U02301022022-12-05 23:43:3140.5942-3.5620120467729Clb=3.9m/s t=-34.4C h=80.1% p=376.3hPa 403.000 MHz Type=RS41-SGP ser=U0230102 Radiosonde
EA4EKH-12U02301022022-12-05 23:43:2340.5935-3.5623622487709Clb=2.9m/s p=377.3hPa t=-34.4C h=81.2% 403.000MHz Type=RS41-SGP rdzTTGOsonde
EA4GBR-10U02301022022-12-05 23:43:0840.5919-3.5631521447657Clb=3.2m/s p=380.1hPa t=-34.0C h=77.0% 403.000MHz Type=RS41-SGP rdzTTGOsonde
EA4EKH-12U02301022022-12-05 23:43:0240.5912-3.5634519447636Clb=3.6m/s p=381.3hPa t=-33.8C h=76.9% 403.000MHz Type=RS41-SGP rdzTTGOsonde
EA4GSU-11U02301022022-12-05 23:43:0040.5908-3.5636420437622Clb=3.1m/s t=-33.7C h=76.7% p=382.0hPa 403.000 MHz Type=RS41-SGP Radiosonde auto_rx v1.5.3
EA4EKH-11U02301022022-12-05 23:42:5940.5908-3.5636420437622Clb=3.1m/s t=-33.7C h=76.7% p=382.0hPa 403.000 MHz Type=RS41-SGP ser=U0230102 Radiosonde
EA4GBR-10U02301022022-12-05 23:42:4640.5895-3.564216437581Clb=4.3m/s p=384.3hPa t=-33.3C h=73.9% 403.000MHz Type=RS41-SGP rdzTTGOsonde
EA4EKH-12U02301022022-12-05 23:42:4240.5891-3.5643725397567Clb=3.1m/s p=385.1hPa t=-33.2C h=74.1% 403.000MHz Type=RS41-SGP rdzTTGOsonde
LETO2-14U02301022022-12-05 23:42:3640.5884-3.5646917437540Clb=4.2m/s t=-32.9C calibration 94% 403.00MHz Type=RS41-SGP batt=2.7V Radiosonde Tracker +Info: 403MHz@gmail.com
EA4EKH-11U02301022022-12-05 23:42:2940.5877-3.5650822397513Clb=3.3m/s t=-32.8C h=71.8% p=388.0hPa 403.000 MHz Type=RS41-SGP ser=U0230102 Radiosonde
LETO2-14U02301022022-12-05 23:42:2840.5854-3.5659117417436Clb=2.7m/s t=-32.1C calibration 94% 403.00MHz Type=RS41-SGP Radiosonde Tracker +Info: 403MHz@gmail.com
EA4GBR-10U02301022022-12-05 23:42:2740.5853-3.5659518397432Clb=3.4m/s p=392.4hPa t=-32.1C h=71.9% 403.000MHz Type=RS41-SGP rdzTTGOsonde
EA4GBR-10U02301022022-12-05 23:42:2440.5832-3.5667114377362Clb=2.3m/s p=396.4hPa t=-31.7C h=71.2% 403.000MHz Type=RS41-SGP rdzTTGOsonde
EA4EKH-12U02301022022-12-05 23:42:2240.583-3.5667821397355Clb=3.6m/s p=396.7hPa t=-31.6C h=70.5% 403.000MHz Type=RS41-SGP rdzTTGOsonde
EA4EKH-11U02301022022-12-05 23:42:0540.5816-3.5673816397305Clb=3.4m/s t=-31.3C h=70.9% p=399.6hPa 403.000 MHz Type=RS41-SGP ser=U0230102 Radiosonde
EA4GBR-10U02301022022-12-05 23:41:5840.5812-3.5675116357293Clb=3.4m/s p=400.2hPa t=-31.2C h=71.3% 403.000MHz Type=RS41-SGP rdzTTGOsonde
EA4EKH-12U02301022022-12-05 23:41:5640.5812-3.5675519357289Clb=4.0m/s p=400.4hPa t=-31.2C h=72.4% 403.000MHz Type=RS41-SGP rdzTTGOsonde
EA4GBR-10U02301022022-12-05 23:41:2740.5792-3.5681910337218Clb=4.3m/s p=404.5hPa t=-30.8C h=81.1% 403.000MHz Type=RS41-SGP rdzTTGOsonde
EA4EKH-12U02301022022-12-05 23:41:2540.5792-3.5681910337218Clb=4.3m/s p=404.5hPa t=-30.8C h=81.1% 403.000MHz Type=RS41-SGP rdzTTGOsonde
LETO2-14U02301022022-12-05 23:41:2040.5789-3.5682812397205Clb=2.8m/s t=-30.7C calibration 94% 403.00MHz Type=RS41-SGP Radiosonde Tracker +Info: 403MHz@gmail.com
EA4EKH-11U02301022022-12-05 23:41:1840.5788-3.56839417202Clb=3.3m/s t=-30.7C h=81.3% p=405.4hPa 403.000 MHz Type=RS41-SGP ser=U0230102 Radiosonde
EA4EKH-12U02301022022-12-05 23:40:5640.5774-3.568591417149Clb=3.0m/s p=408.4hPa t=-30.3C h=81.3% 403.000MHz Type=RS41-SGP rdzTTGOsonde
EA4GBR-10U02301022022-12-05 23:40:5240.5771-3.568581397140Clb=3.8m/s p=409.0hPa t=-30.2C h=81.4% 403.000MHz Type=RS41-SGP rdzTTGOsonde
EA4GSU-11U02301022022-12-05 23:40:4140.5761-3.56868357357105Clb=3.5m/s t=-30.2C h=93.9% p=411.1hPa 403.000 MHz Type=RS41-SGP Radiosonde auto_rx v1.5.3
EA4EKH-11U02301022022-12-05 23:40:3240.5759-3.568694337095Clb=3.8m/s t=-30.2C h=94.2% p=411.6hPa 403.000 MHz Type=RS41-SGP ser=U0230102 Radiosonde
EA4EKH-12U02301022022-12-05 23:40:2440.5754-3.5687914357076Clb=3.9m/s p=412.6hPa t=-30.2C h=96.5% 403.000MHz Type=RS41-SGP rdzTTGOsonde
EA4GBR-10U02301022022-12-05 23:40:1640.5749-3.5689353417055Clb=4.7m/s p=413.8hPa t=-29.9C h=95.6% 403.000MHz Type=RS41-SGP rdzTTGOsonde
EA4GSU-11U02301022022-12-05 23:40:0040.5737-3.568541286981Clb=2.6m/s t=-29.2C h=94.4% p=418.1hPa 403.000 MHz Type=RS41-SGP Radiosonde auto_rx v1.5.3
EA4EKH-12U02301022022-12-05 23:39:5840.5737-3.568533286981Clb=2.6m/s p=418.1hPa t=-29.2C h=94.4% 403.000MHz Type=RS41-SGP rdzTTGOsonde
EA4EKH-11U02301022022-12-05 23:39:5340.5732-3.56847348466959Clb=3.9m/s t=-29.0C h=95.7% p=419.5hPa 403.000 MHz Type=RS41-SGP ser=U0230102 Radiosonde
EA4GBR-10U02301022022-12-05 23:39:4940.5728-3.568433466948Clb=2.5m/s p=420.1hPa t=-29.0C h=97.9% 403.000MHz Type=RS41-SGP rdzTTGOsonde
EA4EKH-12U02301022022-12-05 23:39:3840.5719-3.56826345376902Clb=3.9m/s p=422.7hPa t=-28.8C h=94.7% 403.000MHz Type=RS41-SGP rdzTTGOsonde
LETO2-14U02301022022-12-05 23:39:3740.5717-3.56821353396897Clb=2.8m/s t=-28.6C calibration 94% 403.00MHz Type=RS41-SGP Radiosonde Tracker +Info: 403MHz@gmail.com
LETO2-14U02301022022-12-05 23:39:3140.5711-3.56828357396877Clb=1.0m/s t=-28.6C calibration 94% 403.00MHz Type=RS41-SGP batt=2.9V Radiosonde Tracker +Info: 403MHz@gmail.com
EA4GBR-10U02301022022-12-05 23:39:2540.5706-3.568223436858Clb=4.9m/s p=425.4hPa t=-28.5C h=96.1% 403.000MHz Type=RS41-SGP rdzTTGOsonde
EA4EKH-11U02301022022-12-05 23:39:2340.5701-3.56819353286836Clb=3.9m/s t=-28.4C h=96.7% p=426.7hPa 403.000 MHz Type=RS41-SGP ser=U0230102 Radiosonde
LETO2-14U02301022022-12-05 23:39:2040.57-3.56818360336832Clb=4.5m/s t=-28.3C calibration 92% 403.00MHz Type=RS41-SGP Radiosonde Tracker +Info: 403MHz@gmail.com
EA4EKH-12U02301022022-12-05 23:39:1840.5699-3.568195316825Clb=3.0m/s p=427.4hPa t=-28.3C h=97.8% 403.000MHz Type=RS41-SGP rdzTTGOsonde
LETO2-14U02301022022-12-05 23:39:0940.569-3.56821359266787Clb=6.0m/s t=-27.9C calibration 92% 403.00MHz Type=RS41-SGP Radiosonde Tracker +Info: 403MHz@gmail.com
EA4GBR-10U02301022022-12-05 23:39:0240.5684-3.5682216466750Clb=3.9m/s p=431.7hPa t=-27.6C h=98.6% 403.000MHz Type=RS41-SGP rdzTTGOsonde
LETO2-14U02301022022-12-05 23:39:0040.5681-3.5682910356742Clb=3.1m/s t=-27.5C calibration 92% 403.00MHz Type=RS41-SGP batt=2.9V Radiosonde Tracker +Info: 403MHz@gmail.com
EA4EKH-12U02301022022-12-05 23:38:5640.5679-3.56831353356728Clb=5.3m/s p=433.1hPa t=-27.4C h=99.7% 403.000MHz Type=RS41-SGP rdzTTGOsonde
EA4EKH-11U02301022022-12-05 23:38:5140.5672-3.56804338396692Clb=4.6m/s t=-27.1C h=97.0% p=435.2hPa 403.000 MHz Type=RS41-SGP ser=U0230102 Radiosonde
EA4GBR-10U02301022022-12-05 23:38:3840.5662-3.568012316645Clb=4.3m/s p=438.1hPa t=-26.7C h=96.3% 403.000MHz Type=RS41-SGP rdzTTGOsonde
EA4EKH-12U02301022022-12-05 23:38:3540.566-3.568011396633Clb=4.9m/s p=438.9hPa t=-26.6C h=96.2% 403.000MHz Type=RS41-SGP rdzTTGOsonde
EA4EKH-11U02301022022-12-05 23:38:2040.5643-3.567933356548Clb=4.6m/s t=-25.8C h=90.3% p=444.0hPa 403.000 MHz Type=RS41-SGP ser=U0230102 Radiosonde
EA4EKH-12U02301022022-12-05 23:38:1640.564-3.56792355376537Clb=4.2m/s p=444.8hPa t=-25.7C h=92.1% 403.000MHz Type=RS41-SGP rdzTTGOsonde
EA4GBR-10U02301022022-12-05 23:38:1540.5639-3.5679352436533Clb=3.1m/s p=445.0hPa t=-25.7C h=92.7% 403.000MHz Type=RS41-SGP rdzTTGOsonde
EA4EKH-12U02301022022-12-05 23:37:5940.562-3.56793357416442Clb=3.5m/s p=450.6hPa t=-24.8C h=86.7% 403.000MHz Type=RS41-SGP rdzTTGOsonde
EA4EKH-12U02301022022-12-05 23:37:5840.56-3.56766349396361Clb=4.0m/s p=455.6hPa t=-24.0C h=81.3% 403.000MHz Type=RS41-SGP rdzTTGOsonde
EA4EKH-11U02301022022-12-05 23:37:5140.5584-3.56754358376290Clb=3.9m/s t=-23.4C h=78.6% p=460.1hPa 403.000 MHz Type=RS41-SGP ser=U0230102 Radiosonde
EA4EKH-12U02301022022-12-05 23:37:4840.5581-3.5675353416278Clb=2.3m/s p=460.7hPa t=-23.3C h=78.9% 403.000MHz Type=RS41-SGP rdzTTGOsonde
EA4GBR-10U02301022022-12-05 23:37:3640.5573-3.5674814356244Clb=3.2m/s p=462.9hPa t=-22.9C h=77.6% 403.000MHz Type=RS41-SGP rdzTTGOsonde
EA4EKH-12U02301022022-12-05 23:37:1740.5561-3.567563376185Clb=5.6m/s p=466.4hPa t=-22.4C h=73.8% 403.000MHz Type=RS41-SGP rdzTTGOsonde
EA4EKH-11U02301022022-12-05 23:37:0740.5555-3.567563316149Clb=3.5m/s t=-22.0C h=72.4% p=468.7hPa 403.000 MHz Type=RS41-SGP ser=U0230102 Radiosonde
EA4GBR-10U02301022022-12-05 23:36:5940.5551-3.567614436133Clb=6.3m/s p=469.8hPa t=-21.9C h=71.4% 403.000MHz Type=RS41-SGP rdzTTGOsonde
EA4EKH-12U02301022022-12-05 23:36:4840.5544-3.56752356416094Clb=3.1m/s p=472.4hPa t=-21.5C h=70.9% 403.000MHz Type=RS41-SGP rdzTTGOsonde
EA4GBR-10U02301022022-12-05 23:36:2640.553-3.567444336026Clb=2.8m/s p=477.0hPa t=-20.9C h=70.7% 403.000MHz Type=RS41-SGP rdzTTGOsonde
EA4EKH-11U02301022022-12-05 23:36:2140.5527-3.56742343246010Clb=5.7m/s t=-20.8C h=70.2% p=478.0hPa 403.000 MHz Type=RS41-SGP ser=U0230102 Radiosonde
EA4EKH-12U02301022022-12-05 23:36:1740.5526-3.56737344316001Clb=5.6m/s p=478.5hPa t=-20.7C h=69.4% 403.000MHz Type=RS41-SGP rdzTTGOsonde
EA4GBR-10U02301022022-12-05 23:35:5540.5511-3.56694351315922Clb=4.1m/s p=483.5hPa t=-20.3C h=76.8% 403.000MHz Type=RS41-SGP rdzTTGOsonde
EA4EKH-12U02301022022-12-05 23:35:5240.5508-3.56687345315911Clb=4.4m/s p=484.3hPa t=-20.2C h=78.5% 403.000MHz Type=RS41-SGP rdzTTGOsonde
EA4EKH-11U02301022022-12-05 23:35:4540.55-3.566753305872Clb=4.3m/s t=-20.0C h=76.7% p=486.8hPa 403.000 MHz Type=RS41-SGP ser=U0230102 Radiosonde
EA4GBR-10U02301022022-12-05 23:35:3540.5494-3.5667354355834Clb=4.4m/s p=489.2hPa t=-19.7C h=76.2% 403.000MHz Type=RS41-SGP rdzTTGOsonde
EA4EKH-12U02301022022-12-05 23:35:3240.5492-3.56667353305821Clb=4.1m/s p=490.1hPa t=-19.6C h=77.3% 403.000MHz Type=RS41-SGP rdzTTGOsonde
EA4GBR-10U02301022022-12-05 23:35:1440.5479-3.56635354305729Clb=5.2m/s p=496.3hPa t=-18.9C h=74.2% 403.000MHz Type=RS41-SGP rdzTTGOsonde
EA4EKH-11U02301022022-12-05 23:35:1340.5477-3.56632347285719Clb=4.8m/s t=-18.8C h=73.8% p=496.9hPa 403.000 MHz Type=RS41-SGP ser=U0230102 Radiosonde
EA4EKH-12U02301022022-12-05 23:35:1140.5477-3.56629342305715Clb=5.1m/s p=497.1hPa t=-18.8C h=73.6% 403.000MHz Type=RS41-SGP rdzTTGOsonde
EA4GBR-10U02301022022-12-05 23:34:5440.5464-3.56592344335623Clb=4.4m/s p=503.3hPa t=-18.4C h=83.3% 403.000MHz Type=RS41-SGP rdzTTGOsonde
EA4EKH-12U02301022022-12-05 23:34:5140.5463-3.56586338285615Clb=5.5m/s p=503.9hPa t=-18.4C h=82.7% 403.000MHz Type=RS41-SGP rdzTTGOsonde
EA4EKH-11U02301022022-12-05 23:34:4240.5457-3.56561342315565Clb=5.2m/s t=-18.0C h=81.7% p=507.2hPa 403.000 MHz Type=RS41-SGP ser=U0230102 Radiosonde
EA4EKH-12U02301022022-12-05 23:34:3040.5449-3.56522347305513Clb=5.7m/s p=510.9hPa t=-17.5C h=80.0% 403.000MHz Type=RS41-SGP rdzTTGOsonde
EA4GBR-10U02301022022-12-05 23:34:2940.5449-3.56519342315507Clb=5.2m/s p=511.2hPa t=-17.4C h=79.9% 403.000MHz Type=RS41-SGP rdzTTGOsonde
EA4EKH-11U02301022022-12-05 23:34:1140.5436-3.56458343305421Clb=4.2m/s t=-16.7C h=75.9% p=517.2hPa 403.000 MHz Type=RS41-SGP ser=U0230102 Radiosonde
EA4EKH-12U02301022022-12-05 23:34:1040.5435-3.56456349285417Clb=4.7m/s p=517.5hPa t=-16.7C h=75.6% 403.000MHz Type=RS41-SGP rdzTTGOsonde
EA4GBR-10U02301022022-12-05 23:34:0640.5433-3.56452353245404Clb=4.7m/s p=518.3hPa t=-16.6C h=75.4% 403.000MHz Type=RS41-SGP rdzTTGOsonde
LETO2-14U02301022022-12-05 23:34:0540.5432-3.56449345225397Clb=3.0m/s t=-16.5C calibration 92% 403.00MHz Type=RS41-SGP Radiosonde Tracker +Info: 403MHz@gmail.com
LETO2-14U02301022022-12-05 23:34:0040.5429-3.56439343245379Clb=4.1m/s t=-16.3C calibration 90% 403.00MHz Type=RS41-SGP Radiosonde Tracker +Info: 403MHz@gmail.com
EA4EKH-12U02301022022-12-05 23:33:4940.5423-3.56408342285338Clb=3.8m/s p=522.7hPa t=-16.0C h=73.4% 403.000MHz Type=RS41-SGP rdzTTGOsonde
EA4GBR-10U02301022022-12-05 23:33:4240.5418-3.56397348245314Clb=3.7m/s p=524.6hPa t=-15.8C h=72.8% 403.000MHz Type=RS41-SGP rdzTTGOsonde
EA4EKH-11U02301022022-12-05 23:33:4040.5416-3.56391343195304Clb=3.2m/s t=-15.7C h=72.6% p=525.2hPa 403.000 MHz Type=RS41-SGP ser=U0230102 Radiosonde
EA4GSU-11U02301022022-12-05 23:33:3740.541-3.5637356225268Clb=3.6m/s t=-15.3C h=70.7% p=527.8hPa 403.000 MHz Type=RS41-SGP Radiosonde auto_rx v1.5.3
EA4EKH-12U02301022022-12-05 23:33:3040.54-3.56338347245203Clb=3.5m/s p=532.3hPa t=-14.7C h=68.2% 403.000MHz Type=RS41-SGP rdzTTGOsonde
EA4GSU-11U02301022022-12-05 23:33:2040.5395-3.56327340195164Clb=4.0m/s t=-14.4C h=67.7% p=534.9hPa 403.000 MHz Type=RS41-SGP Radiosonde auto_rx v1.5.3
EA4GBR-10U02301022022-12-05 23:33:1240.5392-3.56316346265151Clb=3.2m/s p=535.8hPa t=-14.3C h=67.6% 403.000MHz Type=RS41-SGP rdzTTGOsonde
EA4EKH-12U02301022022-12-05 23:33:0540.5389-3.563114205131Clb=3.6m/s p=537.3hPa t=-14.1C h=67.2% 403.000MHz Type=RS41-SGP rdzTTGOsonde
EA4EKH-11U02301022022-12-05 23:32:5140.5383-3.56296337245095Clb=2.9m/s t=-13.9C h=71.4% p=539.9hPa 403.000 MHz Type=RS41-SGP ser=U0230102 Radiosonde
EA4GBR-10U02301022022-12-05 23:32:4040.538-3.56285351265070Clb=3.1m/s p=541.6hPa t=-13.8C h=74.6% 403.000MHz Type=RS41-SGP rdzTTGOsonde
EA4GSU-11U02301022022-12-05 23:32:3940.5379-3.56281345265063Clb=2.9m/s t=-13.7C h=75.3% p=542.2hPa 403.000 MHz Type=RS41-SGP Radiosonde auto_rx v1.5.3
EA4EKH-12U02301022022-12-05 23:32:3540.5378-3.56279342285060Clb=4.4m/s p=542.4hPa t=-13.7C h=74.6% 403.000MHz Type=RS41-SGP rdzTTGOsonde
EA4GBR-10U02301022022-12-05 23:32:0840.5365-3.56237345304986Clb=4.1m/s p=547.7hPa t=-13.1C h=72.4% 403.000MHz Type=RS41-SGP rdzTTGOsonde
EA4EKH-12U02301022022-12-05 23:32:0740.5365-3.56234350304981Clb=4.3m/s p=548.0hPa t=-13.0C h=72.5% 403.000MHz Type=RS41-SGP rdzTTGOsonde
EA4GSU-11U02301022022-12-05 23:32:0040.536-3.56217344264954Clb=3.1m/s t=-12.8C h=72.0% p=550.0hPa 403.000 MHz Type=RS41-SGP Radiosonde auto_rx v1.5.3
EA4EKH-12U02301022022-12-05 23:31:4540.5351-3.56184345304909Clb=4.0m/s p=553.1hPa t=-12.6C h=72.5% 403.000MHz Type=RS41-SGP rdzTTGOsonde
EA4GBR-10U02301022022-12-05 23:31:4440.5351-3.56182343284905Clb=3.4m/s p=553.5hPa t=-12.6C h=74.4% 403.000MHz Type=RS41-SGP rdzTTGOsonde
EA4EKH-11U02301022022-12-05 23:31:3640.5345-3.56156348244873Clb=4.5m/s t=-12.5C h=75.3% p=555.7hPa 403.000 MHz Type=RS41-SGP ser=U0230102 Radiosonde
EA4GSU-11U02301022022-12-05 23:31:3040.534-3.56147332224845Clb=3.0m/s t=-12.3C h=74.2% p=557.6hPa 403.000 MHz Type=RS41-SGP Radiosonde auto_rx v1.5.3
EA4EKH-12U02301022022-12-05 23:31:2440.5339-3.56133335204829Clb=4.6m/s p=558.8hPa t=-12.2C h=73.0% 403.000MHz Type=RS41-SGP rdzTTGOsonde
EA4GBR-10U02301022022-12-05 23:31:2040.5337-3.56125353154814Clb=4.4m/s p=559.9hPa t=-12.0C h=71.5% 403.000MHz Type=RS41-SGP rdzTTGOsonde
EA4EKH-11U02301022022-12-05 23:31:0540.533-3.5612321154745Clb=4.6m/s t=-11.7C h=70.4% p=565.0hPa 403.000 MHz Type=RS41-SGP ser=U0230102 Radiosonde
EA4EKH-12U02301022022-12-05 23:31:0440.533-3.5612322174745Clb=4.6m/s p=565.0hPa t=-11.6C h=70.4% 403.000MHz Type=RS41-SGP rdzTTGOsonde
EA4GSU-11U02301022022-12-05 23:31:0040.5327-3.561346264719Clb=4.7m/s t=-11.5C h=70.4% p=567.1hPa 403.000 MHz Type=RS41-SGP Radiosonde auto_rx v1.5.3
EA4GBR-10U02301022022-12-05 23:30:5740.5326-3.561341244715Clb=3.7m/s p=567.4hPa t=-11.5C h=70.6% 403.000MHz Type=RS41-SGP rdzTTGOsonde
EA4EKH-12U02301022022-12-05 23:30:4340.5321-3.5613739154652Clb=4.7m/s p=571.8hPa t=-11.0C h=67.9% 403.000MHz Type=RS41-SGP rdzTTGOsonde
EA4EKH-11U02301022022-12-05 23:30:3440.5316-3.5615728224617Clb=2.7m/s t=-10.9C h=69.6% p=574.7hPa 403.000 MHz Type=RS41-SGP ser=U0230102 Radiosonde
EA4GBR-10U02301022022-12-05 23:30:3340.5316-3.5615729224617Clb=2.7m/s p=574.7hPa t=-10.9C h=69.6% 403.000MHz Type=RS41-SGP rdzTTGOsonde
LETO2-14U02301022022-12-05 23:30:3240.5315-3.5616321244609Clb=3.0m/s t=-10.8C calibration 80% 403.00MHz Type=RS41-SGP TxPastBurst=8h30m batt=2.9V Radiosonde Tracker +Info: 403MHz@gmail.com
EA4EKH-12U02301022022-12-05 23:30:2340.5312-3.5618330244583Clb=3.9m/s p=577.2hPa t=-10.7C h=69.5% 403.000MHz Type=RS41-SGP rdzTTGOsonde
LETO2-14U02301022022-12-05 23:30:2040.5309-3.5619412224570Clb=3.2m/s t=-10.5C calibration 76% 403.00MHz Type=RS41-SGP Radiosonde Tracker +Info: 403MHz@gmail.com
LETO2-14U02301022022-12-05 23:30:1040.5304-3.5621327174537Clb=3.2m/s t=-10.3C calibration 70% 403.00MHz Type=RS41-SGP Radiosonde Tracker +Info: 403MHz@gmail.com
EA4EKH-11U02301022022-12-05 23:30:0340.5301-3.5623323224511Clb=4.3m/s t=-10.3C h=71.5% p=582.7hPa 403.000 MHz Type=RS41-SGP ser=U0230102 Radiosonde
EA4EKH-12U02301022022-12-05 23:30:0240.5301-3.5623324244511Clb=4.3m/s p=582.7hPa t=-10.3C h=71.5% 403.000MHz Type=RS41-SGP rdzTTGOsonde
LETO2-14U02301022022-12-05 23:29:5440.5296-3.5625923244469Clb=4.2m/s t=-10.2C calibration 68% 403.00MHz Type=RS41-SGP batt=2.9V Radiosonde Tracker +Info: 403MHz@gmail.com
EA4GBR-10U02301022022-12-05 23:29:4540.5292-3.5627315264435Clb=5.4m/s p=588.3hPa t=-10.0C h=72.3% 403.000MHz Type=RS41-SGP rdzTTGOsonde
EA4EKH-12U02301022022-12-05 23:29:4140.5289-3.5628312304419Clb=2.8m/s p=589.6hPa t=-9.8C h=71.9% 403.000MHz Type=RS41-SGP rdzTTGOsonde
EA4EKH-11U02301022022-12-05 23:29:3240.5283-3.56304350204371Clb=5.0m/s t=-9.4C h=69.8% p=593.3hPa 403.000 MHz Type=RS41-SGP ser=U0230102 Radiosonde
LETO2-14U02301022022-12-05 23:29:3040.5282-3.56302343284367Clb=5.2m/s t=-9.3C calibration 62% 403.00MHz Type=RS41-SGP Radiosonde Tracker +Info: 403MHz@gmail.com
EA4GBR-10U02301022022-12-05 23:29:2240.5279-3.5630218134330Clb=6.6m/s p=596.4hPa t=-9.0C h=68.1% 403.000MHz Type=RS41-SGP rdzTTGOsonde
EA4EKH-12U02301022022-12-05 23:29:2140.5279-3.5630423194323Clb=5.7m/s p=596.7hPa t=-9.0C h=68.0% 403.000MHz Type=RS41-SGP rdzTTGOsonde
LETO2-14U02301022022-12-05 23:29:1640.5274-3.563315304292Clb=3.0m/s t=-8.8C calibration 58% 403.00MHz Type=RS41-SGP Radiosonde Tracker +Info: 403MHz@gmail.com
LETO2-14U02301022022-12-05 23:29:1540.5269-3.563493264263Clb=4.0m/s calibration 52% 403.00MHz Type=RS41-SGP batt=2.9V Radiosonde Tracker +Info: 403MHz@gmail.com
LETO2-14U02301022022-12-05 23:29:1240.5265-3.563526304242Clb=3.3m/s calibration 49% 403.00MHz Type=RS41-SGP Radiosonde Tracker +Info: 403MHz@gmail.com
EA4EKH-12U02301022022-12-05 23:29:1140.5265-3.563526334241Clb=3.3m/s p=603.4hPa t=-8.4C h=66.0% 403.000MHz Type=RS41-SGP rdzTTGOsonde
EA4GBR-10U02301022022-12-05 23:29:1040.5263-3.5635615354234Clb=3.7m/s p=603.9hPa t=-8.4C h=66.3% 403.000MHz Type=RS41-SGP rdzTTGOsonde
LETO2-14U02301022022-12-05 23:29:0340.5257-3.56375284200Clb=4.8m/s calibration 47% 403.00MHz Type=RS41-SGP Radiosonde Tracker +Info: 403MHz@gmail.com
LETO2-14U02301022022-12-05 23:28:5340.5251-3.563796244156Clb=5.0m/s calibration 45% 403.00MHz Type=RS41 batt=2.9V Radiosonde Tracker +Info: 403MHz@gmail.com
EA4EKH-12U02301022022-12-05 23:28:5140.525-3.563816244152Clb=3.8m/s p=610.2hPa t=-8.2C h=69.6% 403.000MHz Type=RS41-SGP rdzTTGOsonde
LETO2-14U02301022022-12-05 23:28:4640.5247-3.5639524354136Clb=3.4m/s calibration 43% 403.00MHz Type=RS41 Radiosonde Tracker +Info: 403MHz@gmail.com
EA4GBR-10U02301022022-12-05 23:28:4540.5247-3.56423414133Clb=3.5m/s p=611.7hPa t=-8.1C h=69.1% 403.000MHz Type=RS41-SGP rdzTTGOsonde
LETO2-14U02301022022-12-05 23:28:3640.5241-3.5642519354106Clb=4.6m/s calibration 43% 403.00MHz Type=RS41 Radiosonde Tracker +Info: 403MHz@gmail.com
LETO2-14U02301022022-12-05 23:28:2940.5236-3.5643814354083Clb=3.8m/s calibration 41% 403.00MHz Type=RS41 batt=2.9V Radiosonde Tracker +Info: 403MHz@gmail.com
EA4EKH-12U02301022022-12-05 23:28:2540.5234-3.5644521334075Clb=3.5m/s p=616.4hPa t=-8.3C h=77.8% 403.000MHz Type=RS41-SGP rdzTTGOsonde
LETO2-14U02301022022-12-05 23:28:1840.5229-3.564716374052Clb=3.2m/s calibration 37% 403.00MHz Type=RS41 Radiosonde Tracker +Info: 403MHz@gmail.com
EA4GBR-10U02301022022-12-05 23:28:1340.5226-3.5647914374042Clb=3.9m/s p=618.9hPa t=-8.4C h=82.8% 403.000MHz Type=RS41-SGP rdzTTGOsonde
LETO2-14U02301022022-12-05 23:28:1140.5224-3.5648611334031Clb=3.7m/s calibration 31% Type=RS41 Radiosonde Tracker +Info: 403MHz@gmail.com
LETO2-14U02301022022-12-05 23:28:0140.5217-3.5651216394004Clb=4.3m/s calibration 25% Type=RS41 batt=2.9V Radiosonde Tracker +Info: 403MHz@gmail.com
EA4EKH-12U02301022022-12-05 23:27:5940.5216-3.5651618354000Clb=3.8m/s p=622.2hPa t=-8.5C h=89.3% 403.000MHz Type=RS41-SGP rdzTTGOsonde
LETO2-14U02301022022-12-05 23:27:5540.5212-3.565311373982Clb=2.8m/s calibration 21% Type=RS41 Radiosonde Tracker +Info: 403MHz@gmail.com
EA4GBR-10U02301022022-12-05 23:27:4840.5206-3.5653812333962Clb=3.0m/s t=-8.4C 403.000MHz Type=RS41 rdzTTGOsonde
LETO2-14U02301022022-12-05 23:27:4740.5204-3.5654818353952Clb=2.7m/s calibration 19% Type=RS41 Radiosonde Tracker +Info: 403MHz@gmail.com
LETO2-14U02301022022-12-05 23:27:4040.5199-3.5656316353932Clb=3.3m/s calibration 15% Type=RS41 batt=2.9V Radiosonde Tracker +Info: 403MHz@gmail.com
EA4EKH-12U02301022022-12-05 23:27:3840.5198-3.5656618283929Clb=3.4m/s p=628.1hPa t=-8.1C h=90.5% 403.000MHz Type=RS41-SGP rdzTTGOsonde
EA4GSU-11U02301022022-12-05 23:27:3040.519-3.5660515333887Clb=3.9m/s t=-7.9C h=91.1% p=631.5hPa 403.000 MHz Type=RS41-SGP Radiosonde auto_rx v1.5.3
EA4EKH-11U02301022022-12-05 23:27:2840.5189-3.5660917333883Clb=4.1m/s t=-7.9C h=90.6% p=631.7hPa 403.000 MHz Type=RS41-SGP ser=U0230102 Radiosonde
EA4GBR-10U02301022022-12-05 23:27:2640.5188-3.5661220373879Clb=4.0m/s t=-7.8C 403.000MHz Type=RS41 rdzTTGOsonde
EA4EKH-12U02301022022-12-05 23:27:1840.5181-3.566417333849Clb=4.1m/s p=634.6hPa t=-7.6C h=88.4% 403.000MHz Type=RS41-SGP rdzTTGOsonde
EA4GBR-10U02301022022-12-05 23:27:0240.5169-3.5668412303778Clb=4.7m/s t=-6.9C 403.000MHz Type=RS41 rdzTTGOsonde
EA4EKH-12U02301022022-12-05 23:26:5640.5164-3.566899393749Clb=5.2m/s p=642.6hPa t=-6.6C h=82.9% 403.000MHz Type=RS41-SGP rdzTTGOsonde
EA4GBR-10U02301022022-12-05 23:26:3940.5149-3.5671822283668Clb=4.9m/s t=-6.0C 403.000MHz Type=RS41 rdzTTGOsonde
EA4EKH-12U02301022022-12-05 23:26:3540.5146-3.5673423333648Clb=4.0m/s p=650.8hPa t=-6.0C h=85.1% 403.000MHz Type=RS41-SGP rdzTTGOsonde
EA4EKH-11U02301022022-12-05 23:26:2640.5136-3.5676620353604Clb=6.1m/s t=-5.9C h=86.6% p=654.7hPa 403.000 MHz Type=RS41-SGP ser=U0230102 Radiosonde
EA4GBR-10U02301022022-12-05 23:26:1640.513-3.5678411263565Clb=5.1m/s t=-5.9C 403.000MHz Type=RS41 rdzTTGOsonde
EA4EKH-12U02301022022-12-05 23:26:1540.5129-3.5678613283560Clb=4.2m/s p=658.6hPa t=-5.9C h=91.2% 403.000MHz Type=RS41-SGP rdzTTGOsonde
EA4GSU-11U02301022022-12-05 23:26:0040.5115-3.5686530443471Clb=5.0m/s t=-5.2C h=87.0% p=665.7hPa 403.000 MHz Type=RS41-SGP Radiosonde auto_rx v1.5.3
EA4GBR-10U02301022022-12-05 23:25:5440.5111-3.5689226413455Clb=4.0m/s t=-5.1C 403.000MHz Type=RS41 rdzTTGOsonde
EA4EKH-12U02301022022-12-05 23:25:3440.5093-3.5700728433363Clb=4.3m/s p=675.1hPa t=-4.7C h=90.2% 403.000MHz Type=RS41-SGP rdzTTGOsonde
EA4GBR-10U02301022022-12-05 23:25:2940.5089-3.5703936393340Clb=4.8m/s t=-4.6C 403.000MHz Type=RS41 rdzTTGOsonde
EA4EKH-11U02301022022-12-05 23:25:2340.5082-3.5708325463307Clb=3.1m/s t=-4.5C h=90.6% p=679.5hPa 403.000 MHz Type=RS41-SGP ser=U0230102 Radiosonde
EA4EKH-12U02301022022-12-05 23:25:1340.5074-3.5713629353273Clb=4.6m/s p=682.8hPa t=-4.3C h=92.1% 403.000MHz Type=RS41-SGP rdzTTGOsonde
EA4GSU-11U02301022022-12-05 23:25:0240.506-3.5723419373209Clb=5.2m/s t=-4.7C h=98.6% p=688.4hPa 403.000 MHz Type=RS41-SGP Radiosonde auto_rx v1.5.3
EA4GBR-10U02301022022-12-05 23:25:0140.5059-3.5723819393203Clb=5.2m/s t=-4.8C 403.000MHz Type=RS41 rdzTTGOsonde
EA4EKH-11U02301022022-12-05 23:24:5840.5053-3.5727829483178Clb=3.4m/s t=-4.8C h=100.0% p=690.8hPa 403.000 MHz Type=RS41-SGP ser=U0230102 Radiosonde
EA4GBR-10U02301022022-12-05 23:24:3940.5035-3.5739432483105Clb=4.1m/s t=-4.1C 403.000MHz Type=RS41 rdzTTGOsonde
EA4EKH-12U02301022022-12-05 23:24:3740.5033-3.574134463097Clb=4.9m/s p=698.3hPa t=-4.0C h=97.2% 403.000MHz Type=RS41-SGP rdzTTGOsonde
EA4GSU-11U02301022022-12-05 23:24:3540.503-3.5743225433084Clb=5.5m/s t=-3.9C h=96.6% p=699.4hPa 403.000 MHz Type=RS41-SGP Radiosonde auto_rx v1.5.3
EA4EKH-11U02301022022-12-05 23:24:2440.5021-3.5748227463048Clb=3.7m/s t=-3.5C h=94.6% p=702.6hPa 403.000 MHz Type=RS41-SGP ser=U0230102 Radiosonde
EA4EKH-12U02301022022-12-05 23:24:1340.501-3.5753619463011Clb=3.5m/s p=706.1hPa t=-3.2C h=93.0% 403.000MHz Type=RS41-SGP rdzTTGOsonde
EA4GBR-10U02301022022-12-05 23:24:1240.5009-3.575418433007Clb=4.6m/s t=-3.1C 403.000MHz Type=RS41 rdzTTGOsonde
EA4GSU-11U02301022022-12-05 23:24:0040.4997-3.5759715482948Clb=3.8m/s t=-2.6C h=90.1% p=711.4hPa 403.000 MHz Type=RS41-SGP Radiosonde auto_rx v1.5.3
EA4EKH-12U02301022022-12-05 23:23:5040.4989-3.5764719412911Clb=5.3m/s p=714.6hPa t=-2.3C h=89.0% 403.000MHz Type=RS41-SGP rdzTTGOsonde
EA4GBR-10U02301022022-12-05 23:23:4640.4985-3.5766219502895Clb=2.0m/s t=-2.1C 403.000MHz Type=RS41 rdzTTGOsonde
EA4EKH-12U02301022022-12-05 23:23:2940.4967-3.5776722442819Clb=4.2m/s p=723.1hPa t=-1.4C h=84.9% 403.000MHz Type=RS41-SGP rdzTTGOsonde
EA4EKH-11U02301022022-12-05 23:23:1940.4955-3.5782711392766Clb=5.7m/s t=-1.0C h=83.0% p=727.9hPa 403.000 MHz Type=RS41-SGP ser=U0230102 Radiosonde
EA4EKH-12U02301022022-12-05 23:23:1040.4946-3.5787524442734Clb=3.7m/s p=730.8hPa t=-0.8C h=86.3% 403.000MHz Type=RS41-SGP rdzTTGOsonde
EA4GBR-10U02301022022-12-05 23:23:0040.4937-3.5792428442700Clb=3.4m/s 403.000MHz Type=RS41 rdzTTGOsonde
EA4EKH-12U02301022022-12-05 23:22:4940.4926-3.5798723442663Clb=3.1m/s p=737.2hPa t=-0.5C h=91.8% 403.000MHz Type=RS41-SGP rdzTTGOsonde
EA4EKH-11U02301022022-12-05 23:22:4840.4924-3.5799819432655Clb=4.4m/s t=-0.4C h=90.7% p=737.8hPa 403.000 MHz Type=RS41-SGP ser=U0230102 Radiosonde
EA4GSU-11U02301022022-12-05 23:22:3040.4906-3.5808922372583Clb=5.0m/s t=0.1C h=91.1% p=744.9hPa 403.000 MHz Type=RS41-SGP Radiosonde auto_rx v1.5.3
EA4EKH-12U02301022022-12-05 23:22:2840.4906-3.5808924372583Clb=5.0m/s p=744.8hPa t=0.1C h=91.1% 403.000MHz Type=RS41-SGP rdzTTGOsonde
EA4GBR-10U02301022022-12-05 23:22:2740.4905-3.5809423412578Clb=5.6m/s 403.000MHz Type=RS41 rdzTTGOsonde
EA4EKH-11U02301022022-12-05 23:22:1740.4893-3.5814312372528Clb=4.3m/s t=0.3C h=93.2% p=749.9hPa 403.000 MHz Type=RS41-SGP ser=U0230102 Radiosonde
EA4EKH-12U02301022022-12-05 23:22:0740.4886-3.5818425432488Clb=4.3m/s p=753.6hPa t=0.5C h=94.0% 403.000MHz Type=RS41-SGP rdzTTGOsonde
EA4GBR-10U02301022022-12-05 23:22:0440.4883-3.5819819432477Clb=3.7m/s 403.000MHz Type=RS41 rdzTTGOsonde
EA4GSU-11U02301022022-12-05 23:22:0040.4877-3.5822429302449Clb=4.8m/s t=0.3C h=98.5% p=757.2hPa 403.000 MHz Type=RS41-SGP Radiosonde auto_rx v1.5.3
EA4EKH-12U02301022022-12-05 23:21:4740.4869-3.5824910282397Clb=4.8m/s p=761.8hPa t=0.6C h=98.6% 403.000MHz Type=RS41-SGP rdzTTGOsonde
EA4EKH-11U02301022022-12-05 23:21:4640.4868-3.582538222387Clb=4.1m/s t=0.7C h=99.3% p=762.8hPa 403.000 MHz Type=RS41-SGP ser=U0230102 Radiosonde
EA4GBR-10U02301022022-12-05 23:21:2940.4856-3.582696332320Clb=5.1m/s 403.000MHz Type=RS41 rdzTTGOsonde
EA4EKH-12U02301022022-12-05 23:21:2640.4853-3.5827411332304Clb=4.7m/s p=771.1hPa t=1.4C h=94.3% 403.000MHz Type=RS41-SGP rdzTTGOsonde
EA4EKH-11U02301022022-12-05 23:21:1540.4843-3.582953312249Clb=4.6m/s t=1.8C h=94.5% p=776.4hPa 403.000 MHz Type=RS41-SGP ser=U0230102 Radiosonde
EA4EKH-12U02301022022-12-05 23:21:0540.4836-3.5830911352209Clb=5.3m/s p=780.4hPa t=2.2C h=92.8% 403.000MHz Type=RS41-SGP rdzTTGOsonde
EA4GBR-10U02301022022-12-05 23:21:0340.4835-3.5831211302199Clb=4.7m/s 403.000MHz Type=RS41 rdzTTGOsonde
EA4GSU-11U02301022022-12-05 23:21:0040.4832-3.583194282173Clb=6.3m/s t=2.5C h=91.7% p=783.7hPa 403.000 MHz Type=RS41-SGP Radiosonde auto_rx v1.5.3
EA4EKH-12U02301022022-12-05 23:20:4640.4821-3.5835812282113Clb=3.7m/s p=789.3hPa t=3.0C h=86.3% 403.000MHz Type=RS41-SGP rdzTTGOsonde
EA4EKH-11U02301022022-12-05 23:20:4540.482-3.583614262110Clb=2.7m/s t=3.0C h=86.5% p=789.7hPa 403.000 MHz Type=RS41-SGP ser=U0230102 Radiosonde
EA4GBR-10U02301022022-12-05 23:20:3640.4815-3.583779282078Clb=3.9m/s 403.000MHz Type=RS41 rdzTTGOsonde
EA4GSU-11U02301022022-12-05 23:20:3140.4809-3.5839719282046Clb=3.8m/s t=3.4C h=85.7% p=796.0hPa 403.000 MHz Type=RS41-SGP Radiosonde auto_rx v1.5.3
EA4EKH-12U02301022022-12-05 23:20:2540.4808-3.58418282044Clb=2.3m/s p=796.2hPa t=3.4C h=86.0% 403.000MHz Type=RS41-SGP rdzTTGOsonde
EA4EKH-11U02301022022-12-05 23:20:1340.4799-3.5845635331994Clb=4.3m/s t=3.8C h=85.7% p=801.4hPa 403.000 MHz Type=RS41-SGP ser=U0230102 Radiosonde
EA4EKH-12U02301022022-12-05 23:20:0340.4792-3.58519301953Clb=5.5m/s p=805.4hPa t=4.1C h=85.2% 403.000MHz Type=RS41-SGP rdzTTGOsonde
EA4GSU-11U02301022022-12-05 23:20:0040.4789-3.585236301924Clb=6.0m/s t=4.2C h=85.5% p=807.7hPa 403.000 MHz Type=RS41-SGP Radiosonde auto_rx v1.5.3
EA4EKH-12U02301022022-12-05 23:19:4340.4779-3.5857123311859Clb=4.3m/s p=814.5hPa t=4.5C h=86.8% 403.000MHz Type=RS41-SGP rdzTTGOsonde
EA4EKH-11U02301022022-12-05 23:19:4240.4777-3.585813241846Clb=4.7m/s t=4.6C h=87.0% p=815.8hPa 403.000 MHz Type=RS41-SGP ser=U0230102 Radiosonde
EA4GSU-11U02301022022-12-05 23:19:3040.477-3.5861518261799Clb=4.5m/s t=4.9C h=88.6% p=820.5hPa 403.000 MHz Type=RS41-SGP Radiosonde auto_rx v1.5.3
EA4EKH-12U02301022022-12-05 23:19:2240.4766-3.5863430221779Clb=3.3m/s p=822.8hPa t=5.1C h=88.1% 403.000MHz Type=RS41-SGP rdzTTGOsonde
EA4EKH-11U02301022022-12-05 23:19:1140.476-3.5864816201735Clb=4.9m/s t=5.5C h=87.7% p=827.1hPa 403.000 MHz Type=RS41-SGP ser=U0230102 Radiosonde
EA4EKH-12U02301022022-12-05 23:19:0240.4756-3.586555201696Clb=6.0m/s p=830.9hPa t=5.8C h=87.3% 403.000MHz Type=RS41-SGP rdzTTGOsonde
EA4GSU-11U02301022022-12-05 23:19:0040.4754-3.5866125201675Clb=5.2m/s t=5.9C h=-1.0% p=832.9hPa 403.000 MHz Type=RS41-SGP Radiosonde auto_rx v1.5.3
EA4EKH-12U02301022022-12-05 23:18:4140.4745-3.5868528221607Clb=4.0m/s p=840.2hPa t=6.1C h=90.1% 403.000MHz Type=RS41-SGP rdzTTGOsonde
EA4EKH-11U02301022022-12-05 23:18:4040.4744-3.5869310191595Clb=4.3m/s t=6.1C h=90.8% p=841.4hPa 403.000 MHz Type=RS41-SGP ser=U0230102 Radiosonde
EA4GSU-11U02301022022-12-05 23:18:3040.4738-3.587139131554Clb=3.6m/s t=-273.0C h=-1.0% p=-1.0hPa 403.000 MHz Type=RS41-SGP Radiosonde auto_rx v1.5.3
EA4EKH-12U02301022022-12-05 23:18:2140.4736-3.58704337171533Clb=3.7m/s p=847.4hPa t=6.5C h=91.8% 403.000MHz Type=RS41-SGP rdzTTGOsonde
EA4EKH-11U02301022022-12-05 23:18:0940.4728-3.5872612281474Clb=3.1m/s t=6.0C h=100.0% p=853.6hPa 403.000 MHz Type=RS41-SGP ser=U0230102 Radiosonde
EA4EKH-12U02301022022-12-05 23:18:0040.4725-3.58729360151448Clb=3.9m/s p=856.4hPa t=6.1C h=98.9% 403.000MHz Type=RS41-SGP rdzTTGOsonde
EA4EKH-12U02301022022-12-05 23:17:4040.4712-3.58693355351358Clb=6.1m/s p=865.8hPa t=6.8C h=95.2% 403.000MHz Type=RS41-SGP rdzTTGOsonde
EA4EKH-11U02301022022-12-05 23:17:3840.4708-3.58674336431340Clb=5.5m/s t=7.0C h=94.0% p=867.7hPa 403.000 MHz Type=RS41-SGP ser=U0230102 Radiosonde
EA4GSU-11U02301022022-12-05 23:17:3240.4702-3.58645329391300Clb=3.9m/s t=-273.0C h=-1.0% p=-1.0hPa 403.000 MHz Type=RS41 Radiosonde auto_rx v1.5.3
EA4EKH-12U02301022022-12-05 23:17:1940.4695-3.58603317391263Clb=3.7m/s p=875.8hPa t=7.5C h=91.3% 403.000MHz Type=RS41-SGP rdzTTGOsonde
EA4EKH-11U02301022022-12-05 23:17:0740.4683-3.58522340391205Clb=4.3m/s t=7.0C h=96.5% p=881.9hPa 403.000 MHz Type=RS41-SGP ser=U0230102 Radiosonde
EA4EKH-12U02301022022-12-05 23:16:5840.4676-3.58473312311175Clb=4.4m/s p=884.8hPa t=7.2C h=96.1% 403.000MHz Type=RS41-SGP rdzTTGOsonde
EA4EKH-12U02301022022-12-05 23:16:3840.4664-3.58325317351086Clb=4.3m/s p=894.6hPa t=7.6C h=96.7% 403.000MHz Type=RS41-SGP rdzTTGOsonde
EA4EKH-12U02301022022-12-05 23:16:1840.4656-3.58207496999Clb=3.9m/s p=904.2hPa t=8.2C h=95.0% 403.000MHz Type=RS41-SGP rdzTTGOsonde